<?xml version="1.0" encoding="UTF-8" standalone="no" ?>
<gpx xmlns="http://www.topografix.com/GPX/1/1" xmlns:xsi="http://www.w3.org/2001/XMLSchema-instance" xsi:schemaLocation="http://www.topografix.com/GPX/1/1 http://www.topografix.com/GPX/1/1/gpx.xsd" version="1.1" creator="VisuGPX - https://www.visugpx.com">
  <metadata>
    <name>Le sentier de bagert (09)-2020-01-25-160923</name>
    <desc><![CDATA[[b][i][url][img][/img][/url][/i][/b]
]]></desc>
  </metadata>
  <trk>
    <name><![CDATA[MA-Rando-2020-01-25-160923]]></name>
    <trkseg>
      <trkpt lat="43.0871" lon="1.10275">
        <ele>450</ele>
        <time>2020-01-25T09:03:50Z</time>
      </trkpt>
      <trkpt lat="43.08701" lon="1.10278">
        <ele>445</ele>
        <time>2020-01-25T09:04:05Z</time>
      </trkpt>
      <trkpt lat="43.08698" lon="1.10264">
        <ele>439</ele>
        <time>2020-01-25T09:04:22Z</time>
      </trkpt>
      <trkpt lat="43.08696" lon="1.10251">
        <ele>438</ele>
        <time>2020-01-25T09:04:33Z</time>
      </trkpt>
      <trkpt lat="43.08694" lon="1.10238">
        <ele>439</ele>
        <time>2020-01-25T09:04:40Z</time>
      </trkpt>
      <trkpt lat="43.08694" lon="1.10224">
        <ele>439</ele>
        <time>2020-01-25T09:04:49Z</time>
      </trkpt>
      <trkpt lat="43.08696" lon="1.10211">
        <ele>433</ele>
        <time>2020-01-25T09:05:00Z</time>
      </trkpt>
      <trkpt lat="43.08697" lon="1.10197">
        <ele>433</ele>
        <time>2020-01-25T09:05:10Z</time>
      </trkpt>
      <trkpt lat="43.08699" lon="1.10184">
        <ele>429</ele>
        <time>2020-01-25T09:05:20Z</time>
      </trkpt>
      <trkpt lat="43.08703" lon="1.10171">
        <ele>428</ele>
        <time>2020-01-25T09:05:29Z</time>
      </trkpt>
      <trkpt lat="43.08705" lon="1.10159">
        <ele>430</ele>
        <time>2020-01-25T09:05:36Z</time>
      </trkpt>
      <trkpt lat="43.08705" lon="1.10146">
        <ele>432</ele>
        <time>2020-01-25T09:05:42Z</time>
      </trkpt>
      <trkpt lat="43.08705" lon="1.10132">
        <ele>432</ele>
        <time>2020-01-25T09:05:50Z</time>
      </trkpt>
      <trkpt lat="43.08708" lon="1.1012">
        <ele>431</ele>
        <time>2020-01-25T09:05:58Z</time>
      </trkpt>
      <trkpt lat="43.08707" lon="1.10107">
        <ele>430</ele>
        <time>2020-01-25T09:06:10Z</time>
      </trkpt>
      <trkpt lat="43.08708" lon="1.10093">
        <ele>432</ele>
        <time>2020-01-25T09:06:15Z</time>
      </trkpt>
      <trkpt lat="43.08708" lon="1.1008">
        <ele>434</ele>
        <time>2020-01-25T09:06:22Z</time>
      </trkpt>
      <trkpt lat="43.08712" lon="1.10069">
        <ele>432</ele>
        <time>2020-01-25T09:06:29Z</time>
      </trkpt>
      <trkpt lat="43.08714" lon="1.10055">
        <ele>433</ele>
        <time>2020-01-25T09:06:36Z</time>
      </trkpt>
      <trkpt lat="43.08717" lon="1.10042">
        <ele>431</ele>
        <time>2020-01-25T09:06:44Z</time>
      </trkpt>
      <trkpt lat="43.08718" lon="1.10028">
        <ele>435</ele>
        <time>2020-01-25T09:06:50Z</time>
      </trkpt>
      <trkpt lat="43.08719" lon="1.10014">
        <ele>437</ele>
        <time>2020-01-25T09:06:57Z</time>
      </trkpt>
      <trkpt lat="43.0872" lon="1.10001">
        <ele>438</ele>
        <time>2020-01-25T09:07:04Z</time>
      </trkpt>
      <trkpt lat="43.08722" lon="1.09988">
        <ele>441</ele>
        <time>2020-01-25T09:07:11Z</time>
      </trkpt>
      <trkpt lat="43.08723" lon="1.09974">
        <ele>438</ele>
        <time>2020-01-25T09:07:20Z</time>
      </trkpt>
      <trkpt lat="43.08725" lon="1.09961">
        <ele>438</ele>
        <time>2020-01-25T09:07:29Z</time>
      </trkpt>
      <trkpt lat="43.08727" lon="1.09947">
        <ele>440</ele>
        <time>2020-01-25T09:07:36Z</time>
      </trkpt>
      <trkpt lat="43.08722" lon="1.09936">
        <ele>440</ele>
        <time>2020-01-25T09:07:45Z</time>
      </trkpt>
      <trkpt lat="43.08712" lon="1.09932">
        <ele>437</ele>
        <time>2020-01-25T09:07:54Z</time>
      </trkpt>
      <trkpt lat="43.08703" lon="1.09931">
        <ele>437</ele>
        <time>2020-01-25T09:08:02Z</time>
      </trkpt>
      <trkpt lat="43.08694" lon="1.09928">
        <ele>432</ele>
        <time>2020-01-25T09:08:11Z</time>
      </trkpt>
      <trkpt lat="43.08685" lon="1.09922">
        <ele>434</ele>
        <time>2020-01-25T09:08:17Z</time>
      </trkpt>
      <trkpt lat="43.08674" lon="1.09919">
        <ele>434</ele>
        <time>2020-01-25T09:08:24Z</time>
      </trkpt>
      <trkpt lat="43.08664" lon="1.09922">
        <ele>434</ele>
        <time>2020-01-25T09:08:32Z</time>
      </trkpt>
      <trkpt lat="43.08655" lon="1.09929">
        <ele>435</ele>
        <time>2020-01-25T09:08:38Z</time>
      </trkpt>
      <trkpt lat="43.08648" lon="1.09937">
        <ele>435</ele>
        <time>2020-01-25T09:08:44Z</time>
      </trkpt>
      <trkpt lat="43.0864" lon="1.09948">
        <ele>435</ele>
        <time>2020-01-25T09:08:56Z</time>
      </trkpt>
      <trkpt lat="43.08632" lon="1.09956">
        <ele>438</ele>
        <time>2020-01-25T09:09:05Z</time>
      </trkpt>
      <trkpt lat="43.08625" lon="1.09965">
        <ele>433</ele>
        <time>2020-01-25T09:09:14Z</time>
      </trkpt>
      <trkpt lat="43.08617" lon="1.09975">
        <ele>430</ele>
        <time>2020-01-25T09:09:21Z</time>
      </trkpt>
      <trkpt lat="43.0861" lon="1.09985">
        <ele>434</ele>
        <time>2020-01-25T09:09:27Z</time>
      </trkpt>
      <trkpt lat="43.086" lon="1.09989">
        <ele>434</ele>
        <time>2020-01-25T09:09:39Z</time>
      </trkpt>
      <trkpt lat="43.08592" lon="1.09995">
        <ele>432</ele>
        <time>2020-01-25T09:09:47Z</time>
      </trkpt>
      <trkpt lat="43.08584" lon="1.10001">
        <ele>432</ele>
        <time>2020-01-25T09:09:54Z</time>
      </trkpt>
      <trkpt lat="43.08575" lon="1.10007">
        <ele>431</ele>
        <time>2020-01-25T09:09:58Z</time>
      </trkpt>
      <trkpt lat="43.08566" lon="1.10011">
        <ele>433</ele>
        <time>2020-01-25T09:10:05Z</time>
      </trkpt>
      <trkpt lat="43.08557" lon="1.10016">
        <ele>432</ele>
        <time>2020-01-25T09:10:10Z</time>
      </trkpt>
      <trkpt lat="43.08547" lon="1.10015">
        <ele>427</ele>
        <time>2020-01-25T09:10:21Z</time>
      </trkpt>
      <trkpt lat="43.08538" lon="1.10015">
        <ele>428</ele>
        <time>2020-01-25T09:10:28Z</time>
      </trkpt>
      <trkpt lat="43.08529" lon="1.1002">
        <ele>429</ele>
        <time>2020-01-25T09:10:35Z</time>
      </trkpt>
      <trkpt lat="43.0852" lon="1.10022">
        <ele>428</ele>
        <time>2020-01-25T09:10:43Z</time>
      </trkpt>
      <trkpt lat="43.0851" lon="1.10023">
        <ele>424</ele>
        <time>2020-01-25T09:10:51Z</time>
      </trkpt>
      <trkpt lat="43.08501" lon="1.10026">
        <ele>422</ele>
        <time>2020-01-25T09:11:00Z</time>
      </trkpt>
      <trkpt lat="43.08492" lon="1.10023">
        <ele>423</ele>
        <time>2020-01-25T09:11:07Z</time>
      </trkpt>
      <trkpt lat="43.08483" lon="1.10013">
        <ele>420</ele>
        <time>2020-01-25T09:11:16Z</time>
      </trkpt>
      <trkpt lat="43.08477" lon="1.10002">
        <ele>420</ele>
        <time>2020-01-25T09:11:22Z</time>
      </trkpt>
      <trkpt lat="43.08467" lon="1.09993">
        <ele>423</ele>
        <time>2020-01-25T09:11:31Z</time>
      </trkpt>
      <trkpt lat="43.08464" lon="1.09981">
        <ele>422</ele>
        <time>2020-01-25T09:11:36Z</time>
      </trkpt>
      <trkpt lat="43.08458" lon="1.09971">
        <ele>421</ele>
        <time>2020-01-25T09:11:45Z</time>
      </trkpt>
      <trkpt lat="43.08451" lon="1.09961">
        <ele>422</ele>
        <time>2020-01-25T09:11:52Z</time>
      </trkpt>
      <trkpt lat="43.08447" lon="1.09949">
        <ele>423</ele>
        <time>2020-01-25T09:11:59Z</time>
      </trkpt>
      <trkpt lat="43.08443" lon="1.09937">
        <ele>420</ele>
        <time>2020-01-25T09:12:06Z</time>
      </trkpt>
      <trkpt lat="43.08439" lon="1.09925">
        <ele>419</ele>
        <time>2020-01-25T09:12:15Z</time>
      </trkpt>
      <trkpt lat="43.08432" lon="1.09915">
        <ele>422</ele>
        <time>2020-01-25T09:12:21Z</time>
      </trkpt>
      <trkpt lat="43.08428" lon="1.09903">
        <ele>423</ele>
        <time>2020-01-25T09:12:29Z</time>
      </trkpt>
      <trkpt lat="43.08427" lon="1.09891">
        <ele>418</ele>
        <time>2020-01-25T09:12:42Z</time>
      </trkpt>
      <trkpt lat="43.08421" lon="1.09881">
        <ele>420</ele>
        <time>2020-01-25T09:12:50Z</time>
      </trkpt>
      <trkpt lat="43.08415" lon="1.09871">
        <ele>418</ele>
        <time>2020-01-25T09:12:56Z</time>
      </trkpt>
      <trkpt lat="43.08411" lon="1.09861">
        <ele>416</ele>
        <time>2020-01-25T09:13:04Z</time>
      </trkpt>
      <trkpt lat="43.08402" lon="1.09854">
        <ele>416</ele>
        <time>2020-01-25T09:13:12Z</time>
      </trkpt>
      <trkpt lat="43.08394" lon="1.09845">
        <ele>411</ele>
        <time>2020-01-25T09:13:18Z</time>
      </trkpt>
      <trkpt lat="43.08385" lon="1.09842">
        <ele>410</ele>
        <time>2020-01-25T09:13:26Z</time>
      </trkpt>
      <trkpt lat="43.08376" lon="1.09839">
        <ele>410</ele>
        <time>2020-01-25T09:13:33Z</time>
      </trkpt>
      <trkpt lat="43.08367" lon="1.09834">
        <ele>410</ele>
        <time>2020-01-25T09:13:40Z</time>
      </trkpt>
      <trkpt lat="43.08358" lon="1.09828">
        <ele>406</ele>
        <time>2020-01-25T09:13:49Z</time>
      </trkpt>
      <trkpt lat="43.08349" lon="1.09822">
        <ele>404</ele>
        <time>2020-01-25T09:13:56Z</time>
      </trkpt>
      <trkpt lat="43.08343" lon="1.09813">
        <ele>401</ele>
        <time>2020-01-25T09:14:04Z</time>
      </trkpt>
      <trkpt lat="43.08338" lon="1.09801">
        <ele>397</ele>
        <time>2020-01-25T09:14:12Z</time>
      </trkpt>
      <trkpt lat="43.08332" lon="1.09789">
        <ele>397</ele>
        <time>2020-01-25T09:14:20Z</time>
      </trkpt>
      <trkpt lat="43.08327" lon="1.09778">
        <ele>394</ele>
        <time>2020-01-25T09:14:28Z</time>
      </trkpt>
      <trkpt lat="43.08321" lon="1.09766">
        <ele>393</ele>
        <time>2020-01-25T09:14:35Z</time>
      </trkpt>
      <trkpt lat="43.08316" lon="1.09754">
        <ele>389</ele>
        <time>2020-01-25T09:14:44Z</time>
      </trkpt>
      <trkpt lat="43.08307" lon="1.09749">
        <ele>390</ele>
        <time>2020-01-25T09:14:51Z</time>
      </trkpt>
      <trkpt lat="43.08298" lon="1.0975">
        <ele>387</ele>
        <time>2020-01-25T09:14:57Z</time>
      </trkpt>
      <trkpt lat="43.08288" lon="1.0975">
        <ele>386</ele>
        <time>2020-01-25T09:15:04Z</time>
      </trkpt>
      <trkpt lat="43.08279" lon="1.09752">
        <ele>383</ele>
        <time>2020-01-25T09:15:11Z</time>
      </trkpt>
      <trkpt lat="43.0827" lon="1.09754">
        <ele>384</ele>
        <time>2020-01-25T09:15:17Z</time>
      </trkpt>
      <trkpt lat="43.0826" lon="1.09755">
        <ele>388</ele>
        <time>2020-01-25T09:15:23Z</time>
      </trkpt>
      <trkpt lat="43.08251" lon="1.09755">
        <ele>391</ele>
        <time>2020-01-25T09:15:30Z</time>
      </trkpt>
      <trkpt lat="43.0824" lon="1.09758">
        <ele>389</ele>
        <time>2020-01-25T09:15:38Z</time>
      </trkpt>
      <trkpt lat="43.08229" lon="1.09761">
        <ele>387</ele>
        <time>2020-01-25T09:15:46Z</time>
      </trkpt>
      <trkpt lat="43.0822" lon="1.09762">
        <ele>386</ele>
        <time>2020-01-25T09:15:53Z</time>
      </trkpt>
      <trkpt lat="43.0821" lon="1.09762">
        <ele>387</ele>
        <time>2020-01-25T09:16:00Z</time>
      </trkpt>
      <trkpt lat="43.08201" lon="1.09769">
        <ele>384</ele>
        <time>2020-01-25T09:16:05Z</time>
      </trkpt>
      <trkpt lat="43.08191" lon="1.09771">
        <ele>383</ele>
        <time>2020-01-25T09:16:15Z</time>
      </trkpt>
      <trkpt lat="43.08182" lon="1.09774">
        <ele>381</ele>
        <time>2020-01-25T09:16:23Z</time>
      </trkpt>
      <trkpt lat="43.08171" lon="1.09777">
        <ele>380</ele>
        <time>2020-01-25T09:16:30Z</time>
      </trkpt>
      <trkpt lat="43.08162" lon="1.09775">
        <ele>383</ele>
        <time>2020-01-25T09:16:39Z</time>
      </trkpt>
      <trkpt lat="43.08154" lon="1.09768">
        <ele>391</ele>
        <time>2020-01-25T09:16:53Z</time>
      </trkpt>
      <trkpt lat="43.08147" lon="1.09758">
        <ele>394</ele>
        <time>2020-01-25T09:17:02Z</time>
      </trkpt>
      <trkpt lat="43.0815" lon="1.09746">
        <ele>396</ele>
        <time>2020-01-25T09:17:09Z</time>
      </trkpt>
      <trkpt lat="43.08144" lon="1.09737">
        <ele>393</ele>
        <time>2020-01-25T09:17:14Z</time>
      </trkpt>
      <trkpt lat="43.0814" lon="1.09725">
        <ele>393</ele>
        <time>2020-01-25T09:17:20Z</time>
      </trkpt>
      <trkpt lat="43.08137" lon="1.09713">
        <ele>392</ele>
        <time>2020-01-25T09:17:27Z</time>
      </trkpt>
      <trkpt lat="43.08138" lon="1.09701">
        <ele>393</ele>
        <time>2020-01-25T09:17:35Z</time>
      </trkpt>
      <trkpt lat="43.08139" lon="1.09688">
        <ele>395</ele>
        <time>2020-01-25T09:17:43Z</time>
      </trkpt>
      <trkpt lat="43.08134" lon="1.09676">
        <ele>390</ele>
        <time>2020-01-25T09:17:49Z</time>
      </trkpt>
      <trkpt lat="43.08131" lon="1.09662">
        <ele>388</ele>
        <time>2020-01-25T09:17:56Z</time>
      </trkpt>
      <trkpt lat="43.08127" lon="1.0965">
        <ele>388</ele>
        <time>2020-01-25T09:18:03Z</time>
      </trkpt>
      <trkpt lat="43.0812" lon="1.09641">
        <ele>388</ele>
        <time>2020-01-25T09:18:10Z</time>
      </trkpt>
      <trkpt lat="43.08114" lon="1.09631">
        <ele>388</ele>
        <time>2020-01-25T09:18:17Z</time>
      </trkpt>
      <trkpt lat="43.08108" lon="1.09621">
        <ele>390</ele>
        <time>2020-01-25T09:18:25Z</time>
      </trkpt>
      <trkpt lat="43.08099" lon="1.09616">
        <ele>390</ele>
        <time>2020-01-25T09:18:31Z</time>
      </trkpt>
      <trkpt lat="43.0809" lon="1.09611">
        <ele>389</ele>
        <time>2020-01-25T09:18:39Z</time>
      </trkpt>
      <trkpt lat="43.08081" lon="1.09609">
        <ele>389</ele>
        <time>2020-01-25T09:18:48Z</time>
      </trkpt>
      <trkpt lat="43.08069" lon="1.09609">
        <ele>396</ele>
        <time>2020-01-25T09:18:58Z</time>
      </trkpt>
      <trkpt lat="43.08061" lon="1.096">
        <ele>395</ele>
        <time>2020-01-25T09:19:10Z</time>
      </trkpt>
      <trkpt lat="43.08058" lon="1.09587">
        <ele>399</ele>
        <time>2020-01-25T09:19:25Z</time>
      </trkpt>
      <trkpt lat="43.08061" lon="1.09573">
        <ele>401</ele>
        <time>2020-01-25T09:19:35Z</time>
      </trkpt>
      <trkpt lat="43.0807" lon="1.09567">
        <ele>407</ele>
        <time>2020-01-25T09:19:48Z</time>
      </trkpt>
      <trkpt lat="43.08073" lon="1.09556">
        <ele>403</ele>
        <time>2020-01-25T09:19:56Z</time>
      </trkpt>
      <trkpt lat="43.08082" lon="1.09551">
        <ele>406</ele>
        <time>2020-01-25T09:20:07Z</time>
      </trkpt>
      <trkpt lat="43.08089" lon="1.09543">
        <ele>410</ele>
        <time>2020-01-25T09:20:16Z</time>
      </trkpt>
      <trkpt lat="43.08092" lon="1.0953">
        <ele>417</ele>
        <time>2020-01-25T09:20:33Z</time>
      </trkpt>
      <trkpt lat="43.08087" lon="1.09516">
        <ele>416</ele>
        <time>2020-01-25T09:20:43Z</time>
      </trkpt>
      <trkpt lat="43.08087" lon="1.09502">
        <ele>415</ele>
        <time>2020-01-25T09:20:53Z</time>
      </trkpt>
      <trkpt lat="43.08087" lon="1.09488">
        <ele>413</ele>
        <time>2020-01-25T09:21:05Z</time>
      </trkpt>
      <trkpt lat="43.08086" lon="1.09475">
        <ele>410</ele>
        <time>2020-01-25T09:21:13Z</time>
      </trkpt>
      <trkpt lat="43.0809" lon="1.09463">
        <ele>411</ele>
        <time>2020-01-25T09:21:24Z</time>
      </trkpt>
      <trkpt lat="43.08083" lon="1.09454">
        <ele>411</ele>
        <time>2020-01-25T09:21:32Z</time>
      </trkpt>
      <trkpt lat="43.08082" lon="1.09441">
        <ele>407</ele>
        <time>2020-01-25T09:21:39Z</time>
      </trkpt>
      <trkpt lat="43.08082" lon="1.09429">
        <ele>408</ele>
        <time>2020-01-25T09:21:49Z</time>
      </trkpt>
      <trkpt lat="43.08077" lon="1.09418">
        <ele>420</ele>
        <time>2020-01-25T09:22:05Z</time>
      </trkpt>
      <trkpt lat="43.08072" lon="1.09407">
        <ele>422</ele>
        <time>2020-01-25T09:22:12Z</time>
      </trkpt>
      <trkpt lat="43.0808" lon="1.094">
        <ele>422</ele>
        <time>2020-01-25T09:22:16Z</time>
      </trkpt>
      <trkpt lat="43.08079" lon="1.09388">
        <ele>422</ele>
        <time>2020-01-25T09:22:26Z</time>
      </trkpt>
      <trkpt lat="43.08082" lon="1.09375">
        <ele>426</ele>
        <time>2020-01-25T09:22:35Z</time>
      </trkpt>
      <trkpt lat="43.08082" lon="1.09362">
        <ele>425</ele>
        <time>2020-01-25T09:22:44Z</time>
      </trkpt>
      <trkpt lat="43.0808" lon="1.0935">
        <ele>423</ele>
        <time>2020-01-25T09:22:53Z</time>
      </trkpt>
      <trkpt lat="43.08074" lon="1.09339">
        <ele>426</ele>
        <time>2020-01-25T09:23:04Z</time>
      </trkpt>
      <trkpt lat="43.08072" lon="1.09327">
        <ele>427</ele>
        <time>2020-01-25T09:23:12Z</time>
      </trkpt>
      <trkpt lat="43.08064" lon="1.09315">
        <ele>426</ele>
        <time>2020-01-25T09:23:19Z</time>
      </trkpt>
      <trkpt lat="43.08076" lon="1.09312">
        <ele>428</ele>
        <time>2020-01-25T09:23:25Z</time>
      </trkpt>
      <trkpt lat="43.08078" lon="1.093">
        <ele>432</ele>
        <time>2020-01-25T09:23:35Z</time>
      </trkpt>
      <trkpt lat="43.08081" lon="1.09286">
        <ele>437</ele>
        <time>2020-01-25T09:23:50Z</time>
      </trkpt>
      <trkpt lat="43.08078" lon="1.09273">
        <ele>437</ele>
        <time>2020-01-25T09:24:04Z</time>
      </trkpt>
      <trkpt lat="43.0808" lon="1.0926">
        <ele>442</ele>
        <time>2020-01-25T09:24:17Z</time>
      </trkpt>
      <trkpt lat="43.08075" lon="1.09249">
        <ele>444</ele>
        <time>2020-01-25T09:24:28Z</time>
      </trkpt>
      <trkpt lat="43.08076" lon="1.09236">
        <ele>449</ele>
        <time>2020-01-25T09:24:42Z</time>
      </trkpt>
      <trkpt lat="43.0807" lon="1.09224">
        <ele>446</ele>
        <time>2020-01-25T09:24:49Z</time>
      </trkpt>
      <trkpt lat="43.08064" lon="1.09216">
        <ele>444</ele>
        <time>2020-01-25T09:24:55Z</time>
      </trkpt>
      <trkpt lat="43.08058" lon="1.09205">
        <ele>445</ele>
        <time>2020-01-25T09:25:05Z</time>
      </trkpt>
      <trkpt lat="43.08053" lon="1.09194">
        <ele>450</ele>
        <time>2020-01-25T09:25:21Z</time>
      </trkpt>
      <trkpt lat="43.08047" lon="1.09184">
        <ele>449</ele>
        <time>2020-01-25T09:25:33Z</time>
      </trkpt>
      <trkpt lat="43.08038" lon="1.0918">
        <ele>452</ele>
        <time>2020-01-25T09:25:44Z</time>
      </trkpt>
      <trkpt lat="43.08029" lon="1.09177">
        <ele>452</ele>
        <time>2020-01-25T09:25:50Z</time>
      </trkpt>
      <trkpt lat="43.08019" lon="1.09171">
        <ele>457</ele>
        <time>2020-01-25T09:26:17Z</time>
      </trkpt>
      <trkpt lat="43.08011" lon="1.09164">
        <ele>455</ele>
        <time>2020-01-25T09:26:21Z</time>
      </trkpt>
      <trkpt lat="43.08005" lon="1.09153">
        <ele>458</ele>
        <time>2020-01-25T09:26:30Z</time>
      </trkpt>
      <trkpt lat="43.07999" lon="1.09144">
        <ele>457</ele>
        <time>2020-01-25T09:26:39Z</time>
      </trkpt>
      <trkpt lat="43.07992" lon="1.09135">
        <ele>460</ele>
        <time>2020-01-25T09:26:49Z</time>
      </trkpt>
      <trkpt lat="43.07986" lon="1.09125">
        <ele>464</ele>
        <time>2020-01-25T09:27:04Z</time>
      </trkpt>
      <trkpt lat="43.07976" lon="1.09121">
        <ele>463</ele>
        <time>2020-01-25T09:27:11Z</time>
      </trkpt>
      <trkpt lat="43.07973" lon="1.09108">
        <ele>462</ele>
        <time>2020-01-25T09:27:19Z</time>
      </trkpt>
      <trkpt lat="43.07966" lon="1.09098">
        <ele>461</ele>
        <time>2020-01-25T09:27:31Z</time>
      </trkpt>
      <trkpt lat="43.0796" lon="1.09088">
        <ele>459</ele>
        <time>2020-01-25T09:27:41Z</time>
      </trkpt>
      <trkpt lat="43.07957" lon="1.09075">
        <ele>460</ele>
        <time>2020-01-25T09:27:52Z</time>
      </trkpt>
      <trkpt lat="43.07952" lon="1.09063">
        <ele>455</ele>
        <time>2020-01-25T09:28:01Z</time>
      </trkpt>
      <trkpt lat="43.07948" lon="1.09051">
        <ele>457</ele>
        <time>2020-01-25T09:28:14Z</time>
      </trkpt>
      <trkpt lat="43.07944" lon="1.09039">
        <ele>458</ele>
        <time>2020-01-25T09:28:27Z</time>
      </trkpt>
      <trkpt lat="43.07936" lon="1.09029">
        <ele>460</ele>
        <time>2020-01-25T09:28:35Z</time>
      </trkpt>
      <trkpt lat="43.07932" lon="1.09019">
        <ele>463</ele>
        <time>2020-01-25T09:28:48Z</time>
      </trkpt>
      <trkpt lat="43.07925" lon="1.0901">
        <ele>463</ele>
        <time>2020-01-25T09:28:54Z</time>
      </trkpt>
      <trkpt lat="43.07919" lon="1.08999">
        <ele>468</ele>
        <time>2020-01-25T09:29:08Z</time>
      </trkpt>
      <trkpt lat="43.07911" lon="1.08992">
        <ele>472</ele>
        <time>2020-01-25T09:29:25Z</time>
      </trkpt>
      <trkpt lat="43.07905" lon="1.08982">
        <ele>475</ele>
        <time>2020-01-25T09:29:36Z</time>
      </trkpt>
      <trkpt lat="43.07899" lon="1.08972">
        <ele>480</ele>
        <time>2020-01-25T09:29:59Z</time>
      </trkpt>
      <trkpt lat="43.07891" lon="1.08963">
        <ele>485</ele>
        <time>2020-01-25T09:30:12Z</time>
      </trkpt>
      <trkpt lat="43.07883" lon="1.08955">
        <ele>485</ele>
        <time>2020-01-25T09:30:19Z</time>
      </trkpt>
      <trkpt lat="43.07873" lon="1.0895">
        <ele>485</ele>
        <time>2020-01-25T09:30:28Z</time>
      </trkpt>
      <trkpt lat="43.07866" lon="1.08942">
        <ele>483</ele>
        <time>2020-01-25T09:30:34Z</time>
      </trkpt>
      <trkpt lat="43.07863" lon="1.0893">
        <ele>488</ele>
        <time>2020-01-25T09:30:45Z</time>
      </trkpt>
      <trkpt lat="43.07855" lon="1.08923">
        <ele>489</ele>
        <time>2020-01-25T09:30:54Z</time>
      </trkpt>
      <trkpt lat="43.0785" lon="1.08912">
        <ele>487</ele>
        <time>2020-01-25T09:31:07Z</time>
      </trkpt>
      <trkpt lat="43.07845" lon="1.08901">
        <ele>487</ele>
        <time>2020-01-25T09:31:15Z</time>
      </trkpt>
      <trkpt lat="43.07844" lon="1.08888">
        <ele>490</ele>
        <time>2020-01-25T09:31:26Z</time>
      </trkpt>
      <trkpt lat="43.07838" lon="1.08877">
        <ele>491</ele>
        <time>2020-01-25T09:31:36Z</time>
      </trkpt>
      <trkpt lat="43.07836" lon="1.08865">
        <ele>492</ele>
        <time>2020-01-25T09:31:47Z</time>
      </trkpt>
      <trkpt lat="43.07841" lon="1.08854">
        <ele>493</ele>
        <time>2020-01-25T09:31:58Z</time>
      </trkpt>
      <trkpt lat="43.07844" lon="1.08841">
        <ele>494</ele>
        <time>2020-01-25T09:32:06Z</time>
      </trkpt>
      <trkpt lat="43.07846" lon="1.08827">
        <ele>492</ele>
        <time>2020-01-25T09:32:16Z</time>
      </trkpt>
      <trkpt lat="43.0785" lon="1.08816">
        <ele>493</ele>
        <time>2020-01-25T09:32:26Z</time>
      </trkpt>
      <trkpt lat="43.07853" lon="1.08803">
        <ele>498</ele>
        <time>2020-01-25T09:32:37Z</time>
      </trkpt>
      <trkpt lat="43.07859" lon="1.08794">
        <ele>500</ele>
        <time>2020-01-25T09:32:48Z</time>
      </trkpt>
      <trkpt lat="43.07868" lon="1.08786">
        <ele>498</ele>
        <time>2020-01-25T09:33:10Z</time>
      </trkpt>
      <trkpt lat="43.07877" lon="1.08782">
        <ele>503</ele>
        <time>2020-01-25T09:33:20Z</time>
      </trkpt>
      <trkpt lat="43.07886" lon="1.08779">
        <ele>507</ele>
        <time>2020-01-25T09:33:27Z</time>
      </trkpt>
      <trkpt lat="43.07895" lon="1.08775">
        <ele>509</ele>
        <time>2020-01-25T09:33:41Z</time>
      </trkpt>
      <trkpt lat="43.07898" lon="1.08763">
        <ele>509</ele>
        <time>2020-01-25T09:33:49Z</time>
      </trkpt>
      <trkpt lat="43.07899" lon="1.0875">
        <ele>507</ele>
        <time>2020-01-25T09:33:58Z</time>
      </trkpt>
      <trkpt lat="43.07898" lon="1.08737">
        <ele>506</ele>
        <time>2020-01-25T09:34:07Z</time>
      </trkpt>
      <trkpt lat="43.07898" lon="1.08724">
        <ele>508</ele>
        <time>2020-01-25T09:34:18Z</time>
      </trkpt>
      <trkpt lat="43.07899" lon="1.08711">
        <ele>509</ele>
        <time>2020-01-25T09:34:29Z</time>
      </trkpt>
      <trkpt lat="43.07901" lon="1.08699">
        <ele>511</ele>
        <time>2020-01-25T09:34:37Z</time>
      </trkpt>
      <trkpt lat="43.07901" lon="1.08686">
        <ele>511</ele>
        <time>2020-01-25T09:34:46Z</time>
      </trkpt>
      <trkpt lat="43.07903" lon="1.08673">
        <ele>513</ele>
        <time>2020-01-25T09:34:54Z</time>
      </trkpt>
      <trkpt lat="43.07901" lon="1.08661">
        <ele>515</ele>
        <time>2020-01-25T09:35:00Z</time>
      </trkpt>
      <trkpt lat="43.07898" lon="1.08648">
        <ele>512</ele>
        <time>2020-01-25T09:35:11Z</time>
      </trkpt>
      <trkpt lat="43.07898" lon="1.08634">
        <ele>515</ele>
        <time>2020-01-25T09:35:21Z</time>
      </trkpt>
      <trkpt lat="43.07896" lon="1.08622">
        <ele>514</ele>
        <time>2020-01-25T09:35:29Z</time>
      </trkpt>
      <trkpt lat="43.07896" lon="1.0861">
        <ele>516</ele>
        <time>2020-01-25T09:35:38Z</time>
      </trkpt>
      <trkpt lat="43.07894" lon="1.08597">
        <ele>517</ele>
        <time>2020-01-25T09:35:48Z</time>
      </trkpt>
      <trkpt lat="43.07892" lon="1.08584">
        <ele>520</ele>
        <time>2020-01-25T09:36:01Z</time>
      </trkpt>
      <trkpt lat="43.07889" lon="1.08572">
        <ele>522</ele>
        <time>2020-01-25T09:36:09Z</time>
      </trkpt>
      <trkpt lat="43.07888" lon="1.08558">
        <ele>522</ele>
        <time>2020-01-25T09:36:20Z</time>
      </trkpt>
      <trkpt lat="43.07884" lon="1.08547">
        <ele>523</ele>
        <time>2020-01-25T09:36:30Z</time>
      </trkpt>
      <trkpt lat="43.07881" lon="1.08535">
        <ele>521</ele>
        <time>2020-01-25T09:36:40Z</time>
      </trkpt>
      <trkpt lat="43.07875" lon="1.08526">
        <ele>526</ele>
        <time>2020-01-25T09:36:51Z</time>
      </trkpt>
      <trkpt lat="43.07869" lon="1.08516">
        <ele>529</ele>
        <time>2020-01-25T09:37:01Z</time>
      </trkpt>
      <trkpt lat="43.07863" lon="1.08507">
        <ele>530</ele>
        <time>2020-01-25T09:37:12Z</time>
      </trkpt>
      <trkpt lat="43.07854" lon="1.08499">
        <ele>533</ele>
        <time>2020-01-25T09:37:23Z</time>
      </trkpt>
      <trkpt lat="43.07848" lon="1.08488">
        <ele>538</ele>
        <time>2020-01-25T09:37:37Z</time>
      </trkpt>
      <trkpt lat="43.07842" lon="1.08479">
        <ele>540</ele>
        <time>2020-01-25T09:37:48Z</time>
      </trkpt>
      <trkpt lat="43.07833" lon="1.08472">
        <ele>539</ele>
        <time>2020-01-25T09:38:02Z</time>
      </trkpt>
      <trkpt lat="43.07825" lon="1.08466">
        <ele>541</ele>
        <time>2020-01-25T09:38:13Z</time>
      </trkpt>
      <trkpt lat="43.07814" lon="1.08461">
        <ele>545</ele>
        <time>2020-01-25T09:38:32Z</time>
      </trkpt>
      <trkpt lat="43.07804" lon="1.08458">
        <ele>547</ele>
        <time>2020-01-25T09:38:37Z</time>
      </trkpt>
      <trkpt lat="43.07795" lon="1.08456">
        <ele>548</ele>
        <time>2020-01-25T09:39:20Z</time>
      </trkpt>
      <trkpt lat="43.07801" lon="1.08446">
        <ele>547</ele>
        <time>2020-01-25T09:41:28Z</time>
      </trkpt>
      <trkpt lat="43.07804" lon="1.08434">
        <ele>545</ele>
        <time>2020-01-25T09:41:36Z</time>
      </trkpt>
      <trkpt lat="43.07802" lon="1.08422">
        <ele>542</ele>
        <time>2020-01-25T09:41:46Z</time>
      </trkpt>
      <trkpt lat="43.07802" lon="1.08408">
        <ele>543</ele>
        <time>2020-01-25T09:41:56Z</time>
      </trkpt>
      <trkpt lat="43.07802" lon="1.08394">
        <ele>545</ele>
        <time>2020-01-25T09:42:06Z</time>
      </trkpt>
      <trkpt lat="43.07802" lon="1.08381">
        <ele>548</ele>
        <time>2020-01-25T09:42:16Z</time>
      </trkpt>
      <trkpt lat="43.07803" lon="1.08368">
        <ele>546</ele>
        <time>2020-01-25T09:42:22Z</time>
      </trkpt>
      <trkpt lat="43.07804" lon="1.08355">
        <ele>544</ele>
        <time>2020-01-25T09:42:30Z</time>
      </trkpt>
      <trkpt lat="43.07802" lon="1.08342">
        <ele>544</ele>
        <time>2020-01-25T09:42:39Z</time>
      </trkpt>
      <trkpt lat="43.078" lon="1.08329">
        <ele>544</ele>
        <time>2020-01-25T09:42:49Z</time>
      </trkpt>
      <trkpt lat="43.0779" lon="1.08337">
        <ele>542</ele>
        <time>2020-01-25T09:43:02Z</time>
      </trkpt>
      <trkpt lat="43.07783" lon="1.08347">
        <ele>540</ele>
        <time>2020-01-25T09:43:11Z</time>
      </trkpt>
      <trkpt lat="43.07777" lon="1.08356">
        <ele>540</ele>
        <time>2020-01-25T09:43:18Z</time>
      </trkpt>
      <trkpt lat="43.07773" lon="1.08368">
        <ele>540</ele>
        <time>2020-01-25T09:43:27Z</time>
      </trkpt>
      <trkpt lat="43.07767" lon="1.08379">
        <ele>541</ele>
        <time>2020-01-25T09:43:35Z</time>
      </trkpt>
      <trkpt lat="43.07763" lon="1.08391">
        <ele>542</ele>
        <time>2020-01-25T09:43:43Z</time>
      </trkpt>
      <trkpt lat="43.07758" lon="1.08402">
        <ele>541</ele>
        <time>2020-01-25T09:43:51Z</time>
      </trkpt>
      <trkpt lat="43.07751" lon="1.08414">
        <ele>538</ele>
        <time>2020-01-25T09:43:59Z</time>
      </trkpt>
      <trkpt lat="43.07744" lon="1.08422">
        <ele>539</ele>
        <time>2020-01-25T09:44:06Z</time>
      </trkpt>
      <trkpt lat="43.07736" lon="1.08427">
        <ele>536</ele>
        <time>2020-01-25T09:44:12Z</time>
      </trkpt>
      <trkpt lat="43.07729" lon="1.08435">
        <ele>535</ele>
        <time>2020-01-25T09:44:19Z</time>
      </trkpt>
      <trkpt lat="43.07721" lon="1.08443">
        <ele>535</ele>
        <time>2020-01-25T09:44:27Z</time>
      </trkpt>
      <trkpt lat="43.07712" lon="1.0845">
        <ele>534</ele>
        <time>2020-01-25T09:44:35Z</time>
      </trkpt>
      <trkpt lat="43.07703" lon="1.08457">
        <ele>534</ele>
        <time>2020-01-25T09:44:44Z</time>
      </trkpt>
      <trkpt lat="43.07694" lon="1.08464">
        <ele>534</ele>
        <time>2020-01-25T09:44:51Z</time>
      </trkpt>
      <trkpt lat="43.07687" lon="1.08473">
        <ele>531</ele>
        <time>2020-01-25T09:45:01Z</time>
      </trkpt>
      <trkpt lat="43.0768" lon="1.08482">
        <ele>532</ele>
        <time>2020-01-25T09:45:09Z</time>
      </trkpt>
      <trkpt lat="43.07673" lon="1.08493">
        <ele>535</ele>
        <time>2020-01-25T09:45:17Z</time>
      </trkpt>
      <trkpt lat="43.07666" lon="1.08503">
        <ele>537</ele>
        <time>2020-01-25T09:45:24Z</time>
      </trkpt>
      <trkpt lat="43.0766" lon="1.08513">
        <ele>536</ele>
        <time>2020-01-25T09:45:31Z</time>
      </trkpt>
      <trkpt lat="43.07658" lon="1.08526">
        <ele>533</ele>
        <time>2020-01-25T09:45:39Z</time>
      </trkpt>
      <trkpt lat="43.07652" lon="1.08536">
        <ele>533</ele>
        <time>2020-01-25T09:45:46Z</time>
      </trkpt>
      <trkpt lat="43.07646" lon="1.08546">
        <ele>534</ele>
        <time>2020-01-25T09:45:52Z</time>
      </trkpt>
      <trkpt lat="43.07647" lon="1.08558">
        <ele>532</ele>
        <time>2020-01-25T09:46:02Z</time>
      </trkpt>
      <trkpt lat="43.07642" lon="1.0857">
        <ele>532</ele>
        <time>2020-01-25T09:46:11Z</time>
      </trkpt>
      <trkpt lat="43.07641" lon="1.08557">
        <ele>531</ele>
        <time>2020-01-25T09:49:55Z</time>
      </trkpt>
      <trkpt lat="43.07643" lon="1.08544">
        <ele>526</ele>
        <time>2020-01-25T09:50:05Z</time>
      </trkpt>
      <trkpt lat="43.07642" lon="1.08531">
        <ele>526</ele>
        <time>2020-01-25T09:50:21Z</time>
      </trkpt>
      <trkpt lat="43.07644" lon="1.08519">
        <ele>523</ele>
        <time>2020-01-25T09:50:35Z</time>
      </trkpt>
      <trkpt lat="43.07648" lon="1.08508">
        <ele>522</ele>
        <time>2020-01-25T09:50:42Z</time>
      </trkpt>
      <trkpt lat="43.07652" lon="1.08496">
        <ele>517</ele>
        <time>2020-01-25T09:50:51Z</time>
      </trkpt>
      <trkpt lat="43.07654" lon="1.08483">
        <ele>518</ele>
        <time>2020-01-25T09:51:29Z</time>
      </trkpt>
      <trkpt lat="43.07657" lon="1.0847">
        <ele>520</ele>
        <time>2020-01-25T09:51:37Z</time>
      </trkpt>
      <trkpt lat="43.07659" lon="1.08458">
        <ele>520</ele>
        <time>2020-01-25T09:51:46Z</time>
      </trkpt>
      <trkpt lat="43.07661" lon="1.08445">
        <ele>517</ele>
        <time>2020-01-25T09:51:58Z</time>
      </trkpt>
      <trkpt lat="43.07663" lon="1.08433">
        <ele>515</ele>
        <time>2020-01-25T09:52:08Z</time>
      </trkpt>
      <trkpt lat="43.07669" lon="1.08423">
        <ele>511</ele>
        <time>2020-01-25T09:52:17Z</time>
      </trkpt>
      <trkpt lat="43.0767" lon="1.0841">
        <ele>514</ele>
        <time>2020-01-25T09:52:25Z</time>
      </trkpt>
      <trkpt lat="43.07674" lon="1.08398">
        <ele>515</ele>
        <time>2020-01-25T09:52:37Z</time>
      </trkpt>
      <trkpt lat="43.07677" lon="1.08386">
        <ele>514</ele>
        <time>2020-01-25T09:52:46Z</time>
      </trkpt>
      <trkpt lat="43.07685" lon="1.08379">
        <ele>512</ele>
        <time>2020-01-25T09:52:54Z</time>
      </trkpt>
      <trkpt lat="43.0769" lon="1.08369">
        <ele>514</ele>
        <time>2020-01-25T09:53:01Z</time>
      </trkpt>
      <trkpt lat="43.07695" lon="1.08357">
        <ele>511</ele>
        <time>2020-01-25T09:53:08Z</time>
      </trkpt>
      <trkpt lat="43.07696" lon="1.08344">
        <ele>510</ele>
        <time>2020-01-25T09:53:16Z</time>
      </trkpt>
      <trkpt lat="43.07693" lon="1.08331">
        <ele>510</ele>
        <time>2020-01-25T09:53:25Z</time>
      </trkpt>
      <trkpt lat="43.07689" lon="1.08319">
        <ele>508</ele>
        <time>2020-01-25T09:53:33Z</time>
      </trkpt>
      <trkpt lat="43.07684" lon="1.08308">
        <ele>511</ele>
        <time>2020-01-25T09:53:45Z</time>
      </trkpt>
      <trkpt lat="43.07682" lon="1.08296">
        <ele>511</ele>
        <time>2020-01-25T09:53:54Z</time>
      </trkpt>
      <trkpt lat="43.07683" lon="1.08282">
        <ele>513</ele>
        <time>2020-01-25T09:54:04Z</time>
      </trkpt>
      <trkpt lat="43.07682" lon="1.08269">
        <ele>511</ele>
        <time>2020-01-25T09:54:15Z</time>
      </trkpt>
      <trkpt lat="43.07683" lon="1.08255">
        <ele>511</ele>
        <time>2020-01-25T09:54:25Z</time>
      </trkpt>
      <trkpt lat="43.07687" lon="1.08241">
        <ele>511</ele>
        <time>2020-01-25T09:54:36Z</time>
      </trkpt>
      <trkpt lat="43.07692" lon="1.0823">
        <ele>510</ele>
        <time>2020-01-25T09:54:43Z</time>
      </trkpt>
      <trkpt lat="43.07698" lon="1.08219">
        <ele>510</ele>
        <time>2020-01-25T09:54:52Z</time>
      </trkpt>
      <trkpt lat="43.07703" lon="1.08207">
        <ele>509</ele>
        <time>2020-01-25T09:55:01Z</time>
      </trkpt>
      <trkpt lat="43.07709" lon="1.08196">
        <ele>506</ele>
        <time>2020-01-25T09:55:09Z</time>
      </trkpt>
      <trkpt lat="43.07713" lon="1.08185">
        <ele>503</ele>
        <time>2020-01-25T09:55:20Z</time>
      </trkpt>
      <trkpt lat="43.0772" lon="1.08177">
        <ele>504</ele>
        <time>2020-01-25T09:55:28Z</time>
      </trkpt>
      <trkpt lat="43.07723" lon="1.08164">
        <ele>511</ele>
        <time>2020-01-25T09:55:37Z</time>
      </trkpt>
      <trkpt lat="43.07728" lon="1.08152">
        <ele>512</ele>
        <time>2020-01-25T09:55:43Z</time>
      </trkpt>
      <trkpt lat="43.07732" lon="1.0814">
        <ele>513</ele>
        <time>2020-01-25T09:55:50Z</time>
      </trkpt>
      <trkpt lat="43.07737" lon="1.0813">
        <ele>510</ele>
        <time>2020-01-25T09:55:57Z</time>
      </trkpt>
      <trkpt lat="43.07742" lon="1.0812">
        <ele>508</ele>
        <time>2020-01-25T09:56:05Z</time>
      </trkpt>
      <trkpt lat="43.07747" lon="1.08107">
        <ele>507</ele>
        <time>2020-01-25T09:56:13Z</time>
      </trkpt>
      <trkpt lat="43.0775" lon="1.08095">
        <ele>509</ele>
        <time>2020-01-25T09:56:21Z</time>
      </trkpt>
      <trkpt lat="43.07752" lon="1.08083">
        <ele>508</ele>
        <time>2020-01-25T09:56:28Z</time>
      </trkpt>
      <trkpt lat="43.07751" lon="1.0807">
        <ele>510</ele>
        <time>2020-01-25T09:56:34Z</time>
      </trkpt>
      <trkpt lat="43.07751" lon="1.08056">
        <ele>510</ele>
        <time>2020-01-25T09:56:42Z</time>
      </trkpt>
      <trkpt lat="43.07753" lon="1.08044">
        <ele>511</ele>
        <time>2020-01-25T09:56:51Z</time>
      </trkpt>
      <trkpt lat="43.07751" lon="1.08031">
        <ele>510</ele>
        <time>2020-01-25T09:57:00Z</time>
      </trkpt>
      <trkpt lat="43.07753" lon="1.08017">
        <ele>509</ele>
        <time>2020-01-25T09:57:08Z</time>
      </trkpt>
      <trkpt lat="43.07752" lon="1.08004">
        <ele>506</ele>
        <time>2020-01-25T09:57:17Z</time>
      </trkpt>
      <trkpt lat="43.07744" lon="1.07997">
        <ele>504</ele>
        <time>2020-01-25T09:57:26Z</time>
      </trkpt>
      <trkpt lat="43.07735" lon="1.07992">
        <ele>502</ele>
        <time>2020-01-25T09:57:39Z</time>
      </trkpt>
      <trkpt lat="43.07726" lon="1.07996">
        <ele>503</ele>
        <time>2020-01-25T09:57:49Z</time>
      </trkpt>
      <trkpt lat="43.07716" lon="1.07997">
        <ele>503</ele>
        <time>2020-01-25T09:57:57Z</time>
      </trkpt>
      <trkpt lat="43.07706" lon="1.07998">
        <ele>495</ele>
        <time>2020-01-25T09:58:05Z</time>
      </trkpt>
      <trkpt lat="43.07695" lon="1.07998">
        <ele>494</ele>
        <time>2020-01-25T09:58:15Z</time>
      </trkpt>
      <trkpt lat="43.07687" lon="1.08001">
        <ele>493</ele>
        <time>2020-01-25T09:58:23Z</time>
      </trkpt>
      <trkpt lat="43.07677" lon="1.08001">
        <ele>494</ele>
        <time>2020-01-25T09:58:33Z</time>
      </trkpt>
      <trkpt lat="43.07668" lon="1.07999">
        <ele>495</ele>
        <time>2020-01-25T09:58:40Z</time>
      </trkpt>
      <trkpt lat="43.07658" lon="1.07998">
        <ele>496</ele>
        <time>2020-01-25T09:58:48Z</time>
      </trkpt>
      <trkpt lat="43.07649" lon="1.07994">
        <ele>493</ele>
        <time>2020-01-25T09:58:58Z</time>
      </trkpt>
      <trkpt lat="43.07639" lon="1.07993">
        <ele>497</ele>
        <time>2020-01-25T09:59:05Z</time>
      </trkpt>
      <trkpt lat="43.07631" lon="1.07989">
        <ele>497</ele>
        <time>2020-01-25T09:59:14Z</time>
      </trkpt>
      <trkpt lat="43.07622" lon="1.07987">
        <ele>497</ele>
        <time>2020-01-25T09:59:20Z</time>
      </trkpt>
      <trkpt lat="43.07615" lon="1.07979">
        <ele>499</ele>
        <time>2020-01-25T09:59:33Z</time>
      </trkpt>
      <trkpt lat="43.07606" lon="1.07976">
        <ele>499</ele>
        <time>2020-01-25T09:59:52Z</time>
      </trkpt>
      <trkpt lat="43.07597" lon="1.07973">
        <ele>502</ele>
        <time>2020-01-25T10:00:03Z</time>
      </trkpt>
      <trkpt lat="43.07588" lon="1.07969">
        <ele>502</ele>
        <time>2020-01-25T10:00:11Z</time>
      </trkpt>
      <trkpt lat="43.07578" lon="1.07965">
        <ele>497</ele>
        <time>2020-01-25T10:00:19Z</time>
      </trkpt>
      <trkpt lat="43.0757" lon="1.07959">
        <ele>493</ele>
        <time>2020-01-25T10:00:31Z</time>
      </trkpt>
      <trkpt lat="43.07563" lon="1.07952">
        <ele>494</ele>
        <time>2020-01-25T10:00:39Z</time>
      </trkpt>
      <trkpt lat="43.07554" lon="1.0795">
        <ele>495</ele>
        <time>2020-01-25T10:00:53Z</time>
      </trkpt>
      <trkpt lat="43.07545" lon="1.07944">
        <ele>489</ele>
        <time>2020-01-25T10:01:20Z</time>
      </trkpt>
      <trkpt lat="43.07536" lon="1.07938">
        <ele>488</ele>
        <time>2020-01-25T10:01:32Z</time>
      </trkpt>
      <trkpt lat="43.07526" lon="1.07933">
        <ele>486</ele>
        <time>2020-01-25T10:01:41Z</time>
      </trkpt>
      <trkpt lat="43.07518" lon="1.07925">
        <ele>482</ele>
        <time>2020-01-25T10:01:50Z</time>
      </trkpt>
      <trkpt lat="43.07509" lon="1.07919">
        <ele>481</ele>
        <time>2020-01-25T10:01:59Z</time>
      </trkpt>
      <trkpt lat="43.075" lon="1.07914">
        <ele>479</ele>
        <time>2020-01-25T10:02:08Z</time>
      </trkpt>
      <trkpt lat="43.07491" lon="1.07909">
        <ele>481</ele>
        <time>2020-01-25T10:02:17Z</time>
      </trkpt>
      <trkpt lat="43.07483" lon="1.07902">
        <ele>480</ele>
        <time>2020-01-25T10:02:25Z</time>
      </trkpt>
      <trkpt lat="43.07473" lon="1.07898">
        <ele>481</ele>
        <time>2020-01-25T10:02:33Z</time>
      </trkpt>
      <trkpt lat="43.07464" lon="1.07893">
        <ele>479</ele>
        <time>2020-01-25T10:02:43Z</time>
      </trkpt>
      <trkpt lat="43.07453" lon="1.07891">
        <ele>477</ele>
        <time>2020-01-25T10:02:50Z</time>
      </trkpt>
      <trkpt lat="43.07445" lon="1.07883">
        <ele>477</ele>
        <time>2020-01-25T10:02:59Z</time>
      </trkpt>
      <trkpt lat="43.07437" lon="1.07875">
        <ele>475</ele>
        <time>2020-01-25T10:03:08Z</time>
      </trkpt>
      <trkpt lat="43.07436" lon="1.07862">
        <ele>474</ele>
        <time>2020-01-25T10:03:16Z</time>
      </trkpt>
      <trkpt lat="43.07439" lon="1.07849">
        <ele>475</ele>
        <time>2020-01-25T10:03:24Z</time>
      </trkpt>
      <trkpt lat="43.07443" lon="1.07838">
        <ele>475</ele>
        <time>2020-01-25T10:03:33Z</time>
      </trkpt>
      <trkpt lat="43.07448" lon="1.07826">
        <ele>475</ele>
        <time>2020-01-25T10:03:42Z</time>
      </trkpt>
      <trkpt lat="43.07453" lon="1.07816">
        <ele>471</ele>
        <time>2020-01-25T10:03:51Z</time>
      </trkpt>
      <trkpt lat="43.07458" lon="1.07804">
        <ele>470</ele>
        <time>2020-01-25T10:04:01Z</time>
      </trkpt>
      <trkpt lat="43.07461" lon="1.07793">
        <ele>471</ele>
        <time>2020-01-25T10:04:11Z</time>
      </trkpt>
      <trkpt lat="43.07456" lon="1.07782">
        <ele>466</ele>
        <time>2020-01-25T10:04:23Z</time>
      </trkpt>
      <trkpt lat="43.07449" lon="1.07772">
        <ele>466</ele>
        <time>2020-01-25T10:04:34Z</time>
      </trkpt>
      <trkpt lat="43.0744" lon="1.07768">
        <ele>469</ele>
        <time>2020-01-25T10:04:41Z</time>
      </trkpt>
      <trkpt lat="43.07431" lon="1.07765">
        <ele>470</ele>
        <time>2020-01-25T10:04:50Z</time>
      </trkpt>
      <trkpt lat="43.07423" lon="1.07753">
        <ele>471</ele>
        <time>2020-01-25T10:04:58Z</time>
      </trkpt>
      <trkpt lat="43.07419" lon="1.07741">
        <ele>467</ele>
        <time>2020-01-25T10:05:09Z</time>
      </trkpt>
      <trkpt lat="43.07418" lon="1.07727">
        <ele>458</ele>
        <time>2020-01-25T10:05:17Z</time>
      </trkpt>
      <trkpt lat="43.07412" lon="1.07716">
        <ele>454</ele>
        <time>2020-01-25T10:05:26Z</time>
      </trkpt>
      <trkpt lat="43.07405" lon="1.07707">
        <ele>456</ele>
        <time>2020-01-25T10:05:34Z</time>
      </trkpt>
      <trkpt lat="43.07403" lon="1.07695">
        <ele>455</ele>
        <time>2020-01-25T10:05:42Z</time>
      </trkpt>
      <trkpt lat="43.07401" lon="1.07682">
        <ele>450</ele>
        <time>2020-01-25T10:05:51Z</time>
      </trkpt>
      <trkpt lat="43.07409" lon="1.07673">
        <ele>447</ele>
        <time>2020-01-25T10:05:59Z</time>
      </trkpt>
      <trkpt lat="43.07414" lon="1.07663">
        <ele>442</ele>
        <time>2020-01-25T10:06:09Z</time>
      </trkpt>
      <trkpt lat="43.0742" lon="1.07653">
        <ele>439</ele>
        <time>2020-01-25T10:06:16Z</time>
      </trkpt>
      <trkpt lat="43.07413" lon="1.07642">
        <ele>441</ele>
        <time>2020-01-25T10:06:23Z</time>
      </trkpt>
      <trkpt lat="43.07407" lon="1.07631">
        <ele>438</ele>
        <time>2020-01-25T10:06:34Z</time>
      </trkpt>
      <trkpt lat="43.07397" lon="1.07631">
        <ele>432</ele>
        <time>2020-01-25T10:06:42Z</time>
      </trkpt>
      <trkpt lat="43.07388" lon="1.07626">
        <ele>433</ele>
        <time>2020-01-25T10:06:50Z</time>
      </trkpt>
      <trkpt lat="43.07379" lon="1.07621">
        <ele>427</ele>
        <time>2020-01-25T10:06:58Z</time>
      </trkpt>
      <trkpt lat="43.07377" lon="1.07609">
        <ele>428</ele>
        <time>2020-01-25T10:07:03Z</time>
      </trkpt>
      <trkpt lat="43.07381" lon="1.07597">
        <ele>426</ele>
        <time>2020-01-25T10:07:10Z</time>
      </trkpt>
      <trkpt lat="43.07385" lon="1.07586">
        <ele>424</ele>
        <time>2020-01-25T10:07:19Z</time>
      </trkpt>
      <trkpt lat="43.0739" lon="1.07575">
        <ele>425</ele>
        <time>2020-01-25T10:07:28Z</time>
      </trkpt>
      <trkpt lat="43.07398" lon="1.07568">
        <ele>425</ele>
        <time>2020-01-25T10:07:38Z</time>
      </trkpt>
      <trkpt lat="43.07398" lon="1.07555">
        <ele>421</ele>
        <time>2020-01-25T10:07:47Z</time>
      </trkpt>
      <trkpt lat="43.07396" lon="1.07542">
        <ele>419</ele>
        <time>2020-01-25T10:07:55Z</time>
      </trkpt>
      <trkpt lat="43.07391" lon="1.07529">
        <ele>420</ele>
        <time>2020-01-25T10:08:04Z</time>
      </trkpt>
      <trkpt lat="43.07385" lon="1.0752">
        <ele>417</ele>
        <time>2020-01-25T10:08:12Z</time>
      </trkpt>
      <trkpt lat="43.0738" lon="1.07509">
        <ele>419</ele>
        <time>2020-01-25T10:08:19Z</time>
      </trkpt>
      <trkpt lat="43.07374" lon="1.07498">
        <ele>414</ele>
        <time>2020-01-25T10:08:27Z</time>
      </trkpt>
      <trkpt lat="43.07372" lon="1.07485">
        <ele>414</ele>
        <time>2020-01-25T10:08:36Z</time>
      </trkpt>
      <trkpt lat="43.07371" lon="1.07472">
        <ele>414</ele>
        <time>2020-01-25T10:08:45Z</time>
      </trkpt>
      <trkpt lat="43.07368" lon="1.07458">
        <ele>411</ele>
        <time>2020-01-25T10:08:53Z</time>
      </trkpt>
      <trkpt lat="43.07362" lon="1.07448">
        <ele>410</ele>
        <time>2020-01-25T10:09:02Z</time>
      </trkpt>
      <trkpt lat="43.0736" lon="1.07435">
        <ele>414</ele>
        <time>2020-01-25T10:09:11Z</time>
      </trkpt>
      <trkpt lat="43.07354" lon="1.07425">
        <ele>411</ele>
        <time>2020-01-25T10:09:19Z</time>
      </trkpt>
      <trkpt lat="43.07351" lon="1.07412">
        <ele>412</ele>
        <time>2020-01-25T10:09:29Z</time>
      </trkpt>
      <trkpt lat="43.07346" lon="1.07401">
        <ele>412</ele>
        <time>2020-01-25T10:09:38Z</time>
      </trkpt>
      <trkpt lat="43.07348" lon="1.07387">
        <ele>410</ele>
        <time>2020-01-25T10:09:46Z</time>
      </trkpt>
      <trkpt lat="43.07342" lon="1.07376">
        <ele>412</ele>
        <time>2020-01-25T10:09:54Z</time>
      </trkpt>
      <trkpt lat="43.07339" lon="1.07364">
        <ele>413</ele>
        <time>2020-01-25T10:10:02Z</time>
      </trkpt>
      <trkpt lat="43.07341" lon="1.07351">
        <ele>416</ele>
        <time>2020-01-25T10:10:14Z</time>
      </trkpt>
      <trkpt lat="43.07347" lon="1.0734">
        <ele>424</ele>
        <time>2020-01-25T10:10:37Z</time>
      </trkpt>
      <trkpt lat="43.07339" lon="1.07334">
        <ele>418</ele>
        <time>2020-01-25T10:10:59Z</time>
      </trkpt>
      <trkpt lat="43.07343" lon="1.0732">
        <ele>420</ele>
        <time>2020-01-25T10:11:33Z</time>
      </trkpt>
      <trkpt lat="43.07347" lon="1.07309">
        <ele>419</ele>
        <time>2020-01-25T10:11:39Z</time>
      </trkpt>
      <trkpt lat="43.07353" lon="1.07297">
        <ele>419</ele>
        <time>2020-01-25T10:11:46Z</time>
      </trkpt>
      <trkpt lat="43.07354" lon="1.07284">
        <ele>418</ele>
        <time>2020-01-25T10:11:54Z</time>
      </trkpt>
      <trkpt lat="43.07353" lon="1.07271">
        <ele>418</ele>
        <time>2020-01-25T10:12:02Z</time>
      </trkpt>
      <trkpt lat="43.0735" lon="1.07258">
        <ele>419</ele>
        <time>2020-01-25T10:12:12Z</time>
      </trkpt>
      <trkpt lat="43.07347" lon="1.07246">
        <ele>422</ele>
        <time>2020-01-25T10:12:22Z</time>
      </trkpt>
      <trkpt lat="43.07347" lon="1.07233">
        <ele>424</ele>
        <time>2020-01-25T10:12:30Z</time>
      </trkpt>
      <trkpt lat="43.07351" lon="1.0722">
        <ele>424</ele>
        <time>2020-01-25T10:12:38Z</time>
      </trkpt>
      <trkpt lat="43.07353" lon="1.07206">
        <ele>422</ele>
        <time>2020-01-25T10:12:49Z</time>
      </trkpt>
      <trkpt lat="43.07358" lon="1.07195">
        <ele>422</ele>
        <time>2020-01-25T10:12:55Z</time>
      </trkpt>
      <trkpt lat="43.07355" lon="1.07183">
        <ele>423</ele>
        <time>2020-01-25T10:13:03Z</time>
      </trkpt>
      <trkpt lat="43.07352" lon="1.0717">
        <ele>421</ele>
        <time>2020-01-25T10:13:10Z</time>
      </trkpt>
      <trkpt lat="43.07354" lon="1.07157">
        <ele>421</ele>
        <time>2020-01-25T10:13:18Z</time>
      </trkpt>
      <trkpt lat="43.07356" lon="1.07144">
        <ele>424</ele>
        <time>2020-01-25T10:13:26Z</time>
      </trkpt>
      <trkpt lat="43.0736" lon="1.07131">
        <ele>424</ele>
        <time>2020-01-25T10:13:33Z</time>
      </trkpt>
      <trkpt lat="43.07353" lon="1.07123">
        <ele>423</ele>
        <time>2020-01-25T10:13:39Z</time>
      </trkpt>
      <trkpt lat="43.0735" lon="1.0711">
        <ele>427</ele>
        <time>2020-01-25T10:13:57Z</time>
      </trkpt>
      <trkpt lat="43.0735" lon="1.07096">
        <ele>425</ele>
        <time>2020-01-25T10:14:33Z</time>
      </trkpt>
      <trkpt lat="43.07355" lon="1.07083">
        <ele>422</ele>
        <time>2020-01-25T10:14:38Z</time>
      </trkpt>
      <trkpt lat="43.07361" lon="1.07073">
        <ele>417</ele>
        <time>2020-01-25T10:14:44Z</time>
      </trkpt>
      <trkpt lat="43.07368" lon="1.07061">
        <ele>421</ele>
        <time>2020-01-25T10:14:53Z</time>
      </trkpt>
      <trkpt lat="43.07367" lon="1.07048">
        <ele>418</ele>
        <time>2020-01-25T10:14:59Z</time>
      </trkpt>
      <trkpt lat="43.07371" lon="1.07037">
        <ele>420</ele>
        <time>2020-01-25T10:15:04Z</time>
      </trkpt>
      <trkpt lat="43.07374" lon="1.07024">
        <ele>423</ele>
        <time>2020-01-25T10:15:12Z</time>
      </trkpt>
      <trkpt lat="43.07375" lon="1.07011">
        <ele>422</ele>
        <time>2020-01-25T10:15:21Z</time>
      </trkpt>
      <trkpt lat="43.07375" lon="1.06997">
        <ele>424</ele>
        <time>2020-01-25T10:15:31Z</time>
      </trkpt>
      <trkpt lat="43.07379" lon="1.06986">
        <ele>424</ele>
        <time>2020-01-25T10:15:39Z</time>
      </trkpt>
      <trkpt lat="43.07383" lon="1.06975">
        <ele>423</ele>
        <time>2020-01-25T10:15:48Z</time>
      </trkpt>
      <trkpt lat="43.07386" lon="1.06962">
        <ele>425</ele>
        <time>2020-01-25T10:15:57Z</time>
      </trkpt>
      <trkpt lat="43.07387" lon="1.06949">
        <ele>427</ele>
        <time>2020-01-25T10:16:06Z</time>
      </trkpt>
      <trkpt lat="43.07386" lon="1.06936">
        <ele>434</ele>
        <time>2020-01-25T10:16:18Z</time>
      </trkpt>
      <trkpt lat="43.07381" lon="1.06924">
        <ele>436</ele>
        <time>2020-01-25T10:16:27Z</time>
      </trkpt>
      <trkpt lat="43.07384" lon="1.06912">
        <ele>439</ele>
        <time>2020-01-25T10:16:34Z</time>
      </trkpt>
      <trkpt lat="43.07383" lon="1.069">
        <ele>445</ele>
        <time>2020-01-25T10:16:45Z</time>
      </trkpt>
      <trkpt lat="43.07378" lon="1.06889">
        <ele>443</ele>
        <time>2020-01-25T10:16:54Z</time>
      </trkpt>
      <trkpt lat="43.0738" lon="1.06875">
        <ele>446</ele>
        <time>2020-01-25T10:17:04Z</time>
      </trkpt>
      <trkpt lat="43.07383" lon="1.06863">
        <ele>448</ele>
        <time>2020-01-25T10:17:11Z</time>
      </trkpt>
      <trkpt lat="43.07375" lon="1.06853">
        <ele>447</ele>
        <time>2020-01-25T10:17:20Z</time>
      </trkpt>
      <trkpt lat="43.07373" lon="1.0684">
        <ele>451</ele>
        <time>2020-01-25T10:17:28Z</time>
      </trkpt>
      <trkpt lat="43.0737" lon="1.06827">
        <ele>451</ele>
        <time>2020-01-25T10:17:39Z</time>
      </trkpt>
      <trkpt lat="43.07356" lon="1.06825">
        <ele>447</ele>
        <time>2020-01-25T10:17:46Z</time>
      </trkpt>
      <trkpt lat="43.0735" lon="1.06814">
        <ele>443</ele>
        <time>2020-01-25T10:17:54Z</time>
      </trkpt>
      <trkpt lat="43.07342" lon="1.06807">
        <ele>445</ele>
        <time>2020-01-25T10:18:03Z</time>
      </trkpt>
      <trkpt lat="43.07334" lon="1.06801">
        <ele>443</ele>
        <time>2020-01-25T10:18:12Z</time>
      </trkpt>
      <trkpt lat="43.07325" lon="1.06799">
        <ele>440</ele>
        <time>2020-01-25T10:18:19Z</time>
      </trkpt>
      <trkpt lat="43.07322" lon="1.06787">
        <ele>445</ele>
        <time>2020-01-25T10:18:30Z</time>
      </trkpt>
      <trkpt lat="43.07314" lon="1.06781">
        <ele>445</ele>
        <time>2020-01-25T10:18:40Z</time>
      </trkpt>
      <trkpt lat="43.07306" lon="1.06773">
        <ele>447</ele>
        <time>2020-01-25T10:19:04Z</time>
      </trkpt>
      <trkpt lat="43.07298" lon="1.06767">
        <ele>444</ele>
        <time>2020-01-25T10:19:10Z</time>
      </trkpt>
      <trkpt lat="43.07288" lon="1.06763">
        <ele>442</ele>
        <time>2020-01-25T10:19:16Z</time>
      </trkpt>
      <trkpt lat="43.07278" lon="1.06757">
        <ele>447</ele>
        <time>2020-01-25T10:19:23Z</time>
      </trkpt>
      <trkpt lat="43.0727" lon="1.0675">
        <ele>450</ele>
        <time>2020-01-25T10:19:33Z</time>
      </trkpt>
      <trkpt lat="43.07263" lon="1.0674">
        <ele>451</ele>
        <time>2020-01-25T10:19:41Z</time>
      </trkpt>
      <trkpt lat="43.07257" lon="1.06729">
        <ele>452</ele>
        <time>2020-01-25T10:19:53Z</time>
      </trkpt>
      <trkpt lat="43.07255" lon="1.06717">
        <ele>452</ele>
        <time>2020-01-25T10:20:01Z</time>
      </trkpt>
      <trkpt lat="43.07259" lon="1.06706">
        <ele>457</ele>
        <time>2020-01-25T10:20:08Z</time>
      </trkpt>
      <trkpt lat="43.07256" lon="1.06693">
        <ele>458</ele>
        <time>2020-01-25T10:20:19Z</time>
      </trkpt>
      <trkpt lat="43.0726" lon="1.06681">
        <ele>463</ele>
        <time>2020-01-25T10:20:28Z</time>
      </trkpt>
      <trkpt lat="43.07264" lon="1.0667">
        <ele>466</ele>
        <time>2020-01-25T10:20:36Z</time>
      </trkpt>
      <trkpt lat="43.0726" lon="1.06658">
        <ele>469</ele>
        <time>2020-01-25T10:20:44Z</time>
      </trkpt>
      <trkpt lat="43.07255" lon="1.06645">
        <ele>468</ele>
        <time>2020-01-25T10:20:51Z</time>
      </trkpt>
      <trkpt lat="43.07261" lon="1.06634">
        <ele>468</ele>
        <time>2020-01-25T10:21:00Z</time>
      </trkpt>
      <trkpt lat="43.07265" lon="1.06623">
        <ele>468</ele>
        <time>2020-01-25T10:21:10Z</time>
      </trkpt>
      <trkpt lat="43.07268" lon="1.06611">
        <ele>470</ele>
        <time>2020-01-25T10:21:20Z</time>
      </trkpt>
      <trkpt lat="43.0727" lon="1.06599">
        <ele>471</ele>
        <time>2020-01-25T10:21:30Z</time>
      </trkpt>
      <trkpt lat="43.07272" lon="1.06586">
        <ele>474</ele>
        <time>2020-01-25T10:21:41Z</time>
      </trkpt>
      <trkpt lat="43.07276" lon="1.06573">
        <ele>477</ele>
        <time>2020-01-25T10:21:53Z</time>
      </trkpt>
      <trkpt lat="43.07277" lon="1.0656">
        <ele>481</ele>
        <time>2020-01-25T10:22:04Z</time>
      </trkpt>
      <trkpt lat="43.07279" lon="1.06547">
        <ele>479</ele>
        <time>2020-01-25T10:22:11Z</time>
      </trkpt>
      <trkpt lat="43.07283" lon="1.06536">
        <ele>482</ele>
        <time>2020-01-25T10:22:20Z</time>
      </trkpt>
      <trkpt lat="43.07286" lon="1.06523">
        <ele>481</ele>
        <time>2020-01-25T10:22:30Z</time>
      </trkpt>
      <trkpt lat="43.0729" lon="1.06512">
        <ele>481</ele>
        <time>2020-01-25T10:22:39Z</time>
      </trkpt>
      <trkpt lat="43.07293" lon="1.065">
        <ele>483</ele>
        <time>2020-01-25T10:22:50Z</time>
      </trkpt>
      <trkpt lat="43.07293" lon="1.06486">
        <ele>486</ele>
        <time>2020-01-25T10:23:00Z</time>
      </trkpt>
      <trkpt lat="43.07292" lon="1.06473">
        <ele>486</ele>
        <time>2020-01-25T10:23:13Z</time>
      </trkpt>
      <trkpt lat="43.07294" lon="1.06459">
        <ele>490</ele>
        <time>2020-01-25T10:23:26Z</time>
      </trkpt>
      <trkpt lat="43.07296" lon="1.06446">
        <ele>495</ele>
        <time>2020-01-25T10:23:35Z</time>
      </trkpt>
      <trkpt lat="43.07297" lon="1.06433">
        <ele>496</ele>
        <time>2020-01-25T10:23:44Z</time>
      </trkpt>
      <trkpt lat="43.07294" lon="1.0642">
        <ele>496</ele>
        <time>2020-01-25T10:23:53Z</time>
      </trkpt>
      <trkpt lat="43.07289" lon="1.06406">
        <ele>496</ele>
        <time>2020-01-25T10:25:04Z</time>
      </trkpt>
      <trkpt lat="43.07294" lon="1.06394">
        <ele>488</ele>
        <time>2020-01-25T10:32:38Z</time>
      </trkpt>
      <trkpt lat="43.07299" lon="1.06382">
        <ele>488</ele>
        <time>2020-01-25T10:32:48Z</time>
      </trkpt>
      <trkpt lat="43.07304" lon="1.06371">
        <ele>487</ele>
        <time>2020-01-25T10:32:56Z</time>
      </trkpt>
      <trkpt lat="43.07302" lon="1.06358">
        <ele>485</ele>
        <time>2020-01-25T10:33:05Z</time>
      </trkpt>
      <trkpt lat="43.0731" lon="1.06348">
        <ele>486</ele>
        <time>2020-01-25T10:33:14Z</time>
      </trkpt>
      <trkpt lat="43.07317" lon="1.06337">
        <ele>490</ele>
        <time>2020-01-25T10:33:21Z</time>
      </trkpt>
      <trkpt lat="43.07322" lon="1.06325">
        <ele>491</ele>
        <time>2020-01-25T10:33:28Z</time>
      </trkpt>
      <trkpt lat="43.07325" lon="1.06312">
        <ele>490</ele>
        <time>2020-01-25T10:33:34Z</time>
      </trkpt>
      <trkpt lat="43.0733" lon="1.063">
        <ele>490</ele>
        <time>2020-01-25T10:33:42Z</time>
      </trkpt>
      <trkpt lat="43.07337" lon="1.0629">
        <ele>488</ele>
        <time>2020-01-25T10:33:49Z</time>
      </trkpt>
      <trkpt lat="43.07342" lon="1.0628">
        <ele>489</ele>
        <time>2020-01-25T10:33:58Z</time>
      </trkpt>
      <trkpt lat="43.07346" lon="1.06267">
        <ele>491</ele>
        <time>2020-01-25T10:34:05Z</time>
      </trkpt>
      <trkpt lat="43.07352" lon="1.06257">
        <ele>487</ele>
        <time>2020-01-25T10:34:11Z</time>
      </trkpt>
      <trkpt lat="43.07357" lon="1.06246">
        <ele>488</ele>
        <time>2020-01-25T10:34:19Z</time>
      </trkpt>
      <trkpt lat="43.07361" lon="1.06233">
        <ele>487</ele>
        <time>2020-01-25T10:34:26Z</time>
      </trkpt>
      <trkpt lat="43.07363" lon="1.06221">
        <ele>487</ele>
        <time>2020-01-25T10:34:33Z</time>
      </trkpt>
      <trkpt lat="43.07366" lon="1.06208">
        <ele>489</ele>
        <time>2020-01-25T10:34:41Z</time>
      </trkpt>
      <trkpt lat="43.07368" lon="1.06195">
        <ele>489</ele>
        <time>2020-01-25T10:34:48Z</time>
      </trkpt>
      <trkpt lat="43.07372" lon="1.06184">
        <ele>492</ele>
        <time>2020-01-25T10:34:55Z</time>
      </trkpt>
      <trkpt lat="43.07374" lon="1.06171">
        <ele>490</ele>
        <time>2020-01-25T10:35:03Z</time>
      </trkpt>
      <trkpt lat="43.07376" lon="1.06158">
        <ele>490</ele>
        <time>2020-01-25T10:35:12Z</time>
      </trkpt>
      <trkpt lat="43.07377" lon="1.06146">
        <ele>487</ele>
        <time>2020-01-25T10:35:18Z</time>
      </trkpt>
      <trkpt lat="43.07378" lon="1.06133">
        <ele>487</ele>
        <time>2020-01-25T10:35:24Z</time>
      </trkpt>
      <trkpt lat="43.07376" lon="1.0612">
        <ele>486</ele>
        <time>2020-01-25T10:35:31Z</time>
      </trkpt>
      <trkpt lat="43.0738" lon="1.06108">
        <ele>485</ele>
        <time>2020-01-25T10:35:37Z</time>
      </trkpt>
      <trkpt lat="43.07384" lon="1.06095">
        <ele>483</ele>
        <time>2020-01-25T10:35:46Z</time>
      </trkpt>
      <trkpt lat="43.07389" lon="1.06083">
        <ele>484</ele>
        <time>2020-01-25T10:35:53Z</time>
      </trkpt>
      <trkpt lat="43.07393" lon="1.06072">
        <ele>483</ele>
        <time>2020-01-25T10:36:01Z</time>
      </trkpt>
      <trkpt lat="43.07398" lon="1.06061">
        <ele>485</ele>
        <time>2020-01-25T10:36:07Z</time>
      </trkpt>
      <trkpt lat="43.07397" lon="1.06047">
        <ele>481</ele>
        <time>2020-01-25T10:36:15Z</time>
      </trkpt>
      <trkpt lat="43.07401" lon="1.06035">
        <ele>482</ele>
        <time>2020-01-25T10:36:21Z</time>
      </trkpt>
      <trkpt lat="43.07409" lon="1.06026">
        <ele>482</ele>
        <time>2020-01-25T10:36:27Z</time>
      </trkpt>
      <trkpt lat="43.07411" lon="1.06013">
        <ele>484</ele>
        <time>2020-01-25T10:36:37Z</time>
      </trkpt>
      <trkpt lat="43.07417" lon="1.06003">
        <ele>483</ele>
        <time>2020-01-25T10:36:45Z</time>
      </trkpt>
      <trkpt lat="43.07423" lon="1.05995">
        <ele>483</ele>
        <time>2020-01-25T10:36:50Z</time>
      </trkpt>
      <trkpt lat="43.0743" lon="1.05985">
        <ele>482</ele>
        <time>2020-01-25T10:36:57Z</time>
      </trkpt>
      <trkpt lat="43.07438" lon="1.05978">
        <ele>477</ele>
        <time>2020-01-25T10:37:05Z</time>
      </trkpt>
      <trkpt lat="43.07445" lon="1.05967">
        <ele>472</ele>
        <time>2020-01-25T10:37:11Z</time>
      </trkpt>
      <trkpt lat="43.0745" lon="1.05955">
        <ele>471</ele>
        <time>2020-01-25T10:37:19Z</time>
      </trkpt>
      <trkpt lat="43.07455" lon="1.05946">
        <ele>471</ele>
        <time>2020-01-25T10:37:26Z</time>
      </trkpt>
      <trkpt lat="43.07464" lon="1.05938">
        <ele>463</ele>
        <time>2020-01-25T10:37:34Z</time>
      </trkpt>
      <trkpt lat="43.07474" lon="1.05931">
        <ele>461</ele>
        <time>2020-01-25T10:37:42Z</time>
      </trkpt>
      <trkpt lat="43.07478" lon="1.0592">
        <ele>461</ele>
        <time>2020-01-25T10:37:49Z</time>
      </trkpt>
      <trkpt lat="43.07486" lon="1.0591">
        <ele>462</ele>
        <time>2020-01-25T10:37:58Z</time>
      </trkpt>
      <trkpt lat="43.07493" lon="1.05901">
        <ele>464</ele>
        <time>2020-01-25T10:38:06Z</time>
      </trkpt>
      <trkpt lat="43.07501" lon="1.05893">
        <ele>459</ele>
        <time>2020-01-25T10:38:14Z</time>
      </trkpt>
      <trkpt lat="43.0751" lon="1.0589">
        <ele>462</ele>
        <time>2020-01-25T10:38:20Z</time>
      </trkpt>
      <trkpt lat="43.07515" lon="1.05878">
        <ele>461</ele>
        <time>2020-01-25T10:38:29Z</time>
      </trkpt>
      <trkpt lat="43.07521" lon="1.05869">
        <ele>462</ele>
        <time>2020-01-25T10:38:37Z</time>
      </trkpt>
      <trkpt lat="43.07529" lon="1.05875">
        <ele>459</ele>
        <time>2020-01-25T10:38:52Z</time>
      </trkpt>
      <trkpt lat="43.07536" lon="1.05884">
        <ele>456</ele>
        <time>2020-01-25T10:39:04Z</time>
      </trkpt>
      <trkpt lat="43.07541" lon="1.05894">
        <ele>457</ele>
        <time>2020-01-25T10:39:14Z</time>
      </trkpt>
      <trkpt lat="43.07543" lon="1.05907">
        <ele>454</ele>
        <time>2020-01-25T10:40:07Z</time>
      </trkpt>
      <trkpt lat="43.07542" lon="1.05921">
        <ele>448</ele>
        <time>2020-01-25T10:40:12Z</time>
      </trkpt>
      <trkpt lat="43.0754" lon="1.05935">
        <ele>452</ele>
        <time>2020-01-25T10:40:19Z</time>
      </trkpt>
      <trkpt lat="43.07538" lon="1.05948">
        <ele>450</ele>
        <time>2020-01-25T10:40:28Z</time>
      </trkpt>
      <trkpt lat="43.07539" lon="1.05962">
        <ele>450</ele>
        <time>2020-01-25T10:40:39Z</time>
      </trkpt>
      <trkpt lat="43.07543" lon="1.05974">
        <ele>448</ele>
        <time>2020-01-25T10:40:49Z</time>
      </trkpt>
      <trkpt lat="43.0754" lon="1.05988">
        <ele>448</ele>
        <time>2020-01-25T10:40:57Z</time>
      </trkpt>
      <trkpt lat="43.0754" lon="1.06001">
        <ele>444</ele>
        <time>2020-01-25T10:41:07Z</time>
      </trkpt>
      <trkpt lat="43.07535" lon="1.06012">
        <ele>441</ele>
        <time>2020-01-25T10:41:16Z</time>
      </trkpt>
      <trkpt lat="43.07528" lon="1.06022">
        <ele>438</ele>
        <time>2020-01-25T10:41:23Z</time>
      </trkpt>
      <trkpt lat="43.07528" lon="1.06035">
        <ele>439</ele>
        <time>2020-01-25T10:41:36Z</time>
      </trkpt>
      <trkpt lat="43.07524" lon="1.06047">
        <ele>436</ele>
        <time>2020-01-25T10:41:43Z</time>
      </trkpt>
      <trkpt lat="43.07522" lon="1.06059">
        <ele>439</ele>
        <time>2020-01-25T10:41:53Z</time>
      </trkpt>
      <trkpt lat="43.07522" lon="1.06072">
        <ele>441</ele>
        <time>2020-01-25T10:42:04Z</time>
      </trkpt>
      <trkpt lat="43.07516" lon="1.06082">
        <ele>442</ele>
        <time>2020-01-25T10:42:11Z</time>
      </trkpt>
      <trkpt lat="43.07517" lon="1.06095">
        <ele>442</ele>
        <time>2020-01-25T10:42:19Z</time>
      </trkpt>
      <trkpt lat="43.07523" lon="1.06105">
        <ele>440</ele>
        <time>2020-01-25T10:42:28Z</time>
      </trkpt>
      <trkpt lat="43.07533" lon="1.06103">
        <ele>440</ele>
        <time>2020-01-25T10:42:41Z</time>
      </trkpt>
      <trkpt lat="43.0754" lon="1.06096">
        <ele>437</ele>
        <time>2020-01-25T10:42:55Z</time>
      </trkpt>
      <trkpt lat="43.07549" lon="1.06094">
        <ele>440</ele>
        <time>2020-01-25T10:43:08Z</time>
      </trkpt>
      <trkpt lat="43.07557" lon="1.06101">
        <ele>434</ele>
        <time>2020-01-25T10:43:26Z</time>
      </trkpt>
      <trkpt lat="43.07565" lon="1.0611">
        <ele>435</ele>
        <time>2020-01-25T10:43:35Z</time>
      </trkpt>
      <trkpt lat="43.07573" lon="1.06115">
        <ele>433</ele>
        <time>2020-01-25T10:43:46Z</time>
      </trkpt>
      <trkpt lat="43.07582" lon="1.06119">
        <ele>434</ele>
        <time>2020-01-25T10:43:56Z</time>
      </trkpt>
      <trkpt lat="43.07593" lon="1.06123">
        <ele>433</ele>
        <time>2020-01-25T10:44:05Z</time>
      </trkpt>
      <trkpt lat="43.07602" lon="1.06126">
        <ele>435</ele>
        <time>2020-01-25T10:44:18Z</time>
      </trkpt>
      <trkpt lat="43.07611" lon="1.06126">
        <ele>438</ele>
        <time>2020-01-25T10:44:27Z</time>
      </trkpt>
      <trkpt lat="43.0762" lon="1.06131">
        <ele>442</ele>
        <time>2020-01-25T10:44:34Z</time>
      </trkpt>
      <trkpt lat="43.0763" lon="1.06129">
        <ele>438</ele>
        <time>2020-01-25T10:44:44Z</time>
      </trkpt>
      <trkpt lat="43.07636" lon="1.0612">
        <ele>431</ele>
        <time>2020-01-25T10:44:57Z</time>
      </trkpt>
      <trkpt lat="43.07642" lon="1.0611">
        <ele>431</ele>
        <time>2020-01-25T10:45:09Z</time>
      </trkpt>
      <trkpt lat="43.07648" lon="1.061">
        <ele>426</ele>
        <time>2020-01-25T10:45:19Z</time>
      </trkpt>
      <trkpt lat="43.07653" lon="1.0609">
        <ele>424</ele>
        <time>2020-01-25T10:45:27Z</time>
      </trkpt>
      <trkpt lat="43.07659" lon="1.06079">
        <ele>423</ele>
        <time>2020-01-25T10:45:36Z</time>
      </trkpt>
      <trkpt lat="43.07664" lon="1.06068">
        <ele>420</ele>
        <time>2020-01-25T10:45:45Z</time>
      </trkpt>
      <trkpt lat="43.07668" lon="1.06055">
        <ele>418</ele>
        <time>2020-01-25T10:45:58Z</time>
      </trkpt>
      <trkpt lat="43.0767" lon="1.06043">
        <ele>415</ele>
        <time>2020-01-25T10:46:09Z</time>
      </trkpt>
      <trkpt lat="43.07677" lon="1.06031">
        <ele>414</ele>
        <time>2020-01-25T10:46:18Z</time>
      </trkpt>
      <trkpt lat="43.07676" lon="1.06018">
        <ele>416</ele>
        <time>2020-01-25T10:46:28Z</time>
      </trkpt>
      <trkpt lat="43.07677" lon="1.06005">
        <ele>414</ele>
        <time>2020-01-25T10:46:37Z</time>
      </trkpt>
      <trkpt lat="43.07676" lon="1.05993">
        <ele>414</ele>
        <time>2020-01-25T10:46:45Z</time>
      </trkpt>
      <trkpt lat="43.07677" lon="1.0598">
        <ele>415</ele>
        <time>2020-01-25T10:46:55Z</time>
      </trkpt>
      <trkpt lat="43.07673" lon="1.05968">
        <ele>412</ele>
        <time>2020-01-25T10:47:05Z</time>
      </trkpt>
      <trkpt lat="43.07683" lon="1.05966">
        <ele>407</ele>
        <time>2020-01-25T10:47:11Z</time>
      </trkpt>
      <trkpt lat="43.07693" lon="1.05965">
        <ele>407</ele>
        <time>2020-01-25T10:47:20Z</time>
      </trkpt>
      <trkpt lat="43.07701" lon="1.05971">
        <ele>410</ele>
        <time>2020-01-25T10:47:31Z</time>
      </trkpt>
      <trkpt lat="43.077" lon="1.05985">
        <ele>413</ele>
        <time>2020-01-25T10:47:41Z</time>
      </trkpt>
      <trkpt lat="43.07702" lon="1.05998">
        <ele>417</ele>
        <time>2020-01-25T10:47:51Z</time>
      </trkpt>
      <trkpt lat="43.07711" lon="1.06004">
        <ele>411</ele>
        <time>2020-01-25T10:48:06Z</time>
      </trkpt>
      <trkpt lat="43.0772" lon="1.06008">
        <ele>409</ele>
        <time>2020-01-25T10:48:15Z</time>
      </trkpt>
      <trkpt lat="43.07728" lon="1.06001">
        <ele>413</ele>
        <time>2020-01-25T10:48:24Z</time>
      </trkpt>
      <trkpt lat="43.07737" lon="1.05989">
        <ele>416</ele>
        <time>2020-01-25T10:48:33Z</time>
      </trkpt>
      <trkpt lat="43.07734" lon="1.05976">
        <ele>410</ele>
        <time>2020-01-25T10:48:45Z</time>
      </trkpt>
      <trkpt lat="43.07741" lon="1.05985">
        <ele>404</ele>
        <time>2020-01-25T10:49:00Z</time>
      </trkpt>
      <trkpt lat="43.07751" lon="1.05985">
        <ele>397</ele>
        <time>2020-01-25T10:49:13Z</time>
      </trkpt>
      <trkpt lat="43.07759" lon="1.05981">
        <ele>391</ele>
        <time>2020-01-25T10:49:21Z</time>
      </trkpt>
      <trkpt lat="43.07768" lon="1.05984">
        <ele>389</ele>
        <time>2020-01-25T10:49:37Z</time>
      </trkpt>
      <trkpt lat="43.07775" lon="1.05994">
        <ele>394</ele>
        <time>2020-01-25T10:49:48Z</time>
      </trkpt>
      <trkpt lat="43.07778" lon="1.06006">
        <ele>393</ele>
        <time>2020-01-25T10:49:57Z</time>
      </trkpt>
      <trkpt lat="43.07787" lon="1.06012">
        <ele>393</ele>
        <time>2020-01-25T10:50:07Z</time>
      </trkpt>
      <trkpt lat="43.07796" lon="1.06008">
        <ele>391</ele>
        <time>2020-01-25T10:50:12Z</time>
      </trkpt>
      <trkpt lat="43.07806" lon="1.0601">
        <ele>386</ele>
        <time>2020-01-25T10:50:22Z</time>
      </trkpt>
      <trkpt lat="43.07814" lon="1.06015">
        <ele>385</ele>
        <time>2020-01-25T10:50:29Z</time>
      </trkpt>
      <trkpt lat="43.07816" lon="1.06028">
        <ele>379</ele>
        <time>2020-01-25T10:50:38Z</time>
      </trkpt>
      <trkpt lat="43.07827" lon="1.06026">
        <ele>377</ele>
        <time>2020-01-25T10:50:44Z</time>
      </trkpt>
      <trkpt lat="43.07836" lon="1.0603">
        <ele>376</ele>
        <time>2020-01-25T10:50:53Z</time>
      </trkpt>
      <trkpt lat="43.07846" lon="1.0603">
        <ele>375</ele>
        <time>2020-01-25T10:51:00Z</time>
      </trkpt>
      <trkpt lat="43.07855" lon="1.06029">
        <ele>374</ele>
        <time>2020-01-25T10:51:09Z</time>
      </trkpt>
      <trkpt lat="43.07864" lon="1.06033">
        <ele>373</ele>
        <time>2020-01-25T10:51:18Z</time>
      </trkpt>
      <trkpt lat="43.07873" lon="1.0604">
        <ele>373</ele>
        <time>2020-01-25T10:51:29Z</time>
      </trkpt>
      <trkpt lat="43.0788" lon="1.06048">
        <ele>375</ele>
        <time>2020-01-25T10:51:37Z</time>
      </trkpt>
      <trkpt lat="43.07888" lon="1.06056">
        <ele>371</ele>
        <time>2020-01-25T10:51:47Z</time>
      </trkpt>
      <trkpt lat="43.07889" lon="1.06069">
        <ele>370</ele>
        <time>2020-01-25T10:51:57Z</time>
      </trkpt>
      <trkpt lat="43.07889" lon="1.06082">
        <ele>369</ele>
        <time>2020-01-25T10:52:06Z</time>
      </trkpt>
      <trkpt lat="43.07886" lon="1.06094">
        <ele>367</ele>
        <time>2020-01-25T10:52:14Z</time>
      </trkpt>
      <trkpt lat="43.07891" lon="1.06104">
        <ele>370</ele>
        <time>2020-01-25T10:52:22Z</time>
      </trkpt>
      <trkpt lat="43.079" lon="1.06109">
        <ele>374</ele>
        <time>2020-01-25T10:52:44Z</time>
      </trkpt>
      <trkpt lat="43.07907" lon="1.06118">
        <ele>376</ele>
        <time>2020-01-25T10:52:50Z</time>
      </trkpt>
      <trkpt lat="43.07916" lon="1.06123">
        <ele>381</ele>
        <time>2020-01-25T10:53:04Z</time>
      </trkpt>
      <trkpt lat="43.07923" lon="1.0613">
        <ele>382</ele>
        <time>2020-01-25T10:53:12Z</time>
      </trkpt>
      <trkpt lat="43.0793" lon="1.0614">
        <ele>384</ele>
        <time>2020-01-25T10:53:30Z</time>
      </trkpt>
      <trkpt lat="43.07935" lon="1.06151">
        <ele>388</ele>
        <time>2020-01-25T10:53:52Z</time>
      </trkpt>
      <trkpt lat="43.07937" lon="1.06163">
        <ele>391</ele>
        <time>2020-01-25T10:54:01Z</time>
      </trkpt>
      <trkpt lat="43.0794" lon="1.06176">
        <ele>399</ele>
        <time>2020-01-25T10:54:13Z</time>
      </trkpt>
      <trkpt lat="43.07944" lon="1.06186">
        <ele>398</ele>
        <time>2020-01-25T10:54:26Z</time>
      </trkpt>
      <trkpt lat="43.07949" lon="1.06198">
        <ele>401</ele>
        <time>2020-01-25T10:54:38Z</time>
      </trkpt>
      <trkpt lat="43.07955" lon="1.06209">
        <ele>408</ele>
        <time>2020-01-25T10:54:48Z</time>
      </trkpt>
      <trkpt lat="43.07963" lon="1.06218">
        <ele>410</ele>
        <time>2020-01-25T10:54:57Z</time>
      </trkpt>
      <trkpt lat="43.07971" lon="1.06225">
        <ele>415</ele>
        <time>2020-01-25T10:55:06Z</time>
      </trkpt>
      <trkpt lat="43.07981" lon="1.06229">
        <ele>410</ele>
        <time>2020-01-25T10:55:16Z</time>
      </trkpt>
      <trkpt lat="43.0799" lon="1.06233">
        <ele>411</ele>
        <time>2020-01-25T10:55:29Z</time>
      </trkpt>
      <trkpt lat="43.07999" lon="1.06232">
        <ele>411</ele>
        <time>2020-01-25T10:55:42Z</time>
      </trkpt>
      <trkpt lat="43.08001" lon="1.06219">
        <ele>409</ele>
        <time>2020-01-25T10:55:57Z</time>
      </trkpt>
      <trkpt lat="43.07999" lon="1.06207">
        <ele>414</ele>
        <time>2020-01-25T10:56:10Z</time>
      </trkpt>
      <trkpt lat="43.07994" lon="1.06196">
        <ele>413</ele>
        <time>2020-01-25T10:56:20Z</time>
      </trkpt>
      <trkpt lat="43.07994" lon="1.06183">
        <ele>418</ele>
        <time>2020-01-25T10:56:35Z</time>
      </trkpt>
      <trkpt lat="43.07995" lon="1.0617">
        <ele>422</ele>
        <time>2020-01-25T10:56:46Z</time>
      </trkpt>
      <trkpt lat="43.08001" lon="1.0616">
        <ele>424</ele>
        <time>2020-01-25T10:56:58Z</time>
      </trkpt>
      <trkpt lat="43.08005" lon="1.06148">
        <ele>422</ele>
        <time>2020-01-25T10:57:08Z</time>
      </trkpt>
      <trkpt lat="43.08015" lon="1.06144">
        <ele>420</ele>
        <time>2020-01-25T10:57:18Z</time>
      </trkpt>
      <trkpt lat="43.08024" lon="1.06136">
        <ele>423</ele>
        <time>2020-01-25T10:57:30Z</time>
      </trkpt>
      <trkpt lat="43.08033" lon="1.06132">
        <ele>420</ele>
        <time>2020-01-25T10:57:43Z</time>
      </trkpt>
      <trkpt lat="43.08042" lon="1.06128">
        <ele>416</ele>
        <time>2020-01-25T10:57:52Z</time>
      </trkpt>
      <trkpt lat="43.08051" lon="1.06125">
        <ele>421</ele>
        <time>2020-01-25T10:58:01Z</time>
      </trkpt>
      <trkpt lat="43.08059" lon="1.0612">
        <ele>419</ele>
        <time>2020-01-25T10:58:11Z</time>
      </trkpt>
      <trkpt lat="43.08068" lon="1.06116">
        <ele>420</ele>
        <time>2020-01-25T10:58:21Z</time>
      </trkpt>
      <trkpt lat="43.08077" lon="1.06112">
        <ele>429</ele>
        <time>2020-01-25T10:58:34Z</time>
      </trkpt>
      <trkpt lat="43.08085" lon="1.06108">
        <ele>426</ele>
        <time>2020-01-25T10:58:44Z</time>
      </trkpt>
      <trkpt lat="43.08095" lon="1.06105">
        <ele>432</ele>
        <time>2020-01-25T10:58:54Z</time>
      </trkpt>
      <trkpt lat="43.08103" lon="1.06101">
        <ele>434</ele>
        <time>2020-01-25T10:59:07Z</time>
      </trkpt>
      <trkpt lat="43.08113" lon="1.06101">
        <ele>440</ele>
        <time>2020-01-25T10:59:17Z</time>
      </trkpt>
      <trkpt lat="43.08123" lon="1.06103">
        <ele>441</ele>
        <time>2020-01-25T10:59:26Z</time>
      </trkpt>
      <trkpt lat="43.08132" lon="1.06104">
        <ele>446</ele>
        <time>2020-01-25T10:59:35Z</time>
      </trkpt>
      <trkpt lat="43.08142" lon="1.06106">
        <ele>445</ele>
        <time>2020-01-25T10:59:46Z</time>
      </trkpt>
      <trkpt lat="43.08151" lon="1.06111">
        <ele>445</ele>
        <time>2020-01-25T10:59:57Z</time>
      </trkpt>
      <trkpt lat="43.08161" lon="1.06113">
        <ele>444</ele>
        <time>2020-01-25T11:00:06Z</time>
      </trkpt>
      <trkpt lat="43.08168" lon="1.06119">
        <ele>448</ele>
        <time>2020-01-25T11:00:15Z</time>
      </trkpt>
      <trkpt lat="43.08177" lon="1.06127">
        <ele>447</ele>
        <time>2020-01-25T11:00:25Z</time>
      </trkpt>
      <trkpt lat="43.08185" lon="1.06133">
        <ele>447</ele>
        <time>2020-01-25T11:00:37Z</time>
      </trkpt>
      <trkpt lat="43.08193" lon="1.06142">
        <ele>446</ele>
        <time>2020-01-25T11:00:48Z</time>
      </trkpt>
      <trkpt lat="43.08198" lon="1.06153">
        <ele>443</ele>
        <time>2020-01-25T11:01:00Z</time>
      </trkpt>
      <trkpt lat="43.08204" lon="1.06163">
        <ele>446</ele>
        <time>2020-01-25T11:01:12Z</time>
      </trkpt>
      <trkpt lat="43.08211" lon="1.06174">
        <ele>446</ele>
        <time>2020-01-25T11:01:22Z</time>
      </trkpt>
      <trkpt lat="43.08215" lon="1.06186">
        <ele>447</ele>
        <time>2020-01-25T11:01:35Z</time>
      </trkpt>
      <trkpt lat="43.0821" lon="1.06197">
        <ele>449</ele>
        <time>2020-01-25T11:01:44Z</time>
      </trkpt>
      <trkpt lat="43.08203" lon="1.06206">
        <ele>454</ele>
        <time>2020-01-25T11:01:57Z</time>
      </trkpt>
      <trkpt lat="43.08197" lon="1.06216">
        <ele>459</ele>
        <time>2020-01-25T11:02:12Z</time>
      </trkpt>
      <trkpt lat="43.08192" lon="1.06227">
        <ele>462</ele>
        <time>2020-01-25T11:02:23Z</time>
      </trkpt>
      <trkpt lat="43.08188" lon="1.06238">
        <ele>466</ele>
        <time>2020-01-25T11:02:35Z</time>
      </trkpt>
      <trkpt lat="43.08185" lon="1.0625">
        <ele>467</ele>
        <time>2020-01-25T11:02:44Z</time>
      </trkpt>
      <trkpt lat="43.08185" lon="1.06265">
        <ele>468</ele>
        <time>2020-01-25T11:02:59Z</time>
      </trkpt>
      <trkpt lat="43.08187" lon="1.06277">
        <ele>466</ele>
        <time>2020-01-25T11:03:11Z</time>
      </trkpt>
      <trkpt lat="43.08193" lon="1.06287">
        <ele>466</ele>
        <time>2020-01-25T11:03:22Z</time>
      </trkpt>
      <trkpt lat="43.08198" lon="1.06298">
        <ele>467</ele>
        <time>2020-01-25T11:03:29Z</time>
      </trkpt>
      <trkpt lat="43.08206" lon="1.06308">
        <ele>470</ele>
        <time>2020-01-25T11:03:39Z</time>
      </trkpt>
      <trkpt lat="43.0821" lon="1.06319">
        <ele>473</ele>
        <time>2020-01-25T11:03:50Z</time>
      </trkpt>
      <trkpt lat="43.08216" lon="1.06331">
        <ele>476</ele>
        <time>2020-01-25T11:03:57Z</time>
      </trkpt>
      <trkpt lat="43.08222" lon="1.06339">
        <ele>477</ele>
        <time>2020-01-25T11:04:08Z</time>
      </trkpt>
      <trkpt lat="43.08229" lon="1.06348">
        <ele>482</ele>
        <time>2020-01-25T11:04:16Z</time>
      </trkpt>
      <trkpt lat="43.08234" lon="1.06359">
        <ele>481</ele>
        <time>2020-01-25T11:04:27Z</time>
      </trkpt>
      <trkpt lat="43.08241" lon="1.06368">
        <ele>481</ele>
        <time>2020-01-25T11:04:37Z</time>
      </trkpt>
      <trkpt lat="43.08246" lon="1.06379">
        <ele>482</ele>
        <time>2020-01-25T11:04:46Z</time>
      </trkpt>
      <trkpt lat="43.08251" lon="1.06389">
        <ele>481</ele>
        <time>2020-01-25T11:04:56Z</time>
      </trkpt>
      <trkpt lat="43.08257" lon="1.06399">
        <ele>481</ele>
        <time>2020-01-25T11:05:05Z</time>
      </trkpt>
      <trkpt lat="43.08261" lon="1.0641">
        <ele>479</ele>
        <time>2020-01-25T11:05:16Z</time>
      </trkpt>
      <trkpt lat="43.08257" lon="1.06423">
        <ele>488</ele>
        <time>2020-01-25T11:05:30Z</time>
      </trkpt>
      <trkpt lat="43.08249" lon="1.06433">
        <ele>492</ele>
        <time>2020-01-25T11:05:51Z</time>
      </trkpt>
      <trkpt lat="43.08243" lon="1.06442">
        <ele>493</ele>
        <time>2020-01-25T11:06:01Z</time>
      </trkpt>
      <trkpt lat="43.08239" lon="1.06454">
        <ele>499</ele>
        <time>2020-01-25T11:06:14Z</time>
      </trkpt>
      <trkpt lat="43.08242" lon="1.06467">
        <ele>505</ele>
        <time>2020-01-25T11:06:29Z</time>
      </trkpt>
      <trkpt lat="43.08244" lon="1.0648">
        <ele>504</ele>
        <time>2020-01-25T11:06:39Z</time>
      </trkpt>
      <trkpt lat="43.08244" lon="1.06493">
        <ele>497</ele>
        <time>2020-01-25T11:06:48Z</time>
      </trkpt>
      <trkpt lat="43.08249" lon="1.06504">
        <ele>497</ele>
        <time>2020-01-25T11:06:58Z</time>
      </trkpt>
      <trkpt lat="43.08251" lon="1.06516">
        <ele>503</ele>
        <time>2020-01-25T11:07:04Z</time>
      </trkpt>
      <trkpt lat="43.08251" lon="1.0653">
        <ele>502</ele>
        <time>2020-01-25T11:07:16Z</time>
      </trkpt>
      <trkpt lat="43.08254" lon="1.06545">
        <ele>503</ele>
        <time>2020-01-25T11:07:24Z</time>
      </trkpt>
      <trkpt lat="43.08262" lon="1.06552">
        <ele>504</ele>
        <time>2020-01-25T11:14:11Z</time>
      </trkpt>
      <trkpt lat="43.08264" lon="1.06565">
        <ele>507</ele>
        <time>2020-01-25T11:15:32Z</time>
      </trkpt>
      <trkpt lat="43.08254" lon="1.06568">
        <ele>509</ele>
        <time>2020-01-25T11:16:04Z</time>
      </trkpt>
      <trkpt lat="43.08246" lon="1.06575">
        <ele>511</ele>
        <time>2020-01-25T11:16:15Z</time>
      </trkpt>
      <trkpt lat="43.08238" lon="1.06581">
        <ele>509</ele>
        <time>2020-01-25T11:16:22Z</time>
      </trkpt>
      <trkpt lat="43.08233" lon="1.06592">
        <ele>511</ele>
        <time>2020-01-25T11:16:34Z</time>
      </trkpt>
      <trkpt lat="43.08226" lon="1.06598">
        <ele>511</ele>
        <time>2020-01-25T11:16:44Z</time>
      </trkpt>
      <trkpt lat="43.08218" lon="1.06608">
        <ele>509</ele>
        <time>2020-01-25T11:16:54Z</time>
      </trkpt>
      <trkpt lat="43.0821" lon="1.06613">
        <ele>508</ele>
        <time>2020-01-25T11:17:01Z</time>
      </trkpt>
      <trkpt lat="43.08204" lon="1.06623">
        <ele>507</ele>
        <time>2020-01-25T11:17:11Z</time>
      </trkpt>
      <trkpt lat="43.08199" lon="1.06633">
        <ele>508</ele>
        <time>2020-01-25T11:17:19Z</time>
      </trkpt>
      <trkpt lat="43.08192" lon="1.06644">
        <ele>507</ele>
        <time>2020-01-25T11:17:28Z</time>
      </trkpt>
      <trkpt lat="43.08185" lon="1.06653">
        <ele>510</ele>
        <time>2020-01-25T11:17:38Z</time>
      </trkpt>
      <trkpt lat="43.08179" lon="1.06663">
        <ele>509</ele>
        <time>2020-01-25T11:17:45Z</time>
      </trkpt>
      <trkpt lat="43.08176" lon="1.06675">
        <ele>508</ele>
        <time>2020-01-25T11:17:53Z</time>
      </trkpt>
      <trkpt lat="43.08169" lon="1.06684">
        <ele>508</ele>
        <time>2020-01-25T11:18:02Z</time>
      </trkpt>
      <trkpt lat="43.08165" lon="1.06695">
        <ele>512</ele>
        <time>2020-01-25T11:18:11Z</time>
      </trkpt>
      <trkpt lat="43.08161" lon="1.06707">
        <ele>512</ele>
        <time>2020-01-25T11:18:17Z</time>
      </trkpt>
      <trkpt lat="43.08156" lon="1.0672">
        <ele>511</ele>
        <time>2020-01-25T11:18:26Z</time>
      </trkpt>
      <trkpt lat="43.08152" lon="1.06732">
        <ele>511</ele>
        <time>2020-01-25T11:18:39Z</time>
      </trkpt>
      <trkpt lat="43.08149" lon="1.06744">
        <ele>514</ele>
        <time>2020-01-25T11:18:50Z</time>
      </trkpt>
      <trkpt lat="43.08146" lon="1.06757">
        <ele>514</ele>
        <time>2020-01-25T11:18:59Z</time>
      </trkpt>
      <trkpt lat="43.08145" lon="1.06769">
        <ele>521</ele>
        <time>2020-01-25T11:19:08Z</time>
      </trkpt>
      <trkpt lat="43.08145" lon="1.06784">
        <ele>523</ele>
        <time>2020-01-25T11:19:17Z</time>
      </trkpt>
      <trkpt lat="43.08142" lon="1.06797">
        <ele>522</ele>
        <time>2020-01-25T11:19:24Z</time>
      </trkpt>
      <trkpt lat="43.08136" lon="1.06808">
        <ele>523</ele>
        <time>2020-01-25T11:19:34Z</time>
      </trkpt>
      <trkpt lat="43.08137" lon="1.06821">
        <ele>523</ele>
        <time>2020-01-25T11:19:41Z</time>
      </trkpt>
      <trkpt lat="43.08139" lon="1.06834">
        <ele>519</ele>
        <time>2020-01-25T11:19:49Z</time>
      </trkpt>
      <trkpt lat="43.08138" lon="1.06846">
        <ele>521</ele>
        <time>2020-01-25T11:19:55Z</time>
      </trkpt>
      <trkpt lat="43.08138" lon="1.06859">
        <ele>523</ele>
        <time>2020-01-25T11:20:04Z</time>
      </trkpt>
      <trkpt lat="43.08135" lon="1.06871">
        <ele>522</ele>
        <time>2020-01-25T11:20:13Z</time>
      </trkpt>
      <trkpt lat="43.08132" lon="1.06883">
        <ele>523</ele>
        <time>2020-01-25T11:20:22Z</time>
      </trkpt>
      <trkpt lat="43.08129" lon="1.06895">
        <ele>522</ele>
        <time>2020-01-25T11:20:29Z</time>
      </trkpt>
      <trkpt lat="43.08131" lon="1.06908">
        <ele>521</ele>
        <time>2020-01-25T11:20:38Z</time>
      </trkpt>
      <trkpt lat="43.08126" lon="1.06919">
        <ele>522</ele>
        <time>2020-01-25T11:20:47Z</time>
      </trkpt>
      <trkpt lat="43.08124" lon="1.06932">
        <ele>522</ele>
        <time>2020-01-25T11:20:55Z</time>
      </trkpt>
      <trkpt lat="43.08124" lon="1.06944">
        <ele>525</ele>
        <time>2020-01-25T11:21:03Z</time>
      </trkpt>
      <trkpt lat="43.0812" lon="1.06956">
        <ele>529</ele>
        <time>2020-01-25T11:21:12Z</time>
      </trkpt>
      <trkpt lat="43.08117" lon="1.0697">
        <ele>527</ele>
        <time>2020-01-25T11:21:22Z</time>
      </trkpt>
      <trkpt lat="43.08115" lon="1.06983">
        <ele>533</ele>
        <time>2020-01-25T11:21:31Z</time>
      </trkpt>
      <trkpt lat="43.0811" lon="1.06995">
        <ele>532</ele>
        <time>2020-01-25T11:21:39Z</time>
      </trkpt>
      <trkpt lat="43.08106" lon="1.07007">
        <ele>533</ele>
        <time>2020-01-25T11:21:48Z</time>
      </trkpt>
      <trkpt lat="43.081" lon="1.07018">
        <ele>530</ele>
        <time>2020-01-25T11:21:57Z</time>
      </trkpt>
      <trkpt lat="43.08094" lon="1.07029">
        <ele>527</ele>
        <time>2020-01-25T11:22:06Z</time>
      </trkpt>
      <trkpt lat="43.08089" lon="1.0704">
        <ele>529</ele>
        <time>2020-01-25T11:22:15Z</time>
      </trkpt>
      <trkpt lat="43.08082" lon="1.07048">
        <ele>528</ele>
        <time>2020-01-25T11:22:22Z</time>
      </trkpt>
      <trkpt lat="43.08077" lon="1.07058">
        <ele>529</ele>
        <time>2020-01-25T11:22:31Z</time>
      </trkpt>
      <trkpt lat="43.0807" lon="1.07066">
        <ele>529</ele>
        <time>2020-01-25T11:22:38Z</time>
      </trkpt>
      <trkpt lat="43.08064" lon="1.07077">
        <ele>530</ele>
        <time>2020-01-25T11:22:50Z</time>
      </trkpt>
      <trkpt lat="43.08058" lon="1.07087">
        <ele>529</ele>
        <time>2020-01-25T11:22:59Z</time>
      </trkpt>
      <trkpt lat="43.08052" lon="1.07097">
        <ele>524</ele>
        <time>2020-01-25T11:23:10Z</time>
      </trkpt>
      <trkpt lat="43.08045" lon="1.07105">
        <ele>522</ele>
        <time>2020-01-25T11:23:19Z</time>
      </trkpt>
      <trkpt lat="43.08039" lon="1.07116">
        <ele>522</ele>
        <time>2020-01-25T11:23:28Z</time>
      </trkpt>
      <trkpt lat="43.0803" lon="1.07122">
        <ele>518</ele>
        <time>2020-01-25T11:23:38Z</time>
      </trkpt>
      <trkpt lat="43.08022" lon="1.07131">
        <ele>519</ele>
        <time>2020-01-25T11:23:47Z</time>
      </trkpt>
      <trkpt lat="43.08014" lon="1.07138">
        <ele>519</ele>
        <time>2020-01-25T11:23:54Z</time>
      </trkpt>
      <trkpt lat="43.08005" lon="1.07142">
        <ele>520</ele>
        <time>2020-01-25T11:24:01Z</time>
      </trkpt>
      <trkpt lat="43.07997" lon="1.07148">
        <ele>522</ele>
        <time>2020-01-25T11:24:08Z</time>
      </trkpt>
      <trkpt lat="43.0799" lon="1.07156">
        <ele>523</ele>
        <time>2020-01-25T11:24:16Z</time>
      </trkpt>
      <trkpt lat="43.07982" lon="1.07162">
        <ele>523</ele>
        <time>2020-01-25T11:24:24Z</time>
      </trkpt>
      <trkpt lat="43.07975" lon="1.07172">
        <ele>522</ele>
        <time>2020-01-25T11:24:33Z</time>
      </trkpt>
      <trkpt lat="43.07966" lon="1.07174">
        <ele>521</ele>
        <time>2020-01-25T11:24:41Z</time>
      </trkpt>
      <trkpt lat="43.07957" lon="1.07175">
        <ele>518</ele>
        <time>2020-01-25T11:24:48Z</time>
      </trkpt>
      <trkpt lat="43.0795" lon="1.07184">
        <ele>519</ele>
        <time>2020-01-25T11:24:58Z</time>
      </trkpt>
      <trkpt lat="43.07943" lon="1.07194">
        <ele>523</ele>
        <time>2020-01-25T11:25:11Z</time>
      </trkpt>
      <trkpt lat="43.07933" lon="1.07199">
        <ele>524</ele>
        <time>2020-01-25T11:25:19Z</time>
      </trkpt>
      <trkpt lat="43.07929" lon="1.0721">
        <ele>525</ele>
        <time>2020-01-25T11:25:29Z</time>
      </trkpt>
      <trkpt lat="43.07921" lon="1.07218">
        <ele>524</ele>
        <time>2020-01-25T11:25:36Z</time>
      </trkpt>
      <trkpt lat="43.07913" lon="1.07224">
        <ele>525</ele>
        <time>2020-01-25T11:25:45Z</time>
      </trkpt>
      <trkpt lat="43.07907" lon="1.07233">
        <ele>527</ele>
        <time>2020-01-25T11:25:54Z</time>
      </trkpt>
      <trkpt lat="43.07901" lon="1.07244">
        <ele>528</ele>
        <time>2020-01-25T11:26:03Z</time>
      </trkpt>
      <trkpt lat="43.07894" lon="1.07252">
        <ele>524</ele>
        <time>2020-01-25T11:26:12Z</time>
      </trkpt>
      <trkpt lat="43.07887" lon="1.07262">
        <ele>529</ele>
        <time>2020-01-25T11:26:22Z</time>
      </trkpt>
      <trkpt lat="43.07879" lon="1.07269">
        <ele>530</ele>
        <time>2020-01-25T11:26:30Z</time>
      </trkpt>
      <trkpt lat="43.07871" lon="1.07276">
        <ele>530</ele>
        <time>2020-01-25T11:26:39Z</time>
      </trkpt>
      <trkpt lat="43.07867" lon="1.07287">
        <ele>529</ele>
        <time>2020-01-25T11:26:50Z</time>
      </trkpt>
      <trkpt lat="43.07861" lon="1.07297">
        <ele>529</ele>
        <time>2020-01-25T11:26:59Z</time>
      </trkpt>
      <trkpt lat="43.07853" lon="1.07307">
        <ele>528</ele>
        <time>2020-01-25T11:27:10Z</time>
      </trkpt>
      <trkpt lat="43.07844" lon="1.07311">
        <ele>524</ele>
        <time>2020-01-25T11:27:17Z</time>
      </trkpt>
      <trkpt lat="43.07836" lon="1.07317">
        <ele>522</ele>
        <time>2020-01-25T11:27:23Z</time>
      </trkpt>
      <trkpt lat="43.07828" lon="1.07323">
        <ele>521</ele>
        <time>2020-01-25T11:27:31Z</time>
      </trkpt>
      <trkpt lat="43.07819" lon="1.07329">
        <ele>521</ele>
        <time>2020-01-25T11:27:40Z</time>
      </trkpt>
      <trkpt lat="43.07812" lon="1.07338">
        <ele>518</ele>
        <time>2020-01-25T11:27:48Z</time>
      </trkpt>
      <trkpt lat="43.07805" lon="1.07346">
        <ele>520</ele>
        <time>2020-01-25T11:27:56Z</time>
      </trkpt>
      <trkpt lat="43.078" lon="1.07356">
        <ele>518</ele>
        <time>2020-01-25T11:28:01Z</time>
      </trkpt>
      <trkpt lat="43.07795" lon="1.07367">
        <ele>522</ele>
        <time>2020-01-25T11:28:11Z</time>
      </trkpt>
      <trkpt lat="43.07789" lon="1.07376">
        <ele>520</ele>
        <time>2020-01-25T11:28:18Z</time>
      </trkpt>
      <trkpt lat="43.07784" lon="1.07387">
        <ele>519</ele>
        <time>2020-01-25T11:28:25Z</time>
      </trkpt>
      <trkpt lat="43.07784" lon="1.07399">
        <ele>519</ele>
        <time>2020-01-25T11:28:33Z</time>
      </trkpt>
      <trkpt lat="43.07783" lon="1.07412">
        <ele>520</ele>
        <time>2020-01-25T11:28:59Z</time>
      </trkpt>
      <trkpt lat="43.07782" lon="1.07425">
        <ele>517</ele>
        <time>2020-01-25T11:29:06Z</time>
      </trkpt>
      <trkpt lat="43.07783" lon="1.07438">
        <ele>516</ele>
        <time>2020-01-25T11:29:26Z</time>
      </trkpt>
      <trkpt lat="43.07784" lon="1.07451">
        <ele>518</ele>
        <time>2020-01-25T11:29:36Z</time>
      </trkpt>
      <trkpt lat="43.07782" lon="1.07463">
        <ele>515</ele>
        <time>2020-01-25T11:29:43Z</time>
      </trkpt>
      <trkpt lat="43.07781" lon="1.07476">
        <ele>517</ele>
        <time>2020-01-25T11:29:52Z</time>
      </trkpt>
      <trkpt lat="43.07779" lon="1.0749">
        <ele>517</ele>
        <time>2020-01-25T11:30:01Z</time>
      </trkpt>
      <trkpt lat="43.07779" lon="1.07502">
        <ele>517</ele>
        <time>2020-01-25T11:30:10Z</time>
      </trkpt>
      <trkpt lat="43.07778" lon="1.07517">
        <ele>513</ele>
        <time>2020-01-25T11:30:17Z</time>
      </trkpt>
      <trkpt lat="43.07775" lon="1.07529">
        <ele>513</ele>
        <time>2020-01-25T11:30:26Z</time>
      </trkpt>
      <trkpt lat="43.07773" lon="1.07542">
        <ele>518</ele>
        <time>2020-01-25T11:30:44Z</time>
      </trkpt>
      <trkpt lat="43.07769" lon="1.07553">
        <ele>518</ele>
        <time>2020-01-25T11:30:56Z</time>
      </trkpt>
      <trkpt lat="43.07763" lon="1.07564">
        <ele>521</ele>
        <time>2020-01-25T11:31:05Z</time>
      </trkpt>
      <trkpt lat="43.07761" lon="1.07576">
        <ele>520</ele>
        <time>2020-01-25T11:31:13Z</time>
      </trkpt>
      <trkpt lat="43.07755" lon="1.07588">
        <ele>517</ele>
        <time>2020-01-25T11:31:21Z</time>
      </trkpt>
      <trkpt lat="43.07748" lon="1.07597">
        <ele>517</ele>
        <time>2020-01-25T11:31:31Z</time>
      </trkpt>
      <trkpt lat="43.07746" lon="1.0761">
        <ele>519</ele>
        <time>2020-01-25T11:31:39Z</time>
      </trkpt>
      <trkpt lat="43.07746" lon="1.07625">
        <ele>520</ele>
        <time>2020-01-25T11:31:47Z</time>
      </trkpt>
      <trkpt lat="43.07745" lon="1.07637">
        <ele>520</ele>
        <time>2020-01-25T11:31:54Z</time>
      </trkpt>
      <trkpt lat="43.07744" lon="1.07649">
        <ele>517</ele>
        <time>2020-01-25T11:32:01Z</time>
      </trkpt>
      <trkpt lat="43.07747" lon="1.07661">
        <ele>513</ele>
        <time>2020-01-25T11:32:09Z</time>
      </trkpt>
      <trkpt lat="43.0775" lon="1.07673">
        <ele>516</ele>
        <time>2020-01-25T11:32:18Z</time>
      </trkpt>
      <trkpt lat="43.07752" lon="1.07686">
        <ele>513</ele>
        <time>2020-01-25T11:32:26Z</time>
      </trkpt>
      <trkpt lat="43.07753" lon="1.07699">
        <ele>510</ele>
        <time>2020-01-25T11:32:33Z</time>
      </trkpt>
      <trkpt lat="43.07754" lon="1.07712">
        <ele>508</ele>
        <time>2020-01-25T11:32:41Z</time>
      </trkpt>
      <trkpt lat="43.07758" lon="1.07724">
        <ele>508</ele>
        <time>2020-01-25T11:32:49Z</time>
      </trkpt>
      <trkpt lat="43.07759" lon="1.07737">
        <ele>507</ele>
        <time>2020-01-25T11:32:56Z</time>
      </trkpt>
      <trkpt lat="43.07764" lon="1.07749">
        <ele>507</ele>
        <time>2020-01-25T11:33:05Z</time>
      </trkpt>
      <trkpt lat="43.07769" lon="1.0776">
        <ele>506</ele>
        <time>2020-01-25T11:33:12Z</time>
      </trkpt>
      <trkpt lat="43.07771" lon="1.07772">
        <ele>510</ele>
        <time>2020-01-25T11:33:23Z</time>
      </trkpt>
      <trkpt lat="43.07776" lon="1.07782">
        <ele>515</ele>
        <time>2020-01-25T11:33:33Z</time>
      </trkpt>
      <trkpt lat="43.0778" lon="1.07794">
        <ele>519</ele>
        <time>2020-01-25T11:33:44Z</time>
      </trkpt>
      <trkpt lat="43.07786" lon="1.07805">
        <ele>518</ele>
        <time>2020-01-25T11:33:55Z</time>
      </trkpt>
      <trkpt lat="43.0779" lon="1.07816">
        <ele>512</ele>
        <time>2020-01-25T11:34:14Z</time>
      </trkpt>
      <trkpt lat="43.07798" lon="1.07822">
        <ele>510</ele>
        <time>2020-01-25T11:34:22Z</time>
      </trkpt>
      <trkpt lat="43.07804" lon="1.07834">
        <ele>513</ele>
        <time>2020-01-25T11:34:31Z</time>
      </trkpt>
      <trkpt lat="43.07808" lon="1.07845">
        <ele>511</ele>
        <time>2020-01-25T11:34:39Z</time>
      </trkpt>
      <trkpt lat="43.07812" lon="1.07856">
        <ele>514</ele>
        <time>2020-01-25T11:34:47Z</time>
      </trkpt>
      <trkpt lat="43.07816" lon="1.07868">
        <ele>514</ele>
        <time>2020-01-25T11:34:57Z</time>
      </trkpt>
      <trkpt lat="43.07813" lon="1.07881">
        <ele>517</ele>
        <time>2020-01-25T11:35:05Z</time>
      </trkpt>
      <trkpt lat="43.0781" lon="1.07892">
        <ele>520</ele>
        <time>2020-01-25T11:35:14Z</time>
      </trkpt>
      <trkpt lat="43.07806" lon="1.07904">
        <ele>520</ele>
        <time>2020-01-25T11:35:26Z</time>
      </trkpt>
      <trkpt lat="43.07804" lon="1.07917">
        <ele>525</ele>
        <time>2020-01-25T11:35:46Z</time>
      </trkpt>
      <trkpt lat="43.07802" lon="1.07931">
        <ele>522</ele>
        <time>2020-01-25T11:35:58Z</time>
      </trkpt>
      <trkpt lat="43.07803" lon="1.07945">
        <ele>525</ele>
        <time>2020-01-25T11:36:08Z</time>
      </trkpt>
      <trkpt lat="43.07802" lon="1.07958">
        <ele>524</ele>
        <time>2020-01-25T11:36:21Z</time>
      </trkpt>
      <trkpt lat="43.07805" lon="1.0797">
        <ele>525</ele>
        <time>2020-01-25T11:36:31Z</time>
      </trkpt>
      <trkpt lat="43.07805" lon="1.07983">
        <ele>528</ele>
        <time>2020-01-25T11:36:41Z</time>
      </trkpt>
      <trkpt lat="43.07805" lon="1.07996">
        <ele>530</ele>
        <time>2020-01-25T11:36:53Z</time>
      </trkpt>
      <trkpt lat="43.07807" lon="1.08009">
        <ele>529</ele>
        <time>2020-01-25T11:37:03Z</time>
      </trkpt>
      <trkpt lat="43.07807" lon="1.08022">
        <ele>540</ele>
        <time>2020-01-25T11:37:13Z</time>
      </trkpt>
      <trkpt lat="43.07809" lon="1.0804">
        <ele>538</ele>
        <time>2020-01-25T11:37:51Z</time>
      </trkpt>
      <trkpt lat="43.07811" lon="1.08054">
        <ele>542</ele>
        <time>2020-01-25T11:37:56Z</time>
      </trkpt>
      <trkpt lat="43.07812" lon="1.08067">
        <ele>551</ele>
        <time>2020-01-25T11:38:06Z</time>
      </trkpt>
      <trkpt lat="43.07811" lon="1.0808">
        <ele>549</ele>
        <time>2020-01-25T11:38:13Z</time>
      </trkpt>
      <trkpt lat="43.07815" lon="1.08092">
        <ele>547</ele>
        <time>2020-01-25T11:38:22Z</time>
      </trkpt>
      <trkpt lat="43.07821" lon="1.08083">
        <ele>548</ele>
        <time>2020-01-25T11:38:41Z</time>
      </trkpt>
      <trkpt lat="43.07826" lon="1.08073">
        <ele>546</ele>
        <time>2020-01-25T11:39:22Z</time>
      </trkpt>
      <trkpt lat="43.07829" lon="1.08061">
        <ele>544</ele>
        <time>2020-01-25T11:40:17Z</time>
      </trkpt>
      <trkpt lat="43.07832" lon="1.08049">
        <ele>552</ele>
        <time>2020-01-25T11:44:22Z</time>
      </trkpt>
      <trkpt lat="43.0784" lon="1.08041">
        <ele>551</ele>
        <time>2020-01-25T11:44:30Z</time>
      </trkpt>
      <trkpt lat="43.07844" lon="1.08028">
        <ele>545</ele>
        <time>2020-01-25T11:44:39Z</time>
      </trkpt>
      <trkpt lat="43.0785" lon="1.08018">
        <ele>547</ele>
        <time>2020-01-25T11:44:47Z</time>
      </trkpt>
      <trkpt lat="43.07855" lon="1.08005">
        <ele>546</ele>
        <time>2020-01-25T11:44:56Z</time>
      </trkpt>
      <trkpt lat="43.0786" lon="1.07995">
        <ele>547</ele>
        <time>2020-01-25T11:45:03Z</time>
      </trkpt>
      <trkpt lat="43.07867" lon="1.07986">
        <ele>550</ele>
        <time>2020-01-25T11:45:11Z</time>
      </trkpt>
      <trkpt lat="43.07873" lon="1.07977">
        <ele>547</ele>
        <time>2020-01-25T11:45:19Z</time>
      </trkpt>
      <trkpt lat="43.07878" lon="1.07966">
        <ele>542</ele>
        <time>2020-01-25T11:45:29Z</time>
      </trkpt>
      <trkpt lat="43.07884" lon="1.07955">
        <ele>546</ele>
        <time>2020-01-25T11:45:38Z</time>
      </trkpt>
      <trkpt lat="43.07892" lon="1.07948">
        <ele>548</ele>
        <time>2020-01-25T11:45:48Z</time>
      </trkpt>
      <trkpt lat="43.07901" lon="1.07951">
        <ele>546</ele>
        <time>2020-01-25T11:46:03Z</time>
      </trkpt>
      <trkpt lat="43.07904" lon="1.07964">
        <ele>553</ele>
        <time>2020-01-25T11:46:17Z</time>
      </trkpt>
      <trkpt lat="43.07903" lon="1.07977">
        <ele>553</ele>
        <time>2020-01-25T11:46:27Z</time>
      </trkpt>
      <trkpt lat="43.07904" lon="1.07991">
        <ele>558</ele>
        <time>2020-01-25T11:49:08Z</time>
      </trkpt>
      <trkpt lat="43.07896" lon="1.07999">
        <ele>557</ele>
        <time>2020-01-25T11:49:23Z</time>
      </trkpt>
      <trkpt lat="43.07889" lon="1.08008">
        <ele>557</ele>
        <time>2020-01-25T11:49:33Z</time>
      </trkpt>
      <trkpt lat="43.07887" lon="1.0802">
        <ele>553</ele>
        <time>2020-01-25T11:49:47Z</time>
      </trkpt>
      <trkpt lat="43.07889" lon="1.08006">
        <ele>550</ele>
        <time>2020-01-25T12:48:56Z</time>
      </trkpt>
      <trkpt lat="43.07891" lon="1.07993">
        <ele>552</ele>
        <time>2020-01-25T12:49:06Z</time>
      </trkpt>
      <trkpt lat="43.07882" lon="1.07988">
        <ele>548</ele>
        <time>2020-01-25T12:49:22Z</time>
      </trkpt>
      <trkpt lat="43.07875" lon="1.07996">
        <ele>546</ele>
        <time>2020-01-25T12:49:31Z</time>
      </trkpt>
      <trkpt lat="43.07868" lon="1.08007">
        <ele>545</ele>
        <time>2020-01-25T12:49:40Z</time>
      </trkpt>
      <trkpt lat="43.07862" lon="1.08018">
        <ele>549</ele>
        <time>2020-01-25T12:49:50Z</time>
      </trkpt>
      <trkpt lat="43.07855" lon="1.08026">
        <ele>548</ele>
        <time>2020-01-25T12:50:01Z</time>
      </trkpt>
      <trkpt lat="43.07848" lon="1.08034">
        <ele>548</ele>
        <time>2020-01-25T12:51:11Z</time>
      </trkpt>
      <trkpt lat="43.07843" lon="1.08045">
        <ele>549</ele>
        <time>2020-01-25T12:51:30Z</time>
      </trkpt>
      <trkpt lat="43.07836" lon="1.08054">
        <ele>547</ele>
        <time>2020-01-25T12:51:38Z</time>
      </trkpt>
      <trkpt lat="43.07833" lon="1.08065">
        <ele>547</ele>
        <time>2020-01-25T12:51:48Z</time>
      </trkpt>
      <trkpt lat="43.0783" lon="1.08077">
        <ele>546</ele>
        <time>2020-01-25T12:52:16Z</time>
      </trkpt>
      <trkpt lat="43.07822" lon="1.08084">
        <ele>548</ele>
        <time>2020-01-25T12:52:55Z</time>
      </trkpt>
      <trkpt lat="43.07817" lon="1.08096">
        <ele>549</ele>
        <time>2020-01-25T12:53:13Z</time>
      </trkpt>
      <trkpt lat="43.07812" lon="1.08109">
        <ele>542</ele>
        <time>2020-01-25T12:53:34Z</time>
      </trkpt>
      <trkpt lat="43.07809" lon="1.08122">
        <ele>539</ele>
        <time>2020-01-25T12:53:43Z</time>
      </trkpt>
      <trkpt lat="43.07805" lon="1.08135">
        <ele>540</ele>
        <time>2020-01-25T12:53:54Z</time>
      </trkpt>
      <trkpt lat="43.078" lon="1.08146">
        <ele>540</ele>
        <time>2020-01-25T12:54:03Z</time>
      </trkpt>
      <trkpt lat="43.07803" lon="1.08158">
        <ele>538</ele>
        <time>2020-01-25T12:54:11Z</time>
      </trkpt>
      <trkpt lat="43.07798" lon="1.08169">
        <ele>538</ele>
        <time>2020-01-25T12:54:20Z</time>
      </trkpt>
      <trkpt lat="43.07797" lon="1.08182">
        <ele>539</ele>
        <time>2020-01-25T12:54:31Z</time>
      </trkpt>
      <trkpt lat="43.07792" lon="1.08194">
        <ele>540</ele>
        <time>2020-01-25T12:55:16Z</time>
      </trkpt>
      <trkpt lat="43.07791" lon="1.08206">
        <ele>542</ele>
        <time>2020-01-25T12:55:43Z</time>
      </trkpt>
      <trkpt lat="43.07791" lon="1.08219">
        <ele>542</ele>
        <time>2020-01-25T12:55:54Z</time>
      </trkpt>
      <trkpt lat="43.07793" lon="1.08232">
        <ele>541</ele>
        <time>2020-01-25T12:56:04Z</time>
      </trkpt>
      <trkpt lat="43.07797" lon="1.08245">
        <ele>543</ele>
        <time>2020-01-25T12:56:14Z</time>
      </trkpt>
      <trkpt lat="43.07797" lon="1.08257">
        <ele>542</ele>
        <time>2020-01-25T12:56:25Z</time>
      </trkpt>
      <trkpt lat="43.07797" lon="1.08271">
        <ele>541</ele>
        <time>2020-01-25T12:56:33Z</time>
      </trkpt>
      <trkpt lat="43.07801" lon="1.08283">
        <ele>540</ele>
        <time>2020-01-25T12:56:41Z</time>
      </trkpt>
      <trkpt lat="43.07795" lon="1.08293">
        <ele>540</ele>
        <time>2020-01-25T12:56:54Z</time>
      </trkpt>
      <trkpt lat="43.07793" lon="1.08306">
        <ele>540</ele>
        <time>2020-01-25T12:57:07Z</time>
      </trkpt>
      <trkpt lat="43.07797" lon="1.08319">
        <ele>546</ele>
        <time>2020-01-25T12:58:09Z</time>
      </trkpt>
      <trkpt lat="43.07797" lon="1.08332">
        <ele>545</ele>
        <time>2020-01-25T13:00:05Z</time>
      </trkpt>
      <trkpt lat="43.07799" lon="1.08345">
        <ele>544</ele>
        <time>2020-01-25T13:00:13Z</time>
      </trkpt>
      <trkpt lat="43.07805" lon="1.08354">
        <ele>546</ele>
        <time>2020-01-25T13:00:19Z</time>
      </trkpt>
      <trkpt lat="43.07807" lon="1.08367">
        <ele>551</ele>
        <time>2020-01-25T13:00:29Z</time>
      </trkpt>
      <trkpt lat="43.07808" lon="1.0838">
        <ele>544</ele>
        <time>2020-01-25T13:00:36Z</time>
      </trkpt>
      <trkpt lat="43.07804" lon="1.08391">
        <ele>546</ele>
        <time>2020-01-25T13:00:45Z</time>
      </trkpt>
      <trkpt lat="43.07807" lon="1.08404">
        <ele>544</ele>
        <time>2020-01-25T13:00:52Z</time>
      </trkpt>
      <trkpt lat="43.078" lon="1.08413">
        <ele>546</ele>
        <time>2020-01-25T13:01:00Z</time>
      </trkpt>
      <trkpt lat="43.078" lon="1.08426">
        <ele>547</ele>
        <time>2020-01-25T13:01:08Z</time>
      </trkpt>
      <trkpt lat="43.07799" lon="1.08439">
        <ele>545</ele>
        <time>2020-01-25T13:01:15Z</time>
      </trkpt>
      <trkpt lat="43.07803" lon="1.08451">
        <ele>545</ele>
        <time>2020-01-25T13:01:25Z</time>
      </trkpt>
      <trkpt lat="43.07811" lon="1.0846">
        <ele>544</ele>
        <time>2020-01-25T13:01:34Z</time>
      </trkpt>
      <trkpt lat="43.07821" lon="1.0846">
        <ele>542</ele>
        <time>2020-01-25T13:01:43Z</time>
      </trkpt>
      <trkpt lat="43.0783" lon="1.08464">
        <ele>540</ele>
        <time>2020-01-25T13:01:51Z</time>
      </trkpt>
      <trkpt lat="43.07838" lon="1.08473">
        <ele>534</ele>
        <time>2020-01-25T13:02:01Z</time>
      </trkpt>
      <trkpt lat="43.07844" lon="1.08483">
        <ele>530</ele>
        <time>2020-01-25T13:02:12Z</time>
      </trkpt>
      <trkpt lat="43.07851" lon="1.08491">
        <ele>535</ele>
        <time>2020-01-25T13:02:19Z</time>
      </trkpt>
      <trkpt lat="43.07859" lon="1.08501">
        <ele>531</ele>
        <time>2020-01-25T13:02:33Z</time>
      </trkpt>
      <trkpt lat="43.07869" lon="1.08509">
        <ele>531</ele>
        <time>2020-01-25T13:02:40Z</time>
      </trkpt>
      <trkpt lat="43.07875" lon="1.08518">
        <ele>529</ele>
        <time>2020-01-25T13:02:48Z</time>
      </trkpt>
      <trkpt lat="43.07882" lon="1.08528">
        <ele>527</ele>
        <time>2020-01-25T13:02:56Z</time>
      </trkpt>
      <trkpt lat="43.07883" lon="1.08543">
        <ele>526</ele>
        <time>2020-01-25T13:03:09Z</time>
      </trkpt>
      <trkpt lat="43.07885" lon="1.08555">
        <ele>523</ele>
        <time>2020-01-25T13:03:18Z</time>
      </trkpt>
      <trkpt lat="43.07887" lon="1.08569">
        <ele>524</ele>
        <time>2020-01-25T13:03:37Z</time>
      </trkpt>
      <trkpt lat="43.0789" lon="1.08581">
        <ele>526</ele>
        <time>2020-01-25T13:03:45Z</time>
      </trkpt>
      <trkpt lat="43.07893" lon="1.08593">
        <ele>521</ele>
        <time>2020-01-25T13:03:53Z</time>
      </trkpt>
      <trkpt lat="43.07893" lon="1.08607">
        <ele>517</ele>
        <time>2020-01-25T13:04:03Z</time>
      </trkpt>
      <trkpt lat="43.07896" lon="1.08619">
        <ele>513</ele>
        <time>2020-01-25T13:04:14Z</time>
      </trkpt>
      <trkpt lat="43.07896" lon="1.08632">
        <ele>513</ele>
        <time>2020-01-25T13:04:22Z</time>
      </trkpt>
      <trkpt lat="43.07897" lon="1.08645">
        <ele>511</ele>
        <time>2020-01-25T13:04:30Z</time>
      </trkpt>
      <trkpt lat="43.07898" lon="1.08657">
        <ele>510</ele>
        <time>2020-01-25T13:04:37Z</time>
      </trkpt>
      <trkpt lat="43.07897" lon="1.0867">
        <ele>509</ele>
        <time>2020-01-25T13:04:45Z</time>
      </trkpt>
      <trkpt lat="43.07897" lon="1.08682">
        <ele>507</ele>
        <time>2020-01-25T13:04:53Z</time>
      </trkpt>
      <trkpt lat="43.07898" lon="1.08695">
        <ele>506</ele>
        <time>2020-01-25T13:05:02Z</time>
      </trkpt>
      <trkpt lat="43.07899" lon="1.08708">
        <ele>504</ele>
        <time>2020-01-25T13:05:12Z</time>
      </trkpt>
      <trkpt lat="43.07899" lon="1.08721">
        <ele>506</ele>
        <time>2020-01-25T13:05:22Z</time>
      </trkpt>
      <trkpt lat="43.079" lon="1.08734">
        <ele>505</ele>
        <time>2020-01-25T13:05:30Z</time>
      </trkpt>
      <trkpt lat="43.07905" lon="1.08745">
        <ele>502</ele>
        <time>2020-01-25T13:05:39Z</time>
      </trkpt>
      <trkpt lat="43.07908" lon="1.08758">
        <ele>501</ele>
        <time>2020-01-25T13:05:46Z</time>
      </trkpt>
      <trkpt lat="43.07904" lon="1.0877">
        <ele>503</ele>
        <time>2020-01-25T13:05:56Z</time>
      </trkpt>
      <trkpt lat="43.07894" lon="1.08775">
        <ele>502</ele>
        <time>2020-01-25T13:06:09Z</time>
      </trkpt>
      <trkpt lat="43.07884" lon="1.08778">
        <ele>502</ele>
        <time>2020-01-25T13:06:20Z</time>
      </trkpt>
      <trkpt lat="43.07874" lon="1.08782">
        <ele>500</ele>
        <time>2020-01-25T13:06:30Z</time>
      </trkpt>
      <trkpt lat="43.07865" lon="1.08786">
        <ele>499</ele>
        <time>2020-01-25T13:06:42Z</time>
      </trkpt>
      <trkpt lat="43.07858" lon="1.08794">
        <ele>496</ele>
        <time>2020-01-25T13:06:53Z</time>
      </trkpt>
      <trkpt lat="43.07851" lon="1.08802">
        <ele>495</ele>
        <time>2020-01-25T13:07:06Z</time>
      </trkpt>
      <trkpt lat="43.07848" lon="1.08815">
        <ele>493</ele>
        <time>2020-01-25T13:07:15Z</time>
      </trkpt>
      <trkpt lat="43.07842" lon="1.08826">
        <ele>489</ele>
        <time>2020-01-25T13:07:23Z</time>
      </trkpt>
      <trkpt lat="43.07836" lon="1.08838">
        <ele>490</ele>
        <time>2020-01-25T13:07:31Z</time>
      </trkpt>
      <trkpt lat="43.07831" lon="1.0885">
        <ele>486</ele>
        <time>2020-01-25T13:07:39Z</time>
      </trkpt>
      <trkpt lat="43.07833" lon="1.08863">
        <ele>488</ele>
        <time>2020-01-25T13:07:49Z</time>
      </trkpt>
      <trkpt lat="43.07839" lon="1.08874">
        <ele>491</ele>
        <time>2020-01-25T13:07:56Z</time>
      </trkpt>
      <trkpt lat="43.07845" lon="1.08886">
        <ele>489</ele>
        <time>2020-01-25T13:08:03Z</time>
      </trkpt>
      <trkpt lat="43.07847" lon="1.08899">
        <ele>490</ele>
        <time>2020-01-25T13:08:10Z</time>
      </trkpt>
      <trkpt lat="43.07849" lon="1.08912">
        <ele>488</ele>
        <time>2020-01-25T13:08:21Z</time>
      </trkpt>
      <trkpt lat="43.07853" lon="1.08923">
        <ele>487</ele>
        <time>2020-01-25T13:08:29Z</time>
      </trkpt>
      <trkpt lat="43.0786" lon="1.08933">
        <ele>484</ele>
        <time>2020-01-25T13:08:38Z</time>
      </trkpt>
      <trkpt lat="43.07869" lon="1.08938">
        <ele>484</ele>
        <time>2020-01-25T13:08:47Z</time>
      </trkpt>
      <trkpt lat="43.07874" lon="1.0895">
        <ele>485</ele>
        <time>2020-01-25T13:08:55Z</time>
      </trkpt>
      <trkpt lat="43.07879" lon="1.0896">
        <ele>484</ele>
        <time>2020-01-25T13:09:02Z</time>
      </trkpt>
      <trkpt lat="43.07887" lon="1.08969">
        <ele>485</ele>
        <time>2020-01-25T13:09:11Z</time>
      </trkpt>
      <trkpt lat="43.07895" lon="1.08976">
        <ele>481</ele>
        <time>2020-01-25T13:09:24Z</time>
      </trkpt>
      <trkpt lat="43.07904" lon="1.08983">
        <ele>484</ele>
        <time>2020-01-25T13:09:32Z</time>
      </trkpt>
      <trkpt lat="43.0791" lon="1.08994">
        <ele>480</ele>
        <time>2020-01-25T13:09:47Z</time>
      </trkpt>
      <trkpt lat="43.07918" lon="1.09004">
        <ele>473</ele>
        <time>2020-01-25T13:09:57Z</time>
      </trkpt>
      <trkpt lat="43.07925" lon="1.09011">
        <ele>472</ele>
        <time>2020-01-25T13:10:05Z</time>
      </trkpt>
      <trkpt lat="43.0793" lon="1.09022">
        <ele>472</ele>
        <time>2020-01-25T13:10:17Z</time>
      </trkpt>
      <trkpt lat="43.07936" lon="1.09034">
        <ele>470</ele>
        <time>2020-01-25T13:10:26Z</time>
      </trkpt>
      <trkpt lat="43.07942" lon="1.09044">
        <ele>470</ele>
        <time>2020-01-25T13:10:36Z</time>
      </trkpt>
      <trkpt lat="43.07948" lon="1.09054">
        <ele>470</ele>
        <time>2020-01-25T13:10:44Z</time>
      </trkpt>
      <trkpt lat="43.0795" lon="1.09067">
        <ele>470</ele>
        <time>2020-01-25T13:10:53Z</time>
      </trkpt>
      <trkpt lat="43.07956" lon="1.09077">
        <ele>467</ele>
        <time>2020-01-25T13:10:59Z</time>
      </trkpt>
      <trkpt lat="43.07964" lon="1.09085">
        <ele>465</ele>
        <time>2020-01-25T13:11:07Z</time>
      </trkpt>
      <trkpt lat="43.07968" lon="1.09096">
        <ele>465</ele>
        <time>2020-01-25T13:11:15Z</time>
      </trkpt>
      <trkpt lat="43.07973" lon="1.09108">
        <ele>464</ele>
        <time>2020-01-25T13:11:24Z</time>
      </trkpt>
      <trkpt lat="43.07977" lon="1.0912">
        <ele>460</ele>
        <time>2020-01-25T13:12:03Z</time>
      </trkpt>
      <trkpt lat="43.07982" lon="1.0913">
        <ele>459</ele>
        <time>2020-01-25T13:12:11Z</time>
      </trkpt>
      <trkpt lat="43.0799" lon="1.09138">
        <ele>458</ele>
        <time>2020-01-25T13:12:19Z</time>
      </trkpt>
      <trkpt lat="43.07997" lon="1.09145">
        <ele>455</ele>
        <time>2020-01-25T13:12:28Z</time>
      </trkpt>
      <trkpt lat="43.08005" lon="1.09154">
        <ele>454</ele>
        <time>2020-01-25T13:12:38Z</time>
      </trkpt>
      <trkpt lat="43.0801" lon="1.09165">
        <ele>453</ele>
        <time>2020-01-25T13:12:49Z</time>
      </trkpt>
      <trkpt lat="43.08018" lon="1.09173">
        <ele>452</ele>
        <time>2020-01-25T13:12:57Z</time>
      </trkpt>
      <trkpt lat="43.08027" lon="1.09178">
        <ele>457</ele>
        <time>2020-01-25T13:13:06Z</time>
      </trkpt>
      <trkpt lat="43.08035" lon="1.09184">
        <ele>451</ele>
        <time>2020-01-25T13:13:21Z</time>
      </trkpt>
      <trkpt lat="43.08044" lon="1.09191">
        <ele>448</ele>
        <time>2020-01-25T13:13:32Z</time>
      </trkpt>
      <trkpt lat="43.08052" lon="1.09197">
        <ele>445</ele>
        <time>2020-01-25T13:13:41Z</time>
      </trkpt>
      <trkpt lat="43.0806" lon="1.09204">
        <ele>443</ele>
        <time>2020-01-25T13:13:49Z</time>
      </trkpt>
      <trkpt lat="43.08067" lon="1.09212">
        <ele>444</ele>
        <time>2020-01-25T13:14:02Z</time>
      </trkpt>
      <trkpt lat="43.0807" lon="1.09226">
        <ele>440</ele>
        <time>2020-01-25T13:14:14Z</time>
      </trkpt>
      <trkpt lat="43.08077" lon="1.09236">
        <ele>441</ele>
        <time>2020-01-25T13:14:22Z</time>
      </trkpt>
      <trkpt lat="43.08077" lon="1.09249">
        <ele>439</ele>
        <time>2020-01-25T13:14:31Z</time>
      </trkpt>
      <trkpt lat="43.08078" lon="1.09263">
        <ele>438</ele>
        <time>2020-01-25T13:14:41Z</time>
      </trkpt>
      <trkpt lat="43.08084" lon="1.09274">
        <ele>438</ele>
        <time>2020-01-25T13:14:52Z</time>
      </trkpt>
      <trkpt lat="43.08093" lon="1.09282">
        <ele>438</ele>
        <time>2020-01-25T13:14:59Z</time>
      </trkpt>
      <trkpt lat="43.08089" lon="1.09296">
        <ele>432</ele>
        <time>2020-01-25T13:15:07Z</time>
      </trkpt>
      <trkpt lat="43.08085" lon="1.09308">
        <ele>430</ele>
        <time>2020-01-25T13:15:17Z</time>
      </trkpt>
      <trkpt lat="43.08083" lon="1.09321">
        <ele>428</ele>
        <time>2020-01-25T13:15:26Z</time>
      </trkpt>
      <trkpt lat="43.08084" lon="1.09334">
        <ele>429</ele>
        <time>2020-01-25T13:15:36Z</time>
      </trkpt>
      <trkpt lat="43.08085" lon="1.09349">
        <ele>423</ele>
        <time>2020-01-25T13:15:47Z</time>
      </trkpt>
      <trkpt lat="43.08081" lon="1.0936">
        <ele>419</ele>
        <time>2020-01-25T13:15:56Z</time>
      </trkpt>
      <trkpt lat="43.08085" lon="1.09371">
        <ele>420</ele>
        <time>2020-01-25T13:16:04Z</time>
      </trkpt>
      <trkpt lat="43.08092" lon="1.0938">
        <ele>423</ele>
        <time>2020-01-25T13:16:11Z</time>
      </trkpt>
      <trkpt lat="43.08085" lon="1.09391">
        <ele>421</ele>
        <time>2020-01-25T13:16:18Z</time>
      </trkpt>
      <trkpt lat="43.0809" lon="1.09402">
        <ele>421</ele>
        <time>2020-01-25T13:16:25Z</time>
      </trkpt>
      <trkpt lat="43.08091" lon="1.09416">
        <ele>423</ele>
        <time>2020-01-25T13:16:34Z</time>
      </trkpt>
      <trkpt lat="43.08089" lon="1.09429">
        <ele>423</ele>
        <time>2020-01-25T13:16:46Z</time>
      </trkpt>
      <trkpt lat="43.08096" lon="1.09439">
        <ele>424</ele>
        <time>2020-01-25T13:16:52Z</time>
      </trkpt>
      <trkpt lat="43.08096" lon="1.09452">
        <ele>420</ele>
        <time>2020-01-25T13:16:59Z</time>
      </trkpt>
      <trkpt lat="43.0809" lon="1.09462">
        <ele>414</ele>
        <time>2020-01-25T13:17:06Z</time>
      </trkpt>
      <trkpt lat="43.08089" lon="1.09475">
        <ele>410</ele>
        <time>2020-01-25T13:17:15Z</time>
      </trkpt>
      <trkpt lat="43.08086" lon="1.09487">
        <ele>405</ele>
        <time>2020-01-25T13:17:24Z</time>
      </trkpt>
      <trkpt lat="43.08085" lon="1.095">
        <ele>403</ele>
        <time>2020-01-25T13:17:32Z</time>
      </trkpt>
      <trkpt lat="43.08089" lon="1.09513">
        <ele>406</ele>
        <time>2020-01-25T13:17:40Z</time>
      </trkpt>
      <trkpt lat="43.08087" lon="1.09525">
        <ele>400</ele>
        <time>2020-01-25T13:17:50Z</time>
      </trkpt>
      <trkpt lat="43.08081" lon="1.09535">
        <ele>397</ele>
        <time>2020-01-25T13:17:58Z</time>
      </trkpt>
      <trkpt lat="43.08079" lon="1.09547">
        <ele>396</ele>
        <time>2020-01-25T13:18:10Z</time>
      </trkpt>
      <trkpt lat="43.08074" lon="1.0956">
        <ele>399</ele>
        <time>2020-01-25T13:18:20Z</time>
      </trkpt>
      <trkpt lat="43.08076" lon="1.09573">
        <ele>405</ele>
        <time>2020-01-25T13:18:32Z</time>
      </trkpt>
      <trkpt lat="43.08066" lon="1.09576">
        <ele>406</ele>
        <time>2020-01-25T13:18:40Z</time>
      </trkpt>
      <trkpt lat="43.08067" lon="1.09589">
        <ele>408</ele>
        <time>2020-01-25T13:18:46Z</time>
      </trkpt>
      <trkpt lat="43.08059" lon="1.09598">
        <ele>414</ele>
        <time>2020-01-25T13:18:59Z</time>
      </trkpt>
      <trkpt lat="43.08048" lon="1.09596">
        <ele>414</ele>
        <time>2020-01-25T13:20:41Z</time>
      </trkpt>
      <trkpt lat="43.08037" lon="1.09598">
        <ele>421</ele>
        <time>2020-01-25T13:20:47Z</time>
      </trkpt>
      <trkpt lat="43.08029" lon="1.09604">
        <ele>419</ele>
        <time>2020-01-25T13:20:53Z</time>
      </trkpt>
      <trkpt lat="43.08019" lon="1.09604">
        <ele>419</ele>
        <time>2020-01-25T13:20:56Z</time>
      </trkpt>
      <trkpt lat="43.0801" lon="1.09605">
        <ele>416</ele>
        <time>2020-01-25T13:21:02Z</time>
      </trkpt>
      <trkpt lat="43.08" lon="1.09603">
        <ele>418</ele>
        <time>2020-01-25T13:21:08Z</time>
      </trkpt>
      <trkpt lat="43.07991" lon="1.09599">
        <ele>420</ele>
        <time>2020-01-25T13:21:22Z</time>
      </trkpt>
      <trkpt lat="43.0798" lon="1.09602">
        <ele>425</ele>
        <time>2020-01-25T13:21:28Z</time>
      </trkpt>
      <trkpt lat="43.07971" lon="1.09601">
        <ele>430</ele>
        <time>2020-01-25T13:21:47Z</time>
      </trkpt>
      <trkpt lat="43.07959" lon="1.09598">
        <ele>432</ele>
        <time>2020-01-25T13:21:51Z</time>
      </trkpt>
      <trkpt lat="43.07949" lon="1.09603">
        <ele>438</ele>
        <time>2020-01-25T13:22:05Z</time>
      </trkpt>
      <trkpt lat="43.07939" lon="1.09601">
        <ele>436</ele>
        <time>2020-01-25T13:22:10Z</time>
      </trkpt>
      <trkpt lat="43.0793" lon="1.09602">
        <ele>440</ele>
        <time>2020-01-25T13:22:16Z</time>
      </trkpt>
      <trkpt lat="43.0792" lon="1.09604">
        <ele>438</ele>
        <time>2020-01-25T13:22:24Z</time>
      </trkpt>
      <trkpt lat="43.07917" lon="1.09591">
        <ele>441</ele>
        <time>2020-01-25T13:22:28Z</time>
      </trkpt>
      <trkpt lat="43.07902" lon="1.09583">
        <ele>441</ele>
        <time>2020-01-25T13:22:30Z</time>
      </trkpt>
      <trkpt lat="43.07905" lon="1.09595">
        <ele>442</ele>
        <time>2020-01-25T13:22:31Z</time>
      </trkpt>
      <trkpt lat="43.07899" lon="1.09605">
        <ele>446</ele>
        <time>2020-01-25T13:22:45Z</time>
      </trkpt>
      <trkpt lat="43.07896" lon="1.09617">
        <ele>449</ele>
        <time>2020-01-25T13:22:55Z</time>
      </trkpt>
      <trkpt lat="43.07889" lon="1.09625">
        <ele>447</ele>
        <time>2020-01-25T13:23:04Z</time>
      </trkpt>
      <trkpt lat="43.07879" lon="1.09628">
        <ele>447</ele>
        <time>2020-01-25T13:23:10Z</time>
      </trkpt>
      <trkpt lat="43.07868" lon="1.09622">
        <ele>447</ele>
        <time>2020-01-25T13:23:19Z</time>
      </trkpt>
      <trkpt lat="43.07856" lon="1.09621">
        <ele>444</ele>
        <time>2020-01-25T13:23:27Z</time>
      </trkpt>
      <trkpt lat="43.07848" lon="1.09626">
        <ele>442</ele>
        <time>2020-01-25T13:23:32Z</time>
      </trkpt>
      <trkpt lat="43.07838" lon="1.09622">
        <ele>440</ele>
        <time>2020-01-25T13:23:35Z</time>
      </trkpt>
      <trkpt lat="43.07829" lon="1.09626">
        <ele>433</ele>
        <time>2020-01-25T13:23:45Z</time>
      </trkpt>
      <trkpt lat="43.07823" lon="1.09636">
        <ele>422</ele>
        <time>2020-01-25T13:23:54Z</time>
      </trkpt>
      <trkpt lat="43.07813" lon="1.09634">
        <ele>422</ele>
        <time>2020-01-25T13:24:03Z</time>
      </trkpt>
      <trkpt lat="43.07807" lon="1.09645">
        <ele>420</ele>
        <time>2020-01-25T13:24:13Z</time>
      </trkpt>
      <trkpt lat="43.078" lon="1.09654">
        <ele>421</ele>
        <time>2020-01-25T13:24:21Z</time>
      </trkpt>
      <trkpt lat="43.07795" lon="1.09665">
        <ele>427</ele>
        <time>2020-01-25T13:24:33Z</time>
      </trkpt>
      <trkpt lat="43.0779" lon="1.09676">
        <ele>425</ele>
        <time>2020-01-25T13:24:42Z</time>
      </trkpt>
      <trkpt lat="43.07783" lon="1.09683">
        <ele>425</ele>
        <time>2020-01-25T13:24:51Z</time>
      </trkpt>
      <trkpt lat="43.07773" lon="1.09681">
        <ele>427</ele>
        <time>2020-01-25T13:25:00Z</time>
      </trkpt>
      <trkpt lat="43.07763" lon="1.09677">
        <ele>421</ele>
        <time>2020-01-25T13:25:06Z</time>
      </trkpt>
      <trkpt lat="43.07753" lon="1.0968">
        <ele>419</ele>
        <time>2020-01-25T13:25:16Z</time>
      </trkpt>
      <trkpt lat="43.07744" lon="1.0968">
        <ele>416</ele>
        <time>2020-01-25T13:25:24Z</time>
      </trkpt>
      <trkpt lat="43.07734" lon="1.09675">
        <ele>420</ele>
        <time>2020-01-25T13:25:45Z</time>
      </trkpt>
      <trkpt lat="43.07724" lon="1.09671">
        <ele>419</ele>
        <time>2020-01-25T13:25:48Z</time>
      </trkpt>
      <trkpt lat="43.07714" lon="1.09673">
        <ele>418</ele>
        <time>2020-01-25T13:25:56Z</time>
      </trkpt>
      <trkpt lat="43.07704" lon="1.09677">
        <ele>421</ele>
        <time>2020-01-25T13:26:04Z</time>
      </trkpt>
      <trkpt lat="43.07695" lon="1.09677">
        <ele>422</ele>
        <time>2020-01-25T13:26:12Z</time>
      </trkpt>
      <trkpt lat="43.07683" lon="1.09679">
        <ele>426</ele>
        <time>2020-01-25T13:26:25Z</time>
      </trkpt>
      <trkpt lat="43.07674" lon="1.09675">
        <ele>427</ele>
        <time>2020-01-25T13:26:32Z</time>
      </trkpt>
      <trkpt lat="43.07664" lon="1.09677">
        <ele>428</ele>
        <time>2020-01-25T13:26:41Z</time>
      </trkpt>
      <trkpt lat="43.07654" lon="1.09681">
        <ele>430</ele>
        <time>2020-01-25T13:26:51Z</time>
      </trkpt>
      <trkpt lat="43.07648" lon="1.0969">
        <ele>435</ele>
        <time>2020-01-25T13:27:03Z</time>
      </trkpt>
      <trkpt lat="43.07639" lon="1.0969">
        <ele>432</ele>
        <time>2020-01-25T13:27:07Z</time>
      </trkpt>
      <trkpt lat="43.0763" lon="1.09693">
        <ele>434</ele>
        <time>2020-01-25T13:27:15Z</time>
      </trkpt>
      <trkpt lat="43.07617" lon="1.09696">
        <ele>432</ele>
        <time>2020-01-25T13:27:25Z</time>
      </trkpt>
      <trkpt lat="43.0761" lon="1.09707">
        <ele>430</ele>
        <time>2020-01-25T13:27:36Z</time>
      </trkpt>
      <trkpt lat="43.076" lon="1.0971">
        <ele>428</ele>
        <time>2020-01-25T13:27:42Z</time>
      </trkpt>
      <trkpt lat="43.07592" lon="1.09718">
        <ele>425</ele>
        <time>2020-01-25T13:27:51Z</time>
      </trkpt>
      <trkpt lat="43.07583" lon="1.09723">
        <ele>427</ele>
        <time>2020-01-25T13:28:00Z</time>
      </trkpt>
      <trkpt lat="43.07574" lon="1.09726">
        <ele>432</ele>
        <time>2020-01-25T13:28:12Z</time>
      </trkpt>
      <trkpt lat="43.07565" lon="1.09724">
        <ele>433</ele>
        <time>2020-01-25T13:28:19Z</time>
      </trkpt>
      <trkpt lat="43.07555" lon="1.0973">
        <ele>434</ele>
        <time>2020-01-25T13:28:29Z</time>
      </trkpt>
      <trkpt lat="43.07544" lon="1.09731">
        <ele>433</ele>
        <time>2020-01-25T13:28:36Z</time>
      </trkpt>
      <trkpt lat="43.07535" lon="1.09734">
        <ele>436</ele>
        <time>2020-01-25T13:28:42Z</time>
      </trkpt>
      <trkpt lat="43.07525" lon="1.09736">
        <ele>437</ele>
        <time>2020-01-25T13:28:49Z</time>
      </trkpt>
      <trkpt lat="43.07519" lon="1.09744">
        <ele>434</ele>
        <time>2020-01-25T13:28:58Z</time>
      </trkpt>
      <trkpt lat="43.07512" lon="1.09753">
        <ele>437</ele>
        <time>2020-01-25T13:29:07Z</time>
      </trkpt>
      <trkpt lat="43.07503" lon="1.09757">
        <ele>440</ele>
        <time>2020-01-25T13:29:15Z</time>
      </trkpt>
      <trkpt lat="43.07494" lon="1.09764">
        <ele>439</ele>
        <time>2020-01-25T13:29:23Z</time>
      </trkpt>
      <trkpt lat="43.07486" lon="1.09771">
        <ele>438</ele>
        <time>2020-01-25T13:29:31Z</time>
      </trkpt>
      <trkpt lat="43.07477" lon="1.09776">
        <ele>438</ele>
        <time>2020-01-25T13:29:40Z</time>
      </trkpt>
      <trkpt lat="43.07471" lon="1.09788">
        <ele>440</ele>
        <time>2020-01-25T13:30:35Z</time>
      </trkpt>
      <trkpt lat="43.07464" lon="1.09796">
        <ele>445</ele>
        <time>2020-01-25T13:32:05Z</time>
      </trkpt>
      <trkpt lat="43.07458" lon="1.09806">
        <ele>446</ele>
        <time>2020-01-25T13:32:12Z</time>
      </trkpt>
      <trkpt lat="43.07451" lon="1.09815">
        <ele>446</ele>
        <time>2020-01-25T13:32:22Z</time>
      </trkpt>
      <trkpt lat="43.07442" lon="1.09823">
        <ele>449</ele>
        <time>2020-01-25T13:33:06Z</time>
      </trkpt>
      <trkpt lat="43.07436" lon="1.09832">
        <ele>448</ele>
        <time>2020-01-25T13:33:15Z</time>
      </trkpt>
      <trkpt lat="43.07428" lon="1.09837">
        <ele>446</ele>
        <time>2020-01-25T13:33:25Z</time>
      </trkpt>
      <trkpt lat="43.07421" lon="1.09846">
        <ele>446</ele>
        <time>2020-01-25T13:33:33Z</time>
      </trkpt>
      <trkpt lat="43.07417" lon="1.09857">
        <ele>448</ele>
        <time>2020-01-25T13:33:40Z</time>
      </trkpt>
      <trkpt lat="43.07411" lon="1.09867">
        <ele>444</ele>
        <time>2020-01-25T13:33:51Z</time>
      </trkpt>
      <trkpt lat="43.07407" lon="1.09878">
        <ele>444</ele>
        <time>2020-01-25T13:34:01Z</time>
      </trkpt>
      <trkpt lat="43.07397" lon="1.09884">
        <ele>449</ele>
        <time>2020-01-25T13:34:14Z</time>
      </trkpt>
      <trkpt lat="43.07388" lon="1.09888">
        <ele>451</ele>
        <time>2020-01-25T13:34:21Z</time>
      </trkpt>
      <trkpt lat="43.07379" lon="1.09885">
        <ele>452</ele>
        <time>2020-01-25T13:34:29Z</time>
      </trkpt>
      <trkpt lat="43.07373" lon="1.09895">
        <ele>453</ele>
        <time>2020-01-25T13:34:37Z</time>
      </trkpt>
      <trkpt lat="43.07366" lon="1.09903">
        <ele>458</ele>
        <time>2020-01-25T13:34:43Z</time>
      </trkpt>
      <trkpt lat="43.07363" lon="1.09916">
        <ele>457</ele>
        <time>2020-01-25T13:34:52Z</time>
      </trkpt>
      <trkpt lat="43.07357" lon="1.09926">
        <ele>459</ele>
        <time>2020-01-25T13:35:00Z</time>
      </trkpt>
      <trkpt lat="43.07349" lon="1.09935">
        <ele>463</ele>
        <time>2020-01-25T13:35:10Z</time>
      </trkpt>
      <trkpt lat="43.0734" lon="1.09937">
        <ele>460</ele>
        <time>2020-01-25T13:35:17Z</time>
      </trkpt>
      <trkpt lat="43.07335" lon="1.09948">
        <ele>457</ele>
        <time>2020-01-25T13:35:28Z</time>
      </trkpt>
      <trkpt lat="43.0733" lon="1.09959">
        <ele>448</ele>
        <time>2020-01-25T13:35:34Z</time>
      </trkpt>
      <trkpt lat="43.07321" lon="1.09963">
        <ele>452</ele>
        <time>2020-01-25T13:35:43Z</time>
      </trkpt>
      <trkpt lat="43.07316" lon="1.09974">
        <ele>452</ele>
        <time>2020-01-25T13:35:50Z</time>
      </trkpt>
      <trkpt lat="43.07309" lon="1.09982">
        <ele>458</ele>
        <time>2020-01-25T13:36:02Z</time>
      </trkpt>
      <trkpt lat="43.07305" lon="1.09994">
        <ele>457</ele>
        <time>2020-01-25T13:36:11Z</time>
      </trkpt>
      <trkpt lat="43.07297" lon="1.10004">
        <ele>457</ele>
        <time>2020-01-25T13:36:22Z</time>
      </trkpt>
      <trkpt lat="43.0729" lon="1.10012">
        <ele>463</ele>
        <time>2020-01-25T13:36:31Z</time>
      </trkpt>
      <trkpt lat="43.07284" lon="1.10022">
        <ele>460</ele>
        <time>2020-01-25T13:36:40Z</time>
      </trkpt>
      <trkpt lat="43.07281" lon="1.10035">
        <ele>466</ele>
        <time>2020-01-25T13:36:50Z</time>
      </trkpt>
      <trkpt lat="43.07278" lon="1.10048">
        <ele>465</ele>
        <time>2020-01-25T13:36:57Z</time>
      </trkpt>
      <trkpt lat="43.07278" lon="1.10062">
        <ele>469</ele>
        <time>2020-01-25T13:37:05Z</time>
      </trkpt>
      <trkpt lat="43.07273" lon="1.10073">
        <ele>469</ele>
        <time>2020-01-25T13:37:13Z</time>
      </trkpt>
      <trkpt lat="43.07268" lon="1.10084">
        <ele>471</ele>
        <time>2020-01-25T13:37:23Z</time>
      </trkpt>
      <trkpt lat="43.07261" lon="1.10092">
        <ele>469</ele>
        <time>2020-01-25T13:37:31Z</time>
      </trkpt>
      <trkpt lat="43.07253" lon="1.101">
        <ele>471</ele>
        <time>2020-01-25T13:37:38Z</time>
      </trkpt>
      <trkpt lat="43.07244" lon="1.10096">
        <ele>474</ele>
        <time>2020-01-25T13:37:45Z</time>
      </trkpt>
      <trkpt lat="43.07238" lon="1.10086">
        <ele>480</ele>
        <time>2020-01-25T13:37:54Z</time>
      </trkpt>
      <trkpt lat="43.07229" lon="1.10085">
        <ele>479</ele>
        <time>2020-01-25T13:38:09Z</time>
      </trkpt>
      <trkpt lat="43.0722" lon="1.10077">
        <ele>482</ele>
        <time>2020-01-25T13:38:16Z</time>
      </trkpt>
      <trkpt lat="43.07213" lon="1.10071">
        <ele>484</ele>
        <time>2020-01-25T13:38:24Z</time>
      </trkpt>
      <trkpt lat="43.07203" lon="1.10069">
        <ele>483</ele>
        <time>2020-01-25T13:38:31Z</time>
      </trkpt>
      <trkpt lat="43.07194" lon="1.10072">
        <ele>483</ele>
        <time>2020-01-25T13:38:39Z</time>
      </trkpt>
      <trkpt lat="43.07186" lon="1.10079">
        <ele>482</ele>
        <time>2020-01-25T13:38:49Z</time>
      </trkpt>
      <trkpt lat="43.07183" lon="1.10092">
        <ele>483</ele>
        <time>2020-01-25T13:38:57Z</time>
      </trkpt>
      <trkpt lat="43.07174" lon="1.10097">
        <ele>483</ele>
        <time>2020-01-25T13:39:04Z</time>
      </trkpt>
      <trkpt lat="43.07165" lon="1.10097">
        <ele>486</ele>
        <time>2020-01-25T13:39:13Z</time>
      </trkpt>
      <trkpt lat="43.07155" lon="1.10099">
        <ele>488</ele>
        <time>2020-01-25T13:39:21Z</time>
      </trkpt>
      <trkpt lat="43.07147" lon="1.10107">
        <ele>486</ele>
        <time>2020-01-25T13:39:29Z</time>
      </trkpt>
      <trkpt lat="43.07141" lon="1.10117">
        <ele>484</ele>
        <time>2020-01-25T13:39:36Z</time>
      </trkpt>
      <trkpt lat="43.07134" lon="1.10127">
        <ele>491</ele>
        <time>2020-01-25T13:39:48Z</time>
      </trkpt>
      <trkpt lat="43.07129" lon="1.10138">
        <ele>493</ele>
        <time>2020-01-25T13:39:58Z</time>
      </trkpt>
      <trkpt lat="43.07127" lon="1.1015">
        <ele>488</ele>
        <time>2020-01-25T13:40:04Z</time>
      </trkpt>
      <trkpt lat="43.07123" lon="1.10162">
        <ele>485</ele>
        <time>2020-01-25T13:40:12Z</time>
      </trkpt>
      <trkpt lat="43.07116" lon="1.10172">
        <ele>492</ele>
        <time>2020-01-25T13:40:23Z</time>
      </trkpt>
      <trkpt lat="43.07109" lon="1.10181">
        <ele>496</ele>
        <time>2020-01-25T13:40:31Z</time>
      </trkpt>
      <trkpt lat="43.07102" lon="1.10188">
        <ele>497</ele>
        <time>2020-01-25T13:40:40Z</time>
      </trkpt>
      <trkpt lat="43.07096" lon="1.10198">
        <ele>498</ele>
        <time>2020-01-25T13:40:48Z</time>
      </trkpt>
      <trkpt lat="43.0709" lon="1.10208">
        <ele>503</ele>
        <time>2020-01-25T13:40:59Z</time>
      </trkpt>
      <trkpt lat="43.07083" lon="1.10216">
        <ele>501</ele>
        <time>2020-01-25T13:41:10Z</time>
      </trkpt>
      <trkpt lat="43.07074" lon="1.10221">
        <ele>501</ele>
        <time>2020-01-25T13:41:18Z</time>
      </trkpt>
      <trkpt lat="43.07067" lon="1.10233">
        <ele>499</ele>
        <time>2020-01-25T13:41:27Z</time>
      </trkpt>
      <trkpt lat="43.0706" lon="1.10243">
        <ele>499</ele>
        <time>2020-01-25T13:41:35Z</time>
      </trkpt>
      <trkpt lat="43.07052" lon="1.10251">
        <ele>499</ele>
        <time>2020-01-25T13:41:45Z</time>
      </trkpt>
      <trkpt lat="43.07046" lon="1.10262">
        <ele>501</ele>
        <time>2020-01-25T13:41:53Z</time>
      </trkpt>
      <trkpt lat="43.07041" lon="1.10273">
        <ele>501</ele>
        <time>2020-01-25T13:42:01Z</time>
      </trkpt>
      <trkpt lat="43.07037" lon="1.10285">
        <ele>500</ele>
        <time>2020-01-25T13:42:10Z</time>
      </trkpt>
      <trkpt lat="43.07031" lon="1.10295">
        <ele>502</ele>
        <time>2020-01-25T13:42:20Z</time>
      </trkpt>
      <trkpt lat="43.07024" lon="1.10304">
        <ele>503</ele>
        <time>2020-01-25T13:47:59Z</time>
      </trkpt>
      <trkpt lat="43.07017" lon="1.10313">
        <ele>505</ele>
        <time>2020-01-25T13:48:10Z</time>
      </trkpt>
      <trkpt lat="43.07011" lon="1.10323">
        <ele>504</ele>
        <time>2020-01-25T13:48:19Z</time>
      </trkpt>
      <trkpt lat="43.07001" lon="1.10329">
        <ele>505</ele>
        <time>2020-01-25T13:48:27Z</time>
      </trkpt>
      <trkpt lat="43.06995" lon="1.10339">
        <ele>505</ele>
        <time>2020-01-25T13:48:35Z</time>
      </trkpt>
      <trkpt lat="43.0699" lon="1.10351">
        <ele>506</ele>
        <time>2020-01-25T13:48:42Z</time>
      </trkpt>
      <trkpt lat="43.06982" lon="1.10357">
        <ele>505</ele>
        <time>2020-01-25T13:48:53Z</time>
      </trkpt>
      <trkpt lat="43.06977" lon="1.10369">
        <ele>504</ele>
        <time>2020-01-25T13:49:07Z</time>
      </trkpt>
      <trkpt lat="43.06971" lon="1.10379">
        <ele>501</ele>
        <time>2020-01-25T13:49:16Z</time>
      </trkpt>
      <trkpt lat="43.06963" lon="1.10389">
        <ele>501</ele>
        <time>2020-01-25T13:49:23Z</time>
      </trkpt>
      <trkpt lat="43.06959" lon="1.104">
        <ele>502</ele>
        <time>2020-01-25T13:49:32Z</time>
      </trkpt>
      <trkpt lat="43.06952" lon="1.1041">
        <ele>505</ele>
        <time>2020-01-25T13:49:40Z</time>
      </trkpt>
      <trkpt lat="43.06946" lon="1.1042">
        <ele>506</ele>
        <time>2020-01-25T13:49:47Z</time>
      </trkpt>
      <trkpt lat="43.0694" lon="1.1043">
        <ele>507</ele>
        <time>2020-01-25T13:49:57Z</time>
      </trkpt>
      <trkpt lat="43.06934" lon="1.1044">
        <ele>507</ele>
        <time>2020-01-25T13:50:04Z</time>
      </trkpt>
      <trkpt lat="43.06927" lon="1.1045">
        <ele>506</ele>
        <time>2020-01-25T13:50:11Z</time>
      </trkpt>
      <trkpt lat="43.06918" lon="1.10458">
        <ele>506</ele>
        <time>2020-01-25T13:50:18Z</time>
      </trkpt>
      <trkpt lat="43.06914" lon="1.10469">
        <ele>510</ele>
        <time>2020-01-25T13:50:26Z</time>
      </trkpt>
      <trkpt lat="43.06905" lon="1.10475">
        <ele>514</ele>
        <time>2020-01-25T13:50:33Z</time>
      </trkpt>
      <trkpt lat="43.06897" lon="1.10483">
        <ele>512</ele>
        <time>2020-01-25T13:50:41Z</time>
      </trkpt>
      <trkpt lat="43.0689" lon="1.10492">
        <ele>513</ele>
        <time>2020-01-25T13:50:49Z</time>
      </trkpt>
      <trkpt lat="43.06884" lon="1.10501">
        <ele>515</ele>
        <time>2020-01-25T13:50:56Z</time>
      </trkpt>
      <trkpt lat="43.0688" lon="1.10514">
        <ele>511</ele>
        <time>2020-01-25T13:51:03Z</time>
      </trkpt>
      <trkpt lat="43.06876" lon="1.10527">
        <ele>512</ele>
        <time>2020-01-25T13:51:12Z</time>
      </trkpt>
      <trkpt lat="43.06874" lon="1.10539">
        <ele>511</ele>
        <time>2020-01-25T13:51:20Z</time>
      </trkpt>
      <trkpt lat="43.06868" lon="1.10551">
        <ele>513</ele>
        <time>2020-01-25T13:51:28Z</time>
      </trkpt>
      <trkpt lat="43.06862" lon="1.10563">
        <ele>512</ele>
        <time>2020-01-25T13:51:36Z</time>
      </trkpt>
      <trkpt lat="43.06857" lon="1.10575">
        <ele>514</ele>
        <time>2020-01-25T13:51:44Z</time>
      </trkpt>
      <trkpt lat="43.06852" lon="1.10587">
        <ele>517</ele>
        <time>2020-01-25T13:51:51Z</time>
      </trkpt>
      <trkpt lat="43.06851" lon="1.106">
        <ele>517</ele>
        <time>2020-01-25T13:52:00Z</time>
      </trkpt>
      <trkpt lat="43.06846" lon="1.10613">
        <ele>516</ele>
        <time>2020-01-25T13:52:09Z</time>
      </trkpt>
      <trkpt lat="43.06841" lon="1.10625">
        <ele>516</ele>
        <time>2020-01-25T13:52:17Z</time>
      </trkpt>
      <trkpt lat="43.06834" lon="1.10635">
        <ele>513</ele>
        <time>2020-01-25T13:52:25Z</time>
      </trkpt>
      <trkpt lat="43.0683" lon="1.10646">
        <ele>516</ele>
        <time>2020-01-25T13:52:37Z</time>
      </trkpt>
      <trkpt lat="43.06834" lon="1.1066">
        <ele>524</ele>
        <time>2020-01-25T13:52:56Z</time>
      </trkpt>
      <trkpt lat="43.06843" lon="1.10658">
        <ele>525</ele>
        <time>2020-01-25T13:54:00Z</time>
      </trkpt>
      <trkpt lat="43.06851" lon="1.10649">
        <ele>522</ele>
        <time>2020-01-25T13:54:12Z</time>
      </trkpt>
      <trkpt lat="43.0686" lon="1.10654">
        <ele>522</ele>
        <time>2020-01-25T13:54:27Z</time>
      </trkpt>
      <trkpt lat="43.06868" lon="1.1066">
        <ele>526</ele>
        <time>2020-01-25T13:54:39Z</time>
      </trkpt>
      <trkpt lat="43.06875" lon="1.10669">
        <ele>525</ele>
        <time>2020-01-25T13:54:49Z</time>
      </trkpt>
      <trkpt lat="43.06881" lon="1.10679">
        <ele>527</ele>
        <time>2020-01-25T13:55:00Z</time>
      </trkpt>
      <trkpt lat="43.06883" lon="1.10692">
        <ele>529</ele>
        <time>2020-01-25T13:55:10Z</time>
      </trkpt>
      <trkpt lat="43.06889" lon="1.10702">
        <ele>531</ele>
        <time>2020-01-25T13:55:20Z</time>
      </trkpt>
      <trkpt lat="43.06891" lon="1.10715">
        <ele>534</ele>
        <time>2020-01-25T13:55:32Z</time>
      </trkpt>
      <trkpt lat="43.06896" lon="1.10726">
        <ele>537</ele>
        <time>2020-01-25T13:55:40Z</time>
      </trkpt>
      <trkpt lat="43.06902" lon="1.10736">
        <ele>541</ele>
        <time>2020-01-25T13:55:56Z</time>
      </trkpt>
      <trkpt lat="43.06905" lon="1.1075">
        <ele>543</ele>
        <time>2020-01-25T13:56:09Z</time>
      </trkpt>
      <trkpt lat="43.06905" lon="1.10764">
        <ele>541</ele>
        <time>2020-01-25T13:56:17Z</time>
      </trkpt>
      <trkpt lat="43.06912" lon="1.10773">
        <ele>541</ele>
        <time>2020-01-25T13:56:26Z</time>
      </trkpt>
      <trkpt lat="43.06917" lon="1.10783">
        <ele>542</ele>
        <time>2020-01-25T13:56:37Z</time>
      </trkpt>
      <trkpt lat="43.06922" lon="1.10793">
        <ele>547</ele>
        <time>2020-01-25T13:56:44Z</time>
      </trkpt>
      <trkpt lat="43.06928" lon="1.10805">
        <ele>545</ele>
        <time>2020-01-25T13:56:54Z</time>
      </trkpt>
      <trkpt lat="43.06933" lon="1.10816">
        <ele>546</ele>
        <time>2020-01-25T13:57:04Z</time>
      </trkpt>
      <trkpt lat="43.06939" lon="1.10826">
        <ele>548</ele>
        <time>2020-01-25T13:57:14Z</time>
      </trkpt>
      <trkpt lat="43.06944" lon="1.10837">
        <ele>548</ele>
        <time>2020-01-25T13:57:25Z</time>
      </trkpt>
      <trkpt lat="43.06946" lon="1.1085">
        <ele>551</ele>
        <time>2020-01-25T13:57:34Z</time>
      </trkpt>
      <trkpt lat="43.06948" lon="1.10862">
        <ele>552</ele>
        <time>2020-01-25T13:57:50Z</time>
      </trkpt>
      <trkpt lat="43.06953" lon="1.10874">
        <ele>552</ele>
        <time>2020-01-25T13:58:00Z</time>
      </trkpt>
      <trkpt lat="43.0696" lon="1.10882">
        <ele>553</ele>
        <time>2020-01-25T13:58:07Z</time>
      </trkpt>
      <trkpt lat="43.06967" lon="1.10891">
        <ele>549</ele>
        <time>2020-01-25T13:58:19Z</time>
      </trkpt>
      <trkpt lat="43.06969" lon="1.10904">
        <ele>551</ele>
        <time>2020-01-25T13:58:26Z</time>
      </trkpt>
      <trkpt lat="43.06979" lon="1.10909">
        <ele>551</ele>
        <time>2020-01-25T13:58:36Z</time>
      </trkpt>
      <trkpt lat="43.06984" lon="1.10921">
        <ele>554</ele>
        <time>2020-01-25T13:58:47Z</time>
      </trkpt>
      <trkpt lat="43.06995" lon="1.10924">
        <ele>560</ele>
        <time>2020-01-25T13:58:55Z</time>
      </trkpt>
      <trkpt lat="43.07002" lon="1.10932">
        <ele>558</ele>
        <time>2020-01-25T13:59:06Z</time>
      </trkpt>
      <trkpt lat="43.07008" lon="1.10943">
        <ele>561</ele>
        <time>2020-01-25T13:59:15Z</time>
      </trkpt>
      <trkpt lat="43.07017" lon="1.10947">
        <ele>562</ele>
        <time>2020-01-25T13:59:21Z</time>
      </trkpt>
      <trkpt lat="43.07025" lon="1.10955">
        <ele>564</ele>
        <time>2020-01-25T13:59:31Z</time>
      </trkpt>
      <trkpt lat="43.07035" lon="1.1096">
        <ele>562</ele>
        <time>2020-01-25T13:59:42Z</time>
      </trkpt>
      <trkpt lat="43.07044" lon="1.10966">
        <ele>563</ele>
        <time>2020-01-25T13:59:50Z</time>
      </trkpt>
      <trkpt lat="43.07054" lon="1.10967">
        <ele>566</ele>
        <time>2020-01-25T13:59:56Z</time>
      </trkpt>
      <trkpt lat="43.07062" lon="1.10972">
        <ele>574</ele>
        <time>2020-01-25T14:00:04Z</time>
      </trkpt>
      <trkpt lat="43.07071" lon="1.10975">
        <ele>573</ele>
        <time>2020-01-25T14:00:13Z</time>
      </trkpt>
      <trkpt lat="43.0708" lon="1.1098">
        <ele>576</ele>
        <time>2020-01-25T14:00:19Z</time>
      </trkpt>
      <trkpt lat="43.07089" lon="1.10983">
        <ele>576</ele>
        <time>2020-01-25T14:00:27Z</time>
      </trkpt>
      <trkpt lat="43.07098" lon="1.10986">
        <ele>574</ele>
        <time>2020-01-25T14:00:37Z</time>
      </trkpt>
      <trkpt lat="43.07108" lon="1.10989">
        <ele>569</ele>
        <time>2020-01-25T14:00:47Z</time>
      </trkpt>
      <trkpt lat="43.07116" lon="1.10995">
        <ele>568</ele>
        <time>2020-01-25T14:00:54Z</time>
      </trkpt>
      <trkpt lat="43.07124" lon="1.11002">
        <ele>567</ele>
        <time>2020-01-25T14:01:04Z</time>
      </trkpt>
      <trkpt lat="43.07134" lon="1.11007">
        <ele>566</ele>
        <time>2020-01-25T14:01:14Z</time>
      </trkpt>
      <trkpt lat="43.07143" lon="1.1101">
        <ele>568</ele>
        <time>2020-01-25T14:01:21Z</time>
      </trkpt>
      <trkpt lat="43.07152" lon="1.11017">
        <ele>566</ele>
        <time>2020-01-25T14:01:29Z</time>
      </trkpt>
      <trkpt lat="43.0716" lon="1.11022">
        <ele>565</ele>
        <time>2020-01-25T14:01:38Z</time>
      </trkpt>
      <trkpt lat="43.07167" lon="1.11031">
        <ele>569</ele>
        <time>2020-01-25T14:01:46Z</time>
      </trkpt>
      <trkpt lat="43.07172" lon="1.11041">
        <ele>571</ele>
        <time>2020-01-25T14:01:54Z</time>
      </trkpt>
      <trkpt lat="43.0718" lon="1.11054">
        <ele>569</ele>
        <time>2020-01-25T14:02:01Z</time>
      </trkpt>
      <trkpt lat="43.07183" lon="1.11066">
        <ele>569</ele>
        <time>2020-01-25T14:02:09Z</time>
      </trkpt>
      <trkpt lat="43.07189" lon="1.11076">
        <ele>566</ele>
        <time>2020-01-25T14:02:17Z</time>
      </trkpt>
      <trkpt lat="43.07196" lon="1.11086">
        <ele>568</ele>
        <time>2020-01-25T14:02:27Z</time>
      </trkpt>
      <trkpt lat="43.07202" lon="1.11096">
        <ele>567</ele>
        <time>2020-01-25T14:02:36Z</time>
      </trkpt>
      <trkpt lat="43.07206" lon="1.11108">
        <ele>565</ele>
        <time>2020-01-25T14:02:45Z</time>
      </trkpt>
      <trkpt lat="43.07212" lon="1.11118">
        <ele>567</ele>
        <time>2020-01-25T14:02:55Z</time>
      </trkpt>
      <trkpt lat="43.07217" lon="1.11129">
        <ele>571</ele>
        <time>2020-01-25T14:03:03Z</time>
      </trkpt>
      <trkpt lat="43.07223" lon="1.11138">
        <ele>570</ele>
        <time>2020-01-25T14:03:11Z</time>
      </trkpt>
      <trkpt lat="43.0723" lon="1.11146">
        <ele>569</ele>
        <time>2020-01-25T14:03:19Z</time>
      </trkpt>
      <trkpt lat="43.07236" lon="1.11158">
        <ele>565</ele>
        <time>2020-01-25T14:03:27Z</time>
      </trkpt>
      <trkpt lat="43.0724" lon="1.1117">
        <ele>565</ele>
        <time>2020-01-25T14:03:35Z</time>
      </trkpt>
      <trkpt lat="43.07247" lon="1.11177">
        <ele>565</ele>
        <time>2020-01-25T14:03:42Z</time>
      </trkpt>
      <trkpt lat="43.07252" lon="1.11189">
        <ele>565</ele>
        <time>2020-01-25T14:03:50Z</time>
      </trkpt>
      <trkpt lat="43.07256" lon="1.112">
        <ele>564</ele>
        <time>2020-01-25T14:03:59Z</time>
      </trkpt>
      <trkpt lat="43.07262" lon="1.11209">
        <ele>568</ele>
        <time>2020-01-25T14:04:08Z</time>
      </trkpt>
      <trkpt lat="43.0727" lon="1.11217">
        <ele>570</ele>
        <time>2020-01-25T14:04:15Z</time>
      </trkpt>
      <trkpt lat="43.07276" lon="1.11226">
        <ele>570</ele>
        <time>2020-01-25T14:04:26Z</time>
      </trkpt>
      <trkpt lat="43.07284" lon="1.11235">
        <ele>573</ele>
        <time>2020-01-25T14:04:37Z</time>
      </trkpt>
      <trkpt lat="43.07291" lon="1.11243">
        <ele>571</ele>
        <time>2020-01-25T14:04:47Z</time>
      </trkpt>
      <trkpt lat="43.07295" lon="1.11256">
        <ele>565</ele>
        <time>2020-01-25T14:05:47Z</time>
      </trkpt>
      <trkpt lat="43.07303" lon="1.11264">
        <ele>561</ele>
        <time>2020-01-25T14:06:33Z</time>
      </trkpt>
      <trkpt lat="43.07308" lon="1.11276">
        <ele>563</ele>
        <time>2020-01-25T14:06:40Z</time>
      </trkpt>
      <trkpt lat="43.07313" lon="1.11287">
        <ele>561</ele>
        <time>2020-01-25T14:06:51Z</time>
      </trkpt>
      <trkpt lat="43.07321" lon="1.11295">
        <ele>558</ele>
        <time>2020-01-25T14:07:29Z</time>
      </trkpt>
      <trkpt lat="43.07326" lon="1.11306">
        <ele>563</ele>
        <time>2020-01-25T14:07:55Z</time>
      </trkpt>
      <trkpt lat="43.07329" lon="1.11319">
        <ele>559</ele>
        <time>2020-01-25T14:08:06Z</time>
      </trkpt>
      <trkpt lat="43.0733" lon="1.11332">
        <ele>562</ele>
        <time>2020-01-25T14:08:16Z</time>
      </trkpt>
      <trkpt lat="43.07336" lon="1.11343">
        <ele>565</ele>
        <time>2020-01-25T14:08:28Z</time>
      </trkpt>
      <trkpt lat="43.07337" lon="1.11355">
        <ele>569</ele>
        <time>2020-01-25T14:08:40Z</time>
      </trkpt>
      <trkpt lat="43.0734" lon="1.11368">
        <ele>575</ele>
        <time>2020-01-25T14:08:52Z</time>
      </trkpt>
      <trkpt lat="43.07343" lon="1.11379">
        <ele>575</ele>
        <time>2020-01-25T14:09:00Z</time>
      </trkpt>
      <trkpt lat="43.07352" lon="1.11387">
        <ele>571</ele>
        <time>2020-01-25T14:09:09Z</time>
      </trkpt>
      <trkpt lat="43.07358" lon="1.11397">
        <ele>568</ele>
        <time>2020-01-25T14:09:17Z</time>
      </trkpt>
      <trkpt lat="43.0736" lon="1.11409">
        <ele>568</ele>
        <time>2020-01-25T14:09:26Z</time>
      </trkpt>
      <trkpt lat="43.0736" lon="1.11423">
        <ele>568</ele>
        <time>2020-01-25T14:09:37Z</time>
      </trkpt>
      <trkpt lat="43.07357" lon="1.11434">
        <ele>568</ele>
        <time>2020-01-25T14:09:46Z</time>
      </trkpt>
      <trkpt lat="43.07348" lon="1.11441">
        <ele>565</ele>
        <time>2020-01-25T14:09:55Z</time>
      </trkpt>
      <trkpt lat="43.07344" lon="1.11452">
        <ele>572</ele>
        <time>2020-01-25T14:11:11Z</time>
      </trkpt>
      <trkpt lat="43.07341" lon="1.11464">
        <ele>575</ele>
        <time>2020-01-25T14:11:31Z</time>
      </trkpt>
      <trkpt lat="43.07336" lon="1.11478">
        <ele>578</ele>
        <time>2020-01-25T14:12:16Z</time>
      </trkpt>
      <trkpt lat="43.07332" lon="1.1149">
        <ele>572</ele>
        <time>2020-01-25T14:12:33Z</time>
      </trkpt>
      <trkpt lat="43.07327" lon="1.11503">
        <ele>569</ele>
        <time>2020-01-25T14:12:44Z</time>
      </trkpt>
      <trkpt lat="43.07323" lon="1.11516">
        <ele>568</ele>
        <time>2020-01-25T14:12:53Z</time>
      </trkpt>
      <trkpt lat="43.0732" lon="1.11528">
        <ele>573</ele>
        <time>2020-01-25T14:13:02Z</time>
      </trkpt>
      <trkpt lat="43.07318" lon="1.1154">
        <ele>578</ele>
        <time>2020-01-25T14:13:12Z</time>
      </trkpt>
      <trkpt lat="43.07315" lon="1.11552">
        <ele>574</ele>
        <time>2020-01-25T14:13:30Z</time>
      </trkpt>
      <trkpt lat="43.07311" lon="1.11564">
        <ele>571</ele>
        <time>2020-01-25T14:13:39Z</time>
      </trkpt>
      <trkpt lat="43.0731" lon="1.11577">
        <ele>571</ele>
        <time>2020-01-25T14:13:50Z</time>
      </trkpt>
      <trkpt lat="43.07305" lon="1.1159">
        <ele>569</ele>
        <time>2020-01-25T14:13:59Z</time>
      </trkpt>
      <trkpt lat="43.07303" lon="1.11604">
        <ele>569</ele>
        <time>2020-01-25T14:14:08Z</time>
      </trkpt>
      <trkpt lat="43.073" lon="1.11616">
        <ele>566</ele>
        <time>2020-01-25T14:14:20Z</time>
      </trkpt>
      <trkpt lat="43.07298" lon="1.1163">
        <ele>567</ele>
        <time>2020-01-25T14:14:30Z</time>
      </trkpt>
      <trkpt lat="43.07296" lon="1.11643">
        <ele>564</ele>
        <time>2020-01-25T14:14:37Z</time>
      </trkpt>
      <trkpt lat="43.07294" lon="1.11655">
        <ele>560</ele>
        <time>2020-01-25T14:14:45Z</time>
      </trkpt>
      <trkpt lat="43.07293" lon="1.11668">
        <ele>561</ele>
        <time>2020-01-25T14:14:53Z</time>
      </trkpt>
      <trkpt lat="43.07286" lon="1.11679">
        <ele>555</ele>
        <time>2020-01-25T14:15:04Z</time>
      </trkpt>
      <trkpt lat="43.07279" lon="1.11689">
        <ele>553</ele>
        <time>2020-01-25T14:15:18Z</time>
      </trkpt>
      <trkpt lat="43.07272" lon="1.11697">
        <ele>552</ele>
        <time>2020-01-25T14:15:26Z</time>
      </trkpt>
      <trkpt lat="43.0727" lon="1.1171">
        <ele>549</ele>
        <time>2020-01-25T14:15:36Z</time>
      </trkpt>
      <trkpt lat="43.07269" lon="1.11723">
        <ele>548</ele>
        <time>2020-01-25T14:15:48Z</time>
      </trkpt>
      <trkpt lat="43.07267" lon="1.11735">
        <ele>542</ele>
        <time>2020-01-25T14:16:00Z</time>
      </trkpt>
      <trkpt lat="43.07265" lon="1.11747">
        <ele>544</ele>
        <time>2020-01-25T14:16:11Z</time>
      </trkpt>
      <trkpt lat="43.07261" lon="1.11758">
        <ele>545</ele>
        <time>2020-01-25T14:16:23Z</time>
      </trkpt>
      <trkpt lat="43.0726" lon="1.11772">
        <ele>541</ele>
        <time>2020-01-25T14:16:33Z</time>
      </trkpt>
      <trkpt lat="43.07257" lon="1.11784">
        <ele>537</ele>
        <time>2020-01-25T14:16:41Z</time>
      </trkpt>
      <trkpt lat="43.07253" lon="1.11797">
        <ele>536</ele>
        <time>2020-01-25T14:16:51Z</time>
      </trkpt>
      <trkpt lat="43.07253" lon="1.1181">
        <ele>540</ele>
        <time>2020-01-25T14:17:03Z</time>
      </trkpt>
      <trkpt lat="43.07251" lon="1.11823">
        <ele>538</ele>
        <time>2020-01-25T14:17:11Z</time>
      </trkpt>
      <trkpt lat="43.07249" lon="1.11836">
        <ele>542</ele>
        <time>2020-01-25T14:17:33Z</time>
      </trkpt>
      <trkpt lat="43.0725" lon="1.11848">
        <ele>537</ele>
        <time>2020-01-25T14:17:39Z</time>
      </trkpt>
      <trkpt lat="43.07248" lon="1.11861">
        <ele>534</ele>
        <time>2020-01-25T14:17:48Z</time>
      </trkpt>
      <trkpt lat="43.07248" lon="1.11874">
        <ele>534</ele>
        <time>2020-01-25T14:17:57Z</time>
      </trkpt>
      <trkpt lat="43.07249" lon="1.11887">
        <ele>529</ele>
        <time>2020-01-25T14:18:05Z</time>
      </trkpt>
      <trkpt lat="43.07247" lon="1.119">
        <ele>532</ele>
        <time>2020-01-25T14:18:14Z</time>
      </trkpt>
      <trkpt lat="43.07243" lon="1.11912">
        <ele>532</ele>
        <time>2020-01-25T14:18:24Z</time>
      </trkpt>
      <trkpt lat="43.07238" lon="1.11924">
        <ele>532</ele>
        <time>2020-01-25T14:18:33Z</time>
      </trkpt>
      <trkpt lat="43.07234" lon="1.11935">
        <ele>528</ele>
        <time>2020-01-25T14:18:43Z</time>
      </trkpt>
      <trkpt lat="43.0723" lon="1.11947">
        <ele>521</ele>
        <time>2020-01-25T14:18:56Z</time>
      </trkpt>
      <trkpt lat="43.07231" lon="1.1196">
        <ele>517</ele>
        <time>2020-01-25T14:19:03Z</time>
      </trkpt>
      <trkpt lat="43.0723" lon="1.11973">
        <ele>518</ele>
        <time>2020-01-25T14:19:10Z</time>
      </trkpt>
      <trkpt lat="43.07227" lon="1.11985">
        <ele>515</ele>
        <time>2020-01-25T14:19:19Z</time>
      </trkpt>
      <trkpt lat="43.07225" lon="1.11997">
        <ele>511</ele>
        <time>2020-01-25T14:19:28Z</time>
      </trkpt>
      <trkpt lat="43.07225" lon="1.1201">
        <ele>511</ele>
        <time>2020-01-25T14:19:35Z</time>
      </trkpt>
      <trkpt lat="43.07227" lon="1.12023">
        <ele>514</ele>
        <time>2020-01-25T14:19:42Z</time>
      </trkpt>
      <trkpt lat="43.07227" lon="1.12036">
        <ele>514</ele>
        <time>2020-01-25T14:19:52Z</time>
      </trkpt>
      <trkpt lat="43.07229" lon="1.12049">
        <ele>514</ele>
        <time>2020-01-25T14:19:59Z</time>
      </trkpt>
      <trkpt lat="43.07233" lon="1.12061">
        <ele>511</ele>
        <time>2020-01-25T14:20:07Z</time>
      </trkpt>
      <trkpt lat="43.07238" lon="1.12072">
        <ele>507</ele>
        <time>2020-01-25T14:20:21Z</time>
      </trkpt>
      <trkpt lat="43.07233" lon="1.12083">
        <ele>497</ele>
        <time>2020-01-25T14:20:46Z</time>
      </trkpt>
      <trkpt lat="43.07236" lon="1.12096">
        <ele>496</ele>
        <time>2020-01-25T14:20:55Z</time>
      </trkpt>
      <trkpt lat="43.07236" lon="1.12109">
        <ele>497</ele>
        <time>2020-01-25T14:21:07Z</time>
      </trkpt>
      <trkpt lat="43.07231" lon="1.12121">
        <ele>501</ele>
        <time>2020-01-25T14:21:13Z</time>
      </trkpt>
      <trkpt lat="43.07237" lon="1.12132">
        <ele>494</ele>
        <time>2020-01-25T14:21:24Z</time>
      </trkpt>
      <trkpt lat="43.07247" lon="1.12131">
        <ele>500</ele>
        <time>2020-01-25T14:21:51Z</time>
      </trkpt>
      <trkpt lat="43.07255" lon="1.12121">
        <ele>496</ele>
        <time>2020-01-25T14:24:02Z</time>
      </trkpt>
      <trkpt lat="43.07261" lon="1.12109">
        <ele>497</ele>
        <time>2020-01-25T14:24:09Z</time>
      </trkpt>
      <trkpt lat="43.07268" lon="1.12099">
        <ele>493</ele>
        <time>2020-01-25T14:24:14Z</time>
      </trkpt>
      <trkpt lat="43.07276" lon="1.12092">
        <ele>499</ele>
        <time>2020-01-25T14:24:23Z</time>
      </trkpt>
      <trkpt lat="43.07282" lon="1.12079">
        <ele>499</ele>
        <time>2020-01-25T14:24:35Z</time>
      </trkpt>
      <trkpt lat="43.0729" lon="1.1207">
        <ele>502</ele>
        <time>2020-01-25T14:24:45Z</time>
      </trkpt>
      <trkpt lat="43.07295" lon="1.12058">
        <ele>498</ele>
        <time>2020-01-25T14:24:54Z</time>
      </trkpt>
      <trkpt lat="43.07299" lon="1.12047">
        <ele>496</ele>
        <time>2020-01-25T14:25:04Z</time>
      </trkpt>
      <trkpt lat="43.07306" lon="1.12038">
        <ele>493</ele>
        <time>2020-01-25T14:25:39Z</time>
      </trkpt>
      <trkpt lat="43.07317" lon="1.12023">
        <ele>497</ele>
        <time>2020-01-25T14:25:59Z</time>
      </trkpt>
      <trkpt lat="43.07318" lon="1.12009">
        <ele>495</ele>
        <time>2020-01-25T14:26:05Z</time>
      </trkpt>
      <trkpt lat="43.07324" lon="1.11998">
        <ele>498</ele>
        <time>2020-01-25T14:26:13Z</time>
      </trkpt>
      <trkpt lat="43.07332" lon="1.11989">
        <ele>495</ele>
        <time>2020-01-25T14:26:21Z</time>
      </trkpt>
      <trkpt lat="43.07337" lon="1.11979">
        <ele>493</ele>
        <time>2020-01-25T14:26:31Z</time>
      </trkpt>
      <trkpt lat="43.07342" lon="1.11969">
        <ele>495</ele>
        <time>2020-01-25T14:26:39Z</time>
      </trkpt>
      <trkpt lat="43.07346" lon="1.11957">
        <ele>491</ele>
        <time>2020-01-25T14:26:46Z</time>
      </trkpt>
      <trkpt lat="43.07352" lon="1.11947">
        <ele>486</ele>
        <time>2020-01-25T14:26:54Z</time>
      </trkpt>
      <trkpt lat="43.07357" lon="1.11936">
        <ele>487</ele>
        <time>2020-01-25T14:27:02Z</time>
      </trkpt>
      <trkpt lat="43.07361" lon="1.11924">
        <ele>486</ele>
        <time>2020-01-25T14:27:10Z</time>
      </trkpt>
      <trkpt lat="43.07366" lon="1.11911">
        <ele>489</ele>
        <time>2020-01-25T14:27:19Z</time>
      </trkpt>
      <trkpt lat="43.07369" lon="1.119">
        <ele>494</ele>
        <time>2020-01-25T14:27:32Z</time>
      </trkpt>
      <trkpt lat="43.07374" lon="1.11887">
        <ele>495</ele>
        <time>2020-01-25T14:27:45Z</time>
      </trkpt>
      <trkpt lat="43.07374" lon="1.11874">
        <ele>489</ele>
        <time>2020-01-25T14:27:54Z</time>
      </trkpt>
      <trkpt lat="43.0738" lon="1.11865">
        <ele>497</ele>
        <time>2020-01-25T14:28:26Z</time>
      </trkpt>
      <trkpt lat="43.07389" lon="1.11858">
        <ele>497</ele>
        <time>2020-01-25T14:28:32Z</time>
      </trkpt>
      <trkpt lat="43.07396" lon="1.11846">
        <ele>500</ele>
        <time>2020-01-25T14:30:40Z</time>
      </trkpt>
      <trkpt lat="43.07406" lon="1.11841">
        <ele>484</ele>
        <time>2020-01-25T14:30:45Z</time>
      </trkpt>
      <trkpt lat="43.07414" lon="1.11834">
        <ele>479</ele>
        <time>2020-01-25T14:30:51Z</time>
      </trkpt>
      <trkpt lat="43.07422" lon="1.11829">
        <ele>478</ele>
        <time>2020-01-25T14:30:56Z</time>
      </trkpt>
      <trkpt lat="43.07431" lon="1.11823">
        <ele>478</ele>
        <time>2020-01-25T14:31:08Z</time>
      </trkpt>
      <trkpt lat="43.0744" lon="1.11819">
        <ele>477</ele>
        <time>2020-01-25T14:31:16Z</time>
      </trkpt>
      <trkpt lat="43.07449" lon="1.11816">
        <ele>479</ele>
        <time>2020-01-25T14:31:24Z</time>
      </trkpt>
      <trkpt lat="43.07458" lon="1.11811">
        <ele>482</ele>
        <time>2020-01-25T14:31:32Z</time>
      </trkpt>
      <trkpt lat="43.07465" lon="1.11802">
        <ele>479</ele>
        <time>2020-01-25T14:31:40Z</time>
      </trkpt>
      <trkpt lat="43.07472" lon="1.11794">
        <ele>475</ele>
        <time>2020-01-25T14:31:48Z</time>
      </trkpt>
      <trkpt lat="43.07481" lon="1.11786">
        <ele>471</ele>
        <time>2020-01-25T14:31:58Z</time>
      </trkpt>
      <trkpt lat="43.07487" lon="1.11776">
        <ele>476</ele>
        <time>2020-01-25T14:32:07Z</time>
      </trkpt>
      <trkpt lat="43.07494" lon="1.11765">
        <ele>476</ele>
        <time>2020-01-25T14:32:13Z</time>
      </trkpt>
      <trkpt lat="43.07501" lon="1.11757">
        <ele>476</ele>
        <time>2020-01-25T14:32:18Z</time>
      </trkpt>
      <trkpt lat="43.07508" lon="1.11749">
        <ele>472</ele>
        <time>2020-01-25T14:32:27Z</time>
      </trkpt>
      <trkpt lat="43.07516" lon="1.11742">
        <ele>472</ele>
        <time>2020-01-25T14:32:39Z</time>
      </trkpt>
      <trkpt lat="43.07526" lon="1.1174">
        <ele>474</ele>
        <time>2020-01-25T14:32:55Z</time>
      </trkpt>
      <trkpt lat="43.07534" lon="1.11736">
        <ele>476</ele>
        <time>2020-01-25T14:33:02Z</time>
      </trkpt>
      <trkpt lat="43.07543" lon="1.11731">
        <ele>478</ele>
        <time>2020-01-25T14:33:12Z</time>
      </trkpt>
      <trkpt lat="43.07552" lon="1.11733">
        <ele>478</ele>
        <time>2020-01-25T14:33:23Z</time>
      </trkpt>
      <trkpt lat="43.07561" lon="1.11738">
        <ele>476</ele>
        <time>2020-01-25T14:33:37Z</time>
      </trkpt>
      <trkpt lat="43.07569" lon="1.11746">
        <ele>479</ele>
        <time>2020-01-25T14:33:41Z</time>
      </trkpt>
      <trkpt lat="43.07578" lon="1.11752">
        <ele>479</ele>
        <time>2020-01-25T14:33:47Z</time>
      </trkpt>
      <trkpt lat="43.07587" lon="1.11758">
        <ele>481</ele>
        <time>2020-01-25T14:33:58Z</time>
      </trkpt>
      <trkpt lat="43.07597" lon="1.11763">
        <ele>482</ele>
        <time>2020-01-25T14:34:19Z</time>
      </trkpt>
      <trkpt lat="43.07606" lon="1.11775">
        <ele>479</ele>
        <time>2020-01-25T14:34:38Z</time>
      </trkpt>
      <trkpt lat="43.07614" lon="1.11782">
        <ele>481</ele>
        <time>2020-01-25T14:34:44Z</time>
      </trkpt>
      <trkpt lat="43.07621" lon="1.11791">
        <ele>479</ele>
        <time>2020-01-25T14:34:50Z</time>
      </trkpt>
      <trkpt lat="43.07629" lon="1.11798">
        <ele>473</ele>
        <time>2020-01-25T14:34:57Z</time>
      </trkpt>
      <trkpt lat="43.07637" lon="1.11804">
        <ele>470</ele>
        <time>2020-01-25T14:35:04Z</time>
      </trkpt>
      <trkpt lat="43.07646" lon="1.11802">
        <ele>467</ele>
        <time>2020-01-25T14:35:13Z</time>
      </trkpt>
      <trkpt lat="43.07656" lon="1.11801">
        <ele>461</ele>
        <time>2020-01-25T14:35:23Z</time>
      </trkpt>
      <trkpt lat="43.07665" lon="1.11809">
        <ele>460</ele>
        <time>2020-01-25T14:35:34Z</time>
      </trkpt>
      <trkpt lat="43.07671" lon="1.11819">
        <ele>457</ele>
        <time>2020-01-25T14:35:43Z</time>
      </trkpt>
      <trkpt lat="43.07677" lon="1.11829">
        <ele>454</ele>
        <time>2020-01-25T14:36:01Z</time>
      </trkpt>
      <trkpt lat="43.07687" lon="1.1183">
        <ele>453</ele>
        <time>2020-01-25T14:36:09Z</time>
      </trkpt>
      <trkpt lat="43.07696" lon="1.11827">
        <ele>450</ele>
        <time>2020-01-25T14:36:21Z</time>
      </trkpt>
      <trkpt lat="43.07705" lon="1.11823">
        <ele>447</ele>
        <time>2020-01-25T14:36:29Z</time>
      </trkpt>
      <trkpt lat="43.07713" lon="1.11815">
        <ele>442</ele>
        <time>2020-01-25T14:36:42Z</time>
      </trkpt>
      <trkpt lat="43.07722" lon="1.11808">
        <ele>445</ele>
        <time>2020-01-25T14:36:54Z</time>
      </trkpt>
      <trkpt lat="43.0773" lon="1.11803">
        <ele>445</ele>
        <time>2020-01-25T14:37:34Z</time>
      </trkpt>
      <trkpt lat="43.07739" lon="1.11799">
        <ele>443</ele>
        <time>2020-01-25T14:37:47Z</time>
      </trkpt>
      <trkpt lat="43.07746" lon="1.1179">
        <ele>438</ele>
        <time>2020-01-25T14:37:59Z</time>
      </trkpt>
      <trkpt lat="43.07758" lon="1.11789">
        <ele>444</ele>
        <time>2020-01-25T14:38:56Z</time>
      </trkpt>
      <trkpt lat="43.07766" lon="1.11782">
        <ele>439</ele>
        <time>2020-01-25T14:39:06Z</time>
      </trkpt>
      <trkpt lat="43.07776" lon="1.11787">
        <ele>438</ele>
        <time>2020-01-25T14:39:16Z</time>
      </trkpt>
      <trkpt lat="43.07785" lon="1.11791">
        <ele>434</ele>
        <time>2020-01-25T14:39:29Z</time>
      </trkpt>
      <trkpt lat="43.07793" lon="1.11799">
        <ele>432</ele>
        <time>2020-01-25T14:39:38Z</time>
      </trkpt>
      <trkpt lat="43.07802" lon="1.11796">
        <ele>430</ele>
        <time>2020-01-25T14:39:48Z</time>
      </trkpt>
      <trkpt lat="43.0781" lon="1.11803">
        <ele>429</ele>
        <time>2020-01-25T14:39:56Z</time>
      </trkpt>
      <trkpt lat="43.07818" lon="1.1181">
        <ele>430</ele>
        <time>2020-01-25T14:40:06Z</time>
      </trkpt>
      <trkpt lat="43.07827" lon="1.11815">
        <ele>432</ele>
        <time>2020-01-25T14:41:26Z</time>
      </trkpt>
      <trkpt lat="43.07834" lon="1.11807">
        <ele>431</ele>
        <time>2020-01-25T14:42:56Z</time>
      </trkpt>
      <trkpt lat="43.07834" lon="1.11794">
        <ele>433</ele>
        <time>2020-01-25T14:43:05Z</time>
      </trkpt>
      <trkpt lat="43.07835" lon="1.11781">
        <ele>429</ele>
        <time>2020-01-25T14:43:12Z</time>
      </trkpt>
      <trkpt lat="43.07831" lon="1.1177">
        <ele>429</ele>
        <time>2020-01-25T14:43:25Z</time>
      </trkpt>
      <trkpt lat="43.07837" lon="1.11759">
        <ele>428</ele>
        <time>2020-01-25T14:43:31Z</time>
      </trkpt>
      <trkpt lat="43.07844" lon="1.11751">
        <ele>428</ele>
        <time>2020-01-25T14:43:39Z</time>
      </trkpt>
      <trkpt lat="43.07847" lon="1.11739">
        <ele>424</ele>
        <time>2020-01-25T14:43:45Z</time>
      </trkpt>
      <trkpt lat="43.0785" lon="1.11725">
        <ele>429</ele>
        <time>2020-01-25T14:43:53Z</time>
      </trkpt>
      <trkpt lat="43.07849" lon="1.11709">
        <ele>425</ele>
        <time>2020-01-25T14:44:02Z</time>
      </trkpt>
      <trkpt lat="43.07851" lon="1.11696">
        <ele>425</ele>
        <time>2020-01-25T14:44:10Z</time>
      </trkpt>
      <trkpt lat="43.07848" lon="1.11683">
        <ele>422</ele>
        <time>2020-01-25T14:44:22Z</time>
      </trkpt>
      <trkpt lat="43.07842" lon="1.11672">
        <ele>422</ele>
        <time>2020-01-25T14:44:28Z</time>
      </trkpt>
      <trkpt lat="43.0784" lon="1.11659">
        <ele>420</ele>
        <time>2020-01-25T14:44:36Z</time>
      </trkpt>
      <trkpt lat="43.07835" lon="1.11649">
        <ele>420</ele>
        <time>2020-01-25T14:44:49Z</time>
      </trkpt>
      <trkpt lat="43.07834" lon="1.11635">
        <ele>422</ele>
        <time>2020-01-25T14:44:57Z</time>
      </trkpt>
      <trkpt lat="43.07833" lon="1.11623">
        <ele>417</ele>
        <time>2020-01-25T14:45:02Z</time>
      </trkpt>
      <trkpt lat="43.07839" lon="1.1161">
        <ele>425</ele>
        <time>2020-01-25T14:45:09Z</time>
      </trkpt>
      <trkpt lat="43.07844" lon="1.11599">
        <ele>427</ele>
        <time>2020-01-25T14:45:19Z</time>
      </trkpt>
      <trkpt lat="43.07848" lon="1.11587">
        <ele>424</ele>
        <time>2020-01-25T14:45:25Z</time>
      </trkpt>
      <trkpt lat="43.07856" lon="1.11578">
        <ele>425</ele>
        <time>2020-01-25T14:45:36Z</time>
      </trkpt>
      <trkpt lat="43.07863" lon="1.11568">
        <ele>423</ele>
        <time>2020-01-25T14:45:41Z</time>
      </trkpt>
      <trkpt lat="43.07871" lon="1.1156">
        <ele>425</ele>
        <time>2020-01-25T14:45:52Z</time>
      </trkpt>
      <trkpt lat="43.07879" lon="1.11552">
        <ele>423</ele>
        <time>2020-01-25T14:46:01Z</time>
      </trkpt>
      <trkpt lat="43.07886" lon="1.11543">
        <ele>426</ele>
        <time>2020-01-25T14:46:07Z</time>
      </trkpt>
      <trkpt lat="43.07893" lon="1.11532">
        <ele>425</ele>
        <time>2020-01-25T14:46:15Z</time>
      </trkpt>
      <trkpt lat="43.079" lon="1.11522">
        <ele>429</ele>
        <time>2020-01-25T14:46:24Z</time>
      </trkpt>
      <trkpt lat="43.07905" lon="1.11511">
        <ele>428</ele>
        <time>2020-01-25T14:46:37Z</time>
      </trkpt>
      <trkpt lat="43.07908" lon="1.11499">
        <ele>428</ele>
        <time>2020-01-25T14:46:44Z</time>
      </trkpt>
      <trkpt lat="43.07913" lon="1.11487">
        <ele>428</ele>
        <time>2020-01-25T14:46:50Z</time>
      </trkpt>
      <trkpt lat="43.07916" lon="1.11476">
        <ele>428</ele>
        <time>2020-01-25T14:46:56Z</time>
      </trkpt>
      <trkpt lat="43.07921" lon="1.11464">
        <ele>429</ele>
        <time>2020-01-25T14:47:03Z</time>
      </trkpt>
      <trkpt lat="43.07924" lon="1.11451">
        <ele>429</ele>
        <time>2020-01-25T14:47:11Z</time>
      </trkpt>
      <trkpt lat="43.07927" lon="1.11438">
        <ele>431</ele>
        <time>2020-01-25T14:47:18Z</time>
      </trkpt>
      <trkpt lat="43.07928" lon="1.11425">
        <ele>427</ele>
        <time>2020-01-25T14:47:25Z</time>
      </trkpt>
      <trkpt lat="43.07929" lon="1.11413">
        <ele>425</ele>
        <time>2020-01-25T14:47:37Z</time>
      </trkpt>
      <trkpt lat="43.07934" lon="1.11401">
        <ele>428</ele>
        <time>2020-01-25T14:47:44Z</time>
      </trkpt>
      <trkpt lat="43.07939" lon="1.11389">
        <ele>424</ele>
        <time>2020-01-25T14:47:53Z</time>
      </trkpt>
      <trkpt lat="43.07943" lon="1.11379">
        <ele>424</ele>
        <time>2020-01-25T14:47:59Z</time>
      </trkpt>
      <trkpt lat="43.07951" lon="1.11369">
        <ele>422</ele>
        <time>2020-01-25T14:48:06Z</time>
      </trkpt>
      <trkpt lat="43.07957" lon="1.11358">
        <ele>420</ele>
        <time>2020-01-25T14:48:12Z</time>
      </trkpt>
      <trkpt lat="43.07965" lon="1.1135">
        <ele>422</ele>
        <time>2020-01-25T14:48:21Z</time>
      </trkpt>
      <trkpt lat="43.07974" lon="1.11343">
        <ele>428</ele>
        <time>2020-01-25T14:48:26Z</time>
      </trkpt>
      <trkpt lat="43.07982" lon="1.11335">
        <ele>432</ele>
        <time>2020-01-25T14:48:34Z</time>
      </trkpt>
      <trkpt lat="43.07988" lon="1.11324">
        <ele>433</ele>
        <time>2020-01-25T14:48:43Z</time>
      </trkpt>
      <trkpt lat="43.07992" lon="1.11311">
        <ele>433</ele>
        <time>2020-01-25T14:48:52Z</time>
      </trkpt>
      <trkpt lat="43.07999" lon="1.11303">
        <ele>433</ele>
        <time>2020-01-25T14:49:01Z</time>
      </trkpt>
      <trkpt lat="43.08007" lon="1.11297">
        <ele>433</ele>
        <time>2020-01-25T14:49:10Z</time>
      </trkpt>
      <trkpt lat="43.08017" lon="1.11294">
        <ele>433</ele>
        <time>2020-01-25T14:49:18Z</time>
      </trkpt>
      <trkpt lat="43.08026" lon="1.11293">
        <ele>431</ele>
        <time>2020-01-25T14:49:28Z</time>
      </trkpt>
      <trkpt lat="43.08036" lon="1.11292">
        <ele>430</ele>
        <time>2020-01-25T14:49:41Z</time>
      </trkpt>
      <trkpt lat="43.08045" lon="1.11287">
        <ele>429</ele>
        <time>2020-01-25T14:49:48Z</time>
      </trkpt>
      <trkpt lat="43.08053" lon="1.1128">
        <ele>426</ele>
        <time>2020-01-25T14:49:55Z</time>
      </trkpt>
      <trkpt lat="43.08059" lon="1.11269">
        <ele>427</ele>
        <time>2020-01-25T14:50:03Z</time>
      </trkpt>
      <trkpt lat="43.08065" lon="1.11258">
        <ele>429</ele>
        <time>2020-01-25T14:50:14Z</time>
      </trkpt>
      <trkpt lat="43.08072" lon="1.11249">
        <ele>425</ele>
        <time>2020-01-25T14:50:25Z</time>
      </trkpt>
      <trkpt lat="43.08079" lon="1.1124">
        <ele>428</ele>
        <time>2020-01-25T14:50:35Z</time>
      </trkpt>
      <trkpt lat="43.08088" lon="1.11236">
        <ele>431</ele>
        <time>2020-01-25T14:50:48Z</time>
      </trkpt>
      <trkpt lat="43.0809" lon="1.11224">
        <ele>435</ele>
        <time>2020-01-25T14:51:27Z</time>
      </trkpt>
      <trkpt lat="43.08091" lon="1.1121">
        <ele>435</ele>
        <time>2020-01-25T14:51:36Z</time>
      </trkpt>
      <trkpt lat="43.08093" lon="1.11196">
        <ele>436</ele>
        <time>2020-01-25T14:51:43Z</time>
      </trkpt>
      <trkpt lat="43.08099" lon="1.11186">
        <ele>435</ele>
        <time>2020-01-25T14:51:50Z</time>
      </trkpt>
      <trkpt lat="43.08103" lon="1.11174">
        <ele>436</ele>
        <time>2020-01-25T14:51:54Z</time>
      </trkpt>
      <trkpt lat="43.08107" lon="1.11162">
        <ele>434</ele>
        <time>2020-01-25T14:52:01Z</time>
      </trkpt>
      <trkpt lat="43.08113" lon="1.1115">
        <ele>437</ele>
        <time>2020-01-25T14:52:08Z</time>
      </trkpt>
      <trkpt lat="43.08116" lon="1.11135">
        <ele>435</ele>
        <time>2020-01-25T14:52:18Z</time>
      </trkpt>
      <trkpt lat="43.08121" lon="1.11124">
        <ele>436</ele>
        <time>2020-01-25T14:52:26Z</time>
      </trkpt>
      <trkpt lat="43.08122" lon="1.11111">
        <ele>430</ele>
        <time>2020-01-25T14:52:34Z</time>
      </trkpt>
      <trkpt lat="43.08123" lon="1.11099">
        <ele>429</ele>
        <time>2020-01-25T14:52:40Z</time>
      </trkpt>
      <trkpt lat="43.08129" lon="1.11088">
        <ele>433</ele>
        <time>2020-01-25T14:52:45Z</time>
      </trkpt>
      <trkpt lat="43.08135" lon="1.1108">
        <ele>433</ele>
        <time>2020-01-25T14:52:53Z</time>
      </trkpt>
      <trkpt lat="43.08137" lon="1.11066">
        <ele>433</ele>
        <time>2020-01-25T14:53:00Z</time>
      </trkpt>
      <trkpt lat="43.08141" lon="1.11055">
        <ele>433</ele>
        <time>2020-01-25T14:53:08Z</time>
      </trkpt>
      <trkpt lat="43.08145" lon="1.11043">
        <ele>437</ele>
        <time>2020-01-25T14:53:16Z</time>
      </trkpt>
      <trkpt lat="43.08154" lon="1.11034">
        <ele>434</ele>
        <time>2020-01-25T14:53:22Z</time>
      </trkpt>
      <trkpt lat="43.08162" lon="1.11025">
        <ele>434</ele>
        <time>2020-01-25T14:53:28Z</time>
      </trkpt>
      <trkpt lat="43.08171" lon="1.11018">
        <ele>436</ele>
        <time>2020-01-25T14:53:38Z</time>
      </trkpt>
      <trkpt lat="43.08178" lon="1.1101">
        <ele>438</ele>
        <time>2020-01-25T14:53:47Z</time>
      </trkpt>
      <trkpt lat="43.08186" lon="1.11005">
        <ele>438</ele>
        <time>2020-01-25T14:53:53Z</time>
      </trkpt>
      <trkpt lat="43.08196" lon="1.11001">
        <ele>439</ele>
        <time>2020-01-25T14:54:00Z</time>
      </trkpt>
      <trkpt lat="43.08205" lon="1.10996">
        <ele>438</ele>
        <time>2020-01-25T14:54:07Z</time>
      </trkpt>
      <trkpt lat="43.08214" lon="1.10991">
        <ele>435</ele>
        <time>2020-01-25T14:54:15Z</time>
      </trkpt>
      <trkpt lat="43.08224" lon="1.10989">
        <ele>436</ele>
        <time>2020-01-25T14:54:26Z</time>
      </trkpt>
      <trkpt lat="43.08234" lon="1.10987">
        <ele>437</ele>
        <time>2020-01-25T14:54:34Z</time>
      </trkpt>
      <trkpt lat="43.08243" lon="1.10981">
        <ele>434</ele>
        <time>2020-01-25T14:54:45Z</time>
      </trkpt>
      <trkpt lat="43.08252" lon="1.10974">
        <ele>435</ele>
        <time>2020-01-25T14:54:51Z</time>
      </trkpt>
      <trkpt lat="43.08261" lon="1.10969">
        <ele>438</ele>
        <time>2020-01-25T14:55:04Z</time>
      </trkpt>
      <trkpt lat="43.08268" lon="1.10962">
        <ele>440</ele>
        <time>2020-01-25T14:55:12Z</time>
      </trkpt>
      <trkpt lat="43.08277" lon="1.10958">
        <ele>439</ele>
        <time>2020-01-25T14:55:21Z</time>
      </trkpt>
      <trkpt lat="43.08287" lon="1.10953">
        <ele>437</ele>
        <time>2020-01-25T14:55:27Z</time>
      </trkpt>
      <trkpt lat="43.08296" lon="1.10947">
        <ele>436</ele>
        <time>2020-01-25T14:55:38Z</time>
      </trkpt>
      <trkpt lat="43.08304" lon="1.10938">
        <ele>435</ele>
        <time>2020-01-25T14:55:47Z</time>
      </trkpt>
      <trkpt lat="43.08313" lon="1.10931">
        <ele>435</ele>
        <time>2020-01-25T14:55:55Z</time>
      </trkpt>
      <trkpt lat="43.08322" lon="1.10923">
        <ele>434</ele>
        <time>2020-01-25T14:56:04Z</time>
      </trkpt>
      <trkpt lat="43.08329" lon="1.10912">
        <ele>434</ele>
        <time>2020-01-25T14:56:12Z</time>
      </trkpt>
      <trkpt lat="43.08335" lon="1.10902">
        <ele>433</ele>
        <time>2020-01-25T14:56:23Z</time>
      </trkpt>
      <trkpt lat="43.08342" lon="1.10894">
        <ele>431</ele>
        <time>2020-01-25T14:56:33Z</time>
      </trkpt>
      <trkpt lat="43.08349" lon="1.10883">
        <ele>429</ele>
        <time>2020-01-25T14:56:42Z</time>
      </trkpt>
      <trkpt lat="43.08356" lon="1.10875">
        <ele>429</ele>
        <time>2020-01-25T14:56:49Z</time>
      </trkpt>
      <trkpt lat="43.08364" lon="1.10867">
        <ele>430</ele>
        <time>2020-01-25T14:57:14Z</time>
      </trkpt>
      <trkpt lat="43.08374" lon="1.10856">
        <ele>426</ele>
        <time>2020-01-25T14:57:28Z</time>
      </trkpt>
      <trkpt lat="43.08381" lon="1.10847">
        <ele>423</ele>
        <time>2020-01-25T14:57:33Z</time>
      </trkpt>
      <trkpt lat="43.0839" lon="1.1084">
        <ele>420</ele>
        <time>2020-01-25T14:57:39Z</time>
      </trkpt>
      <trkpt lat="43.08398" lon="1.10835">
        <ele>419</ele>
        <time>2020-01-25T14:57:45Z</time>
      </trkpt>
      <trkpt lat="43.08407" lon="1.10829">
        <ele>419</ele>
        <time>2020-01-25T14:57:56Z</time>
      </trkpt>
      <trkpt lat="43.08417" lon="1.10826">
        <ele>420</ele>
        <time>2020-01-25T14:58:03Z</time>
      </trkpt>
      <trkpt lat="43.08426" lon="1.10828">
        <ele>417</ele>
        <time>2020-01-25T14:58:10Z</time>
      </trkpt>
      <trkpt lat="43.08435" lon="1.10825">
        <ele>414</ele>
        <time>2020-01-25T14:58:18Z</time>
      </trkpt>
      <trkpt lat="43.08445" lon="1.10827">
        <ele>419</ele>
        <time>2020-01-25T14:58:27Z</time>
      </trkpt>
      <trkpt lat="43.08455" lon="1.10832">
        <ele>421</ele>
        <time>2020-01-25T14:58:35Z</time>
      </trkpt>
      <trkpt lat="43.08467" lon="1.10837">
        <ele>421</ele>
        <time>2020-01-25T14:58:44Z</time>
      </trkpt>
      <trkpt lat="43.08476" lon="1.1084">
        <ele>421</ele>
        <time>2020-01-25T14:58:57Z</time>
      </trkpt>
      <trkpt lat="43.08485" lon="1.10847">
        <ele>426</ele>
        <time>2020-01-25T14:59:06Z</time>
      </trkpt>
      <trkpt lat="43.08493" lon="1.1085">
        <ele>425</ele>
        <time>2020-01-25T14:59:14Z</time>
      </trkpt>
      <trkpt lat="43.08504" lon="1.10851">
        <ele>424</ele>
        <time>2020-01-25T14:59:28Z</time>
      </trkpt>
      <trkpt lat="43.08507" lon="1.10863">
        <ele>430</ele>
        <time>2020-01-25T14:59:42Z</time>
      </trkpt>
      <trkpt lat="43.08512" lon="1.10873">
        <ele>428</ele>
        <time>2020-01-25T14:59:51Z</time>
      </trkpt>
      <trkpt lat="43.08526" lon="1.10878">
        <ele>429</ele>
        <time>2020-01-25T15:00:22Z</time>
      </trkpt>
      <trkpt lat="43.08534" lon="1.10872">
        <ele>426</ele>
        <time>2020-01-25T15:00:31Z</time>
      </trkpt>
      <trkpt lat="43.0854" lon="1.10861">
        <ele>425</ele>
        <time>2020-01-25T15:00:39Z</time>
      </trkpt>
      <trkpt lat="43.08545" lon="1.1085">
        <ele>426</ele>
        <time>2020-01-25T15:00:46Z</time>
      </trkpt>
      <trkpt lat="43.0855" lon="1.10839">
        <ele>429</ele>
        <time>2020-01-25T15:00:54Z</time>
      </trkpt>
      <trkpt lat="43.08556" lon="1.10828">
        <ele>428</ele>
        <time>2020-01-25T15:01:02Z</time>
      </trkpt>
      <trkpt lat="43.08562" lon="1.10817">
        <ele>426</ele>
        <time>2020-01-25T15:01:10Z</time>
      </trkpt>
      <trkpt lat="43.08568" lon="1.10807">
        <ele>423</ele>
        <time>2020-01-25T15:01:19Z</time>
      </trkpt>
      <trkpt lat="43.08573" lon="1.10797">
        <ele>423</ele>
        <time>2020-01-25T15:01:28Z</time>
      </trkpt>
      <trkpt lat="43.08579" lon="1.10785">
        <ele>423</ele>
        <time>2020-01-25T15:01:35Z</time>
      </trkpt>
      <trkpt lat="43.08583" lon="1.10773">
        <ele>426</ele>
        <time>2020-01-25T15:01:41Z</time>
      </trkpt>
      <trkpt lat="43.08585" lon="1.10761">
        <ele>431</ele>
        <time>2020-01-25T15:01:50Z</time>
      </trkpt>
      <trkpt lat="43.08587" lon="1.10749">
        <ele>432</ele>
        <time>2020-01-25T15:01:59Z</time>
      </trkpt>
      <trkpt lat="43.08594" lon="1.10737">
        <ele>432</ele>
        <time>2020-01-25T15:02:07Z</time>
      </trkpt>
      <trkpt lat="43.08599" lon="1.10726">
        <ele>434</ele>
        <time>2020-01-25T15:02:13Z</time>
      </trkpt>
      <trkpt lat="43.08602" lon="1.10714">
        <ele>435</ele>
        <time>2020-01-25T15:02:21Z</time>
      </trkpt>
      <trkpt lat="43.08608" lon="1.10706">
        <ele>433</ele>
        <time>2020-01-25T15:02:29Z</time>
      </trkpt>
      <trkpt lat="43.08615" lon="1.10696">
        <ele>433</ele>
        <time>2020-01-25T15:02:33Z</time>
      </trkpt>
      <trkpt lat="43.0862" lon="1.10685">
        <ele>435</ele>
        <time>2020-01-25T15:02:39Z</time>
      </trkpt>
      <trkpt lat="43.08622" lon="1.10673">
        <ele>438</ele>
        <time>2020-01-25T15:02:46Z</time>
      </trkpt>
      <trkpt lat="43.08626" lon="1.10661">
        <ele>439</ele>
        <time>2020-01-25T15:02:54Z</time>
      </trkpt>
      <trkpt lat="43.08629" lon="1.10647">
        <ele>438</ele>
        <time>2020-01-25T15:03:02Z</time>
      </trkpt>
      <trkpt lat="43.08633" lon="1.10635">
        <ele>438</ele>
        <time>2020-01-25T15:03:11Z</time>
      </trkpt>
      <trkpt lat="43.08638" lon="1.10624">
        <ele>439</ele>
        <time>2020-01-25T15:03:17Z</time>
      </trkpt>
      <trkpt lat="43.08641" lon="1.10611">
        <ele>439</ele>
        <time>2020-01-25T15:03:25Z</time>
      </trkpt>
      <trkpt lat="43.08643" lon="1.10598">
        <ele>438</ele>
        <time>2020-01-25T15:03:33Z</time>
      </trkpt>
      <trkpt lat="43.08646" lon="1.10585">
        <ele>441</ele>
        <time>2020-01-25T15:03:44Z</time>
      </trkpt>
      <trkpt lat="43.08648" lon="1.10573">
        <ele>441</ele>
        <time>2020-01-25T15:03:51Z</time>
      </trkpt>
      <trkpt lat="43.08653" lon="1.10563">
        <ele>442</ele>
        <time>2020-01-25T15:03:56Z</time>
      </trkpt>
      <trkpt lat="43.08654" lon="1.1055">
        <ele>443</ele>
        <time>2020-01-25T15:04:05Z</time>
      </trkpt>
      <trkpt lat="43.08659" lon="1.10538">
        <ele>441</ele>
        <time>2020-01-25T15:04:12Z</time>
      </trkpt>
      <trkpt lat="43.08662" lon="1.10526">
        <ele>440</ele>
        <time>2020-01-25T15:04:18Z</time>
      </trkpt>
      <trkpt lat="43.08664" lon="1.10513">
        <ele>438</ele>
        <time>2020-01-25T15:04:27Z</time>
      </trkpt>
      <trkpt lat="43.08667" lon="1.10501">
        <ele>439</ele>
        <time>2020-01-25T15:04:37Z</time>
      </trkpt>
      <trkpt lat="43.08672" lon="1.1049">
        <ele>440</ele>
        <time>2020-01-25T15:04:45Z</time>
      </trkpt>
      <trkpt lat="43.08676" lon="1.10477">
        <ele>442</ele>
        <time>2020-01-25T15:04:54Z</time>
      </trkpt>
      <trkpt lat="43.08678" lon="1.10465">
        <ele>443</ele>
        <time>2020-01-25T15:05:01Z</time>
      </trkpt>
      <trkpt lat="43.08681" lon="1.10452">
        <ele>445</ele>
        <time>2020-01-25T15:05:12Z</time>
      </trkpt>
      <trkpt lat="43.08684" lon="1.1044">
        <ele>442</ele>
        <time>2020-01-25T15:05:18Z</time>
      </trkpt>
      <trkpt lat="43.08687" lon="1.10426">
        <ele>443</ele>
        <time>2020-01-25T15:05:28Z</time>
      </trkpt>
      <trkpt lat="43.08692" lon="1.10413">
        <ele>439</ele>
        <time>2020-01-25T15:05:38Z</time>
      </trkpt>
      <trkpt lat="43.08698" lon="1.104">
        <ele>442</ele>
        <time>2020-01-25T15:05:44Z</time>
      </trkpt>
      <trkpt lat="43.08702" lon="1.10388">
        <ele>445</ele>
        <time>2020-01-25T15:05:50Z</time>
      </trkpt>
      <trkpt lat="43.08708" lon="1.10375">
        <ele>443</ele>
        <time>2020-01-25T15:06:01Z</time>
      </trkpt>
      <trkpt lat="43.08706" lon="1.10362">
        <ele>443</ele>
        <time>2020-01-25T15:06:09Z</time>
      </trkpt>
      <trkpt lat="43.08709" lon="1.1035">
        <ele>442</ele>
        <time>2020-01-25T15:06:15Z</time>
      </trkpt>
      <trkpt lat="43.0871" lon="1.10335">
        <ele>444</ele>
        <time>2020-01-25T15:06:22Z</time>
      </trkpt>
      <trkpt lat="43.08707" lon="1.10322">
        <ele>440</ele>
        <time>2020-01-25T15:06:32Z</time>
      </trkpt>
      <trkpt lat="43.08703" lon="1.10311">
        <ele>441</ele>
        <time>2020-01-25T15:06:39Z</time>
      </trkpt>
      <trkpt lat="43.08701" lon="1.10298">
        <ele>437</ele>
        <time>2020-01-25T15:06:52Z</time>
      </trkpt>
      <trkpt lat="43.08705" lon="1.10286">
        <ele>439</ele>
        <time>2020-01-25T15:06:56Z</time>
      </trkpt>
    </trkseg>
  </trk>
</gpx>